<?xml version="1.0" encoding="UTF-8" standalone="no" ?>
<gpx xmlns="http://www.topografix.com/GPX/1/1" xmlns:xsi="http://www.w3.org/2001/XMLSchema-instance" xsi:schemaLocation="http://www.topografix.com/GPX/1/1 http://www.topografix.com/GPX/1/1/gpx.xsd" version="1.1" creator="VisuGPX - https://www.visugpx.com">
  <metadata>
    <name>Baie de La Ciotat</name>
    <desc><![CDATA[Journée maussade pour une rando dans les calanques, variante dans la baie.]]></desc>
  </metadata>
  <trk>
    <name><![CDATA[Tracé_23-AVR-19 044347 PM]]></name>
    <trkseg>
      <trkpt lat="43.17349" lon="5.61027">
        <ele>13.6</ele>
        <time>2019-04-23T12:39:40Z</time>
      </trkpt>
      <trkpt lat="43.17349" lon="5.61027">
        <ele>13.12</ele>
        <time>2019-04-23T12:39:41Z</time>
      </trkpt>
      <trkpt lat="43.17361" lon="5.61027">
        <ele>10.71</ele>
        <time>2019-04-23T12:40:00Z</time>
      </trkpt>
      <trkpt lat="43.17362" lon="5.61024">
        <ele>10.23</ele>
        <time>2019-04-23T12:40:14Z</time>
      </trkpt>
      <trkpt lat="43.17361" lon="5.61016">
        <ele>10.23</ele>
        <time>2019-04-23T12:40:27Z</time>
      </trkpt>
      <trkpt lat="43.17351" lon="5.61012">
        <ele>9.75</ele>
        <time>2019-04-23T12:40:42Z</time>
      </trkpt>
      <trkpt lat="43.17346" lon="5.61012">
        <ele>8.79</ele>
        <time>2019-04-23T12:40:45Z</time>
      </trkpt>
      <trkpt lat="43.17343" lon="5.61013">
        <ele>9.75</ele>
        <time>2019-04-23T12:40:56Z</time>
      </trkpt>
      <trkpt lat="43.17337" lon="5.61027">
        <ele>8.79</ele>
        <time>2019-04-23T12:41:08Z</time>
      </trkpt>
      <trkpt lat="43.17332" lon="5.61028">
        <ele>9.27</ele>
        <time>2019-04-23T12:41:23Z</time>
      </trkpt>
      <trkpt lat="43.1732" lon="5.61021">
        <ele>8.79</ele>
        <time>2019-04-23T12:41:41Z</time>
      </trkpt>
      <trkpt lat="43.17326" lon="5.61014">
        <ele>8.79</ele>
        <time>2019-04-23T12:41:56Z</time>
      </trkpt>
      <trkpt lat="43.1733" lon="5.61004">
        <ele>8.79</ele>
        <time>2019-04-23T12:42:09Z</time>
      </trkpt>
      <trkpt lat="43.17328" lon="5.61007">
        <ele>8.31</ele>
        <time>2019-04-23T12:42:15Z</time>
      </trkpt>
      <trkpt lat="43.17339" lon="5.61017">
        <ele>8.31</ele>
        <time>2019-04-23T12:42:29Z</time>
      </trkpt>
      <trkpt lat="43.17344" lon="5.61012">
        <ele>8.79</ele>
        <time>2019-04-23T12:42:35Z</time>
      </trkpt>
      <trkpt lat="43.17348" lon="5.6101">
        <ele>8.79</ele>
        <time>2019-04-23T12:42:40Z</time>
      </trkpt>
      <trkpt lat="43.17356" lon="5.6099">
        <ele>8.31</ele>
        <time>2019-04-23T12:42:56Z</time>
      </trkpt>
      <trkpt lat="43.17359" lon="5.60985">
        <ele>9.27</ele>
        <time>2019-04-23T12:43:00Z</time>
      </trkpt>
      <trkpt lat="43.17367" lon="5.60963">
        <ele>7.83</ele>
        <time>2019-04-23T12:43:14Z</time>
      </trkpt>
      <trkpt lat="43.17371" lon="5.60955">
        <ele>7.83</ele>
        <time>2019-04-23T12:43:28Z</time>
      </trkpt>
      <trkpt lat="43.17362" lon="5.60954">
        <ele>7.83</ele>
        <time>2019-04-23T12:43:43Z</time>
      </trkpt>
      <trkpt lat="43.17371" lon="5.60949">
        <ele>8.31</ele>
        <time>2019-04-23T12:43:55Z</time>
      </trkpt>
      <trkpt lat="43.17378" lon="5.60941">
        <ele>8.31</ele>
        <time>2019-04-23T12:44:14Z</time>
      </trkpt>
      <trkpt lat="43.17379" lon="5.60933">
        <ele>7.35</ele>
        <time>2019-04-23T12:44:22Z</time>
      </trkpt>
      <trkpt lat="43.1738" lon="5.60925">
        <ele>7.35</ele>
        <time>2019-04-23T12:44:37Z</time>
      </trkpt>
      <trkpt lat="43.17383" lon="5.60924">
        <ele>6.87</ele>
        <time>2019-04-23T12:44:56Z</time>
      </trkpt>
      <trkpt lat="43.17391" lon="5.60909">
        <ele>6.87</ele>
        <time>2019-04-23T12:45:10Z</time>
      </trkpt>
      <trkpt lat="43.17393" lon="5.60908">
        <ele>6.39</ele>
        <time>2019-04-23T12:45:17Z</time>
      </trkpt>
      <trkpt lat="43.17399" lon="5.60891">
        <ele>6.39</ele>
        <time>2019-04-23T12:45:32Z</time>
      </trkpt>
      <trkpt lat="43.17407" lon="5.60877">
        <ele>7.35</ele>
        <time>2019-04-23T12:45:47Z</time>
      </trkpt>
      <trkpt lat="43.17412" lon="5.6086">
        <ele>6.39</ele>
        <time>2019-04-23T12:46:06Z</time>
      </trkpt>
      <trkpt lat="43.17416" lon="5.60859">
        <ele>6.87</ele>
        <time>2019-04-23T12:46:16Z</time>
      </trkpt>
      <trkpt lat="43.1741" lon="5.60854">
        <ele>7.35</ele>
        <time>2019-04-23T12:46:25Z</time>
      </trkpt>
      <trkpt lat="43.17408" lon="5.60837">
        <ele>5.91</ele>
        <time>2019-04-23T12:46:40Z</time>
      </trkpt>
      <trkpt lat="43.17412" lon="5.60833">
        <ele>5.91</ele>
        <time>2019-04-23T12:46:57Z</time>
      </trkpt>
      <trkpt lat="43.17412" lon="5.60832">
        <ele>5.91</ele>
        <time>2019-04-23T12:46:58Z</time>
      </trkpt>
      <trkpt lat="43.17412" lon="5.60828">
        <ele>6.39</ele>
        <time>2019-04-23T12:47:15Z</time>
      </trkpt>
      <trkpt lat="43.1741" lon="5.60827">
        <ele>6.39</ele>
        <time>2019-04-23T12:47:31Z</time>
      </trkpt>
      <trkpt lat="43.17415" lon="5.60819">
        <ele>5.91</ele>
        <time>2019-04-23T12:47:43Z</time>
      </trkpt>
      <trkpt lat="43.1742" lon="5.60809">
        <ele>5.91</ele>
        <time>2019-04-23T12:47:57Z</time>
      </trkpt>
      <trkpt lat="43.17426" lon="5.60795">
        <ele>5.42</ele>
        <time>2019-04-23T12:48:12Z</time>
      </trkpt>
      <trkpt lat="43.17431" lon="5.60783">
        <ele>4.94</ele>
        <time>2019-04-23T12:48:31Z</time>
      </trkpt>
      <trkpt lat="43.17442" lon="5.60758">
        <ele>4.94</ele>
        <time>2019-04-23T12:48:48Z</time>
      </trkpt>
      <trkpt lat="43.17445" lon="5.60751">
        <ele>4.94</ele>
        <time>2019-04-23T12:48:55Z</time>
      </trkpt>
      <trkpt lat="43.17448" lon="5.60746">
        <ele>4.94</ele>
        <time>2019-04-23T12:48:59Z</time>
      </trkpt>
      <trkpt lat="43.17454" lon="5.60719">
        <ele>4.94</ele>
        <time>2019-04-23T12:49:17Z</time>
      </trkpt>
      <trkpt lat="43.17457" lon="5.60717">
        <ele>4.94</ele>
        <time>2019-04-23T12:49:34Z</time>
      </trkpt>
      <trkpt lat="43.17456" lon="5.60716">
        <ele>4.94</ele>
        <time>2019-04-23T12:49:38Z</time>
      </trkpt>
      <trkpt lat="43.17462" lon="5.60701">
        <ele>4.94</ele>
        <time>2019-04-23T12:49:53Z</time>
      </trkpt>
      <trkpt lat="43.17466" lon="5.60704">
        <ele>4.94</ele>
        <time>2019-04-23T12:50:09Z</time>
      </trkpt>
      <trkpt lat="43.17469" lon="5.60704">
        <ele>5.91</ele>
        <time>2019-04-23T12:50:26Z</time>
      </trkpt>
      <trkpt lat="43.17478" lon="5.60709">
        <ele>6.39</ele>
        <time>2019-04-23T12:50:43Z</time>
      </trkpt>
      <trkpt lat="43.17497" lon="5.60716">
        <ele>7.35</ele>
        <time>2019-04-23T12:51:02Z</time>
      </trkpt>
      <trkpt lat="43.175" lon="5.60736">
        <ele>7.83</ele>
        <time>2019-04-23T12:51:15Z</time>
      </trkpt>
      <trkpt lat="43.17503" lon="5.60734">
        <ele>8.79</ele>
        <time>2019-04-23T12:51:30Z</time>
      </trkpt>
      <trkpt lat="43.17501" lon="5.60731">
        <ele>8.79</ele>
        <time>2019-04-23T12:51:52Z</time>
      </trkpt>
      <trkpt lat="43.17497" lon="5.60749">
        <ele>8.31</ele>
        <time>2019-04-23T12:52:05Z</time>
      </trkpt>
      <trkpt lat="43.17496" lon="5.60758">
        <ele>9.27</ele>
        <time>2019-04-23T12:52:10Z</time>
      </trkpt>
      <trkpt lat="43.17511" lon="5.60764">
        <ele>10.23</ele>
        <time>2019-04-23T12:52:23Z</time>
      </trkpt>
      <trkpt lat="43.17522" lon="5.60779">
        <ele>10.23</ele>
        <time>2019-04-23T12:52:44Z</time>
      </trkpt>
      <trkpt lat="43.17519" lon="5.60786">
        <ele>10.71</ele>
        <time>2019-04-23T12:53:07Z</time>
      </trkpt>
      <trkpt lat="43.17519" lon="5.60781">
        <ele>10.71</ele>
        <time>2019-04-23T12:53:23Z</time>
      </trkpt>
      <trkpt lat="43.17509" lon="5.60796">
        <ele>9.75</ele>
        <time>2019-04-23T12:53:40Z</time>
      </trkpt>
      <trkpt lat="43.17502" lon="5.60798">
        <ele>10.23</ele>
        <time>2019-04-23T12:54:02Z</time>
      </trkpt>
      <trkpt lat="43.175" lon="5.60804">
        <ele>9.75</ele>
        <time>2019-04-23T12:54:22Z</time>
      </trkpt>
      <trkpt lat="43.17498" lon="5.60823">
        <ele>9.27</ele>
        <time>2019-04-23T12:54:40Z</time>
      </trkpt>
      <trkpt lat="43.17494" lon="5.6082">
        <ele>9.27</ele>
        <time>2019-04-23T12:54:58Z</time>
      </trkpt>
      <trkpt lat="43.17495" lon="5.60828">
        <ele>9.27</ele>
        <time>2019-04-23T12:55:17Z</time>
      </trkpt>
      <trkpt lat="43.17488" lon="5.60843">
        <ele>9.27</ele>
        <time>2019-04-23T12:55:36Z</time>
      </trkpt>
      <trkpt lat="43.17499" lon="5.60837">
        <ele>9.27</ele>
        <time>2019-04-23T12:55:52Z</time>
      </trkpt>
      <trkpt lat="43.17501" lon="5.6083">
        <ele>9.27</ele>
        <time>2019-04-23T12:56:05Z</time>
      </trkpt>
      <trkpt lat="43.17516" lon="5.60837">
        <ele>8.79</ele>
        <time>2019-04-23T12:56:26Z</time>
      </trkpt>
      <trkpt lat="43.17516" lon="5.60842">
        <ele>9.27</ele>
        <time>2019-04-23T12:56:45Z</time>
      </trkpt>
      <trkpt lat="43.17524" lon="5.60843">
        <ele>9.27</ele>
        <time>2019-04-23T12:57:04Z</time>
      </trkpt>
      <trkpt lat="43.17529" lon="5.6084">
        <ele>9.27</ele>
        <time>2019-04-23T12:57:24Z</time>
      </trkpt>
      <trkpt lat="43.1753" lon="5.60841">
        <ele>9.27</ele>
        <time>2019-04-23T12:57:43Z</time>
      </trkpt>
      <trkpt lat="43.1754" lon="5.60844">
        <ele>9.75</ele>
        <time>2019-04-23T12:58:02Z</time>
      </trkpt>
      <trkpt lat="43.17528" lon="5.6085">
        <ele>9.27</ele>
        <time>2019-04-23T12:58:22Z</time>
      </trkpt>
      <trkpt lat="43.17542" lon="5.60861">
        <ele>9.27</ele>
        <time>2019-04-23T12:58:45Z</time>
      </trkpt>
      <trkpt lat="43.17544" lon="5.60878">
        <ele>8.79</ele>
        <time>2019-04-23T12:59:04Z</time>
      </trkpt>
      <trkpt lat="43.17538" lon="5.60882">
        <ele>9.27</ele>
        <time>2019-04-23T12:59:24Z</time>
      </trkpt>
      <trkpt lat="43.17543" lon="5.60861">
        <ele>9.27</ele>
        <time>2019-04-23T12:59:43Z</time>
      </trkpt>
      <trkpt lat="43.17548" lon="5.60851">
        <ele>9.27</ele>
        <time>2019-04-23T12:59:54Z</time>
      </trkpt>
      <trkpt lat="43.17566" lon="5.60862">
        <ele>9.27</ele>
        <time>2019-04-23T13:00:15Z</time>
      </trkpt>
      <trkpt lat="43.17574" lon="5.60858">
        <ele>9.27</ele>
        <time>2019-04-23T13:00:34Z</time>
      </trkpt>
      <trkpt lat="43.17582" lon="5.60862">
        <ele>9.27</ele>
        <time>2019-04-23T13:00:52Z</time>
      </trkpt>
      <trkpt lat="43.17582" lon="5.60869">
        <ele>9.75</ele>
        <time>2019-04-23T13:01:11Z</time>
      </trkpt>
      <trkpt lat="43.17591" lon="5.60875">
        <ele>9.27</ele>
        <time>2019-04-23T13:01:31Z</time>
      </trkpt>
      <trkpt lat="43.17597" lon="5.60872">
        <ele>9.75</ele>
        <time>2019-04-23T13:01:39Z</time>
      </trkpt>
      <trkpt lat="43.17606" lon="5.60877">
        <ele>9.75</ele>
        <time>2019-04-23T13:01:59Z</time>
      </trkpt>
      <trkpt lat="43.17618" lon="5.60879">
        <ele>10.23</ele>
        <time>2019-04-23T13:02:15Z</time>
      </trkpt>
      <trkpt lat="43.17627" lon="5.60883">
        <ele>10.71</ele>
        <time>2019-04-23T13:02:32Z</time>
      </trkpt>
      <trkpt lat="43.17626" lon="5.60874">
        <ele>10.23</ele>
        <time>2019-04-23T13:02:59Z</time>
      </trkpt>
      <trkpt lat="43.17636" lon="5.60886">
        <ele>10.23</ele>
        <time>2019-04-23T13:03:18Z</time>
      </trkpt>
      <trkpt lat="43.17645" lon="5.60891">
        <ele>11.19</ele>
        <time>2019-04-23T13:03:39Z</time>
      </trkpt>
      <trkpt lat="43.17652" lon="5.60894">
        <ele>11.19</ele>
        <time>2019-04-23T13:03:55Z</time>
      </trkpt>
      <trkpt lat="43.17656" lon="5.60898">
        <ele>12.15</ele>
        <time>2019-04-23T13:04:12Z</time>
      </trkpt>
      <trkpt lat="43.17664" lon="5.60878">
        <ele>12.63</ele>
        <time>2019-04-23T13:04:29Z</time>
      </trkpt>
      <trkpt lat="43.17663" lon="5.6087">
        <ele>11.67</ele>
        <time>2019-04-23T13:04:43Z</time>
      </trkpt>
      <trkpt lat="43.17663" lon="5.60872">
        <ele>11.67</ele>
        <time>2019-04-23T13:05:05Z</time>
      </trkpt>
      <trkpt lat="43.17663" lon="5.60871">
        <ele>12.15</ele>
        <time>2019-04-23T13:05:25Z</time>
      </trkpt>
      <trkpt lat="43.17665" lon="5.60867">
        <ele>11.67</ele>
        <time>2019-04-23T13:05:43Z</time>
      </trkpt>
      <trkpt lat="43.17662" lon="5.60863">
        <ele>11.67</ele>
        <time>2019-04-23T13:06:12Z</time>
      </trkpt>
      <trkpt lat="43.17664" lon="5.60881">
        <ele>11.19</ele>
        <time>2019-04-23T13:06:28Z</time>
      </trkpt>
      <trkpt lat="43.17665" lon="5.60895">
        <ele>11.67</ele>
        <time>2019-04-23T13:06:47Z</time>
      </trkpt>
      <trkpt lat="43.17671" lon="5.60898">
        <ele>12.15</ele>
        <time>2019-04-23T13:07:06Z</time>
      </trkpt>
      <trkpt lat="43.17679" lon="5.60905">
        <ele>12.63</ele>
        <time>2019-04-23T13:07:24Z</time>
      </trkpt>
      <trkpt lat="43.17697" lon="5.60909">
        <ele>13.12</ele>
        <time>2019-04-23T13:07:44Z</time>
      </trkpt>
      <trkpt lat="43.17714" lon="5.60919">
        <ele>14.08</ele>
        <time>2019-04-23T13:08:06Z</time>
      </trkpt>
      <trkpt lat="43.17726" lon="5.60928">
        <ele>15.04</ele>
        <time>2019-04-23T13:08:23Z</time>
      </trkpt>
      <trkpt lat="43.17736" lon="5.60928">
        <ele>15.04</ele>
        <time>2019-04-23T13:08:39Z</time>
      </trkpt>
      <trkpt lat="43.17748" lon="5.60938">
        <ele>15.04</ele>
        <time>2019-04-23T13:08:55Z</time>
      </trkpt>
      <trkpt lat="43.17749" lon="5.60941">
        <ele>15.52</ele>
        <time>2019-04-23T13:09:07Z</time>
      </trkpt>
      <trkpt lat="43.17745" lon="5.60958">
        <ele>14.56</ele>
        <time>2019-04-23T13:09:21Z</time>
      </trkpt>
      <trkpt lat="43.17738" lon="5.60973">
        <ele>12.63</ele>
        <time>2019-04-23T13:09:38Z</time>
      </trkpt>
      <trkpt lat="43.17734" lon="5.60983">
        <ele>12.15</ele>
        <time>2019-04-23T13:09:50Z</time>
      </trkpt>
      <trkpt lat="43.17732" lon="5.60989">
        <ele>10.71</ele>
        <time>2019-04-23T13:10:02Z</time>
      </trkpt>
      <trkpt lat="43.1773" lon="5.60994">
        <ele>10.71</ele>
        <time>2019-04-23T13:10:06Z</time>
      </trkpt>
      <trkpt lat="43.17723" lon="5.61011">
        <ele>8.79</ele>
        <time>2019-04-23T13:10:19Z</time>
      </trkpt>
      <trkpt lat="43.17717" lon="5.61035">
        <ele>6.87</ele>
        <time>2019-04-23T13:10:34Z</time>
      </trkpt>
      <trkpt lat="43.17709" lon="5.61051">
        <ele>5.91</ele>
        <time>2019-04-23T13:10:52Z</time>
      </trkpt>
      <trkpt lat="43.17707" lon="5.61053">
        <ele>5.91</ele>
        <time>2019-04-23T13:10:55Z</time>
      </trkpt>
      <trkpt lat="43.17705" lon="5.61056">
        <ele>3.98</ele>
        <time>2019-04-23T13:10:58Z</time>
      </trkpt>
      <trkpt lat="43.17698" lon="5.6107">
        <ele>4.46</ele>
        <time>2019-04-23T13:11:16Z</time>
      </trkpt>
      <trkpt lat="43.17693" lon="5.61071">
        <ele>4.94</ele>
        <time>2019-04-23T13:11:32Z</time>
      </trkpt>
      <trkpt lat="43.1769" lon="5.61074">
        <ele>3.98</ele>
        <time>2019-04-23T13:11:49Z</time>
      </trkpt>
      <trkpt lat="43.1769" lon="5.61085">
        <ele>4.94</ele>
        <time>2019-04-23T13:12:05Z</time>
      </trkpt>
      <trkpt lat="43.17694" lon="5.61092">
        <ele>4.46</ele>
        <time>2019-04-23T13:12:13Z</time>
      </trkpt>
      <trkpt lat="43.17697" lon="5.61105">
        <ele>3.98</ele>
        <time>2019-04-23T13:12:24Z</time>
      </trkpt>
      <trkpt lat="43.17697" lon="5.61118">
        <ele>4.94</ele>
        <time>2019-04-23T13:12:37Z</time>
      </trkpt>
      <trkpt lat="43.17702" lon="5.61113">
        <ele>3.98</ele>
        <time>2019-04-23T13:12:59Z</time>
      </trkpt>
      <trkpt lat="43.17705" lon="5.61112">
        <ele>4.46</ele>
        <time>2019-04-23T13:13:13Z</time>
      </trkpt>
      <trkpt lat="43.17709" lon="5.61101">
        <ele>3.02</ele>
        <time>2019-04-23T13:13:27Z</time>
      </trkpt>
      <trkpt lat="43.1771" lon="5.61094">
        <ele>3.98</ele>
        <time>2019-04-23T13:13:40Z</time>
      </trkpt>
      <trkpt lat="43.17711" lon="5.61098">
        <ele>3.98</ele>
        <time>2019-04-23T13:14:02Z</time>
      </trkpt>
      <trkpt lat="43.17716" lon="5.61089">
        <ele>3.5</ele>
        <time>2019-04-23T13:14:13Z</time>
      </trkpt>
      <trkpt lat="43.17717" lon="5.61081">
        <ele>3.98</ele>
        <time>2019-04-23T13:14:18Z</time>
      </trkpt>
      <trkpt lat="43.17725" lon="5.61074">
        <ele>3.02</ele>
        <time>2019-04-23T13:14:31Z</time>
      </trkpt>
      <trkpt lat="43.17731" lon="5.6107">
        <ele>4.46</ele>
        <time>2019-04-23T13:14:44Z</time>
      </trkpt>
      <trkpt lat="43.17739" lon="5.61075">
        <ele>3.98</ele>
        <time>2019-04-23T13:15:01Z</time>
      </trkpt>
      <trkpt lat="43.1775" lon="5.6108">
        <ele>3.98</ele>
        <time>2019-04-23T13:15:16Z</time>
      </trkpt>
      <trkpt lat="43.17748" lon="5.61076">
        <ele>4.46</ele>
        <time>2019-04-23T13:15:32Z</time>
      </trkpt>
      <trkpt lat="43.17748" lon="5.61079">
        <ele>3.98</ele>
        <time>2019-04-23T13:16:00Z</time>
      </trkpt>
      <trkpt lat="43.17748" lon="5.61081">
        <ele>3.98</ele>
        <time>2019-04-23T13:16:30Z</time>
      </trkpt>
      <trkpt lat="43.17752" lon="5.61084">
        <ele>3.5</ele>
        <time>2019-04-23T13:16:44Z</time>
      </trkpt>
      <trkpt lat="43.17753" lon="5.61085">
        <ele>3.02</ele>
        <time>2019-04-23T13:16:54Z</time>
      </trkpt>
      <trkpt lat="43.17752" lon="5.611">
        <ele>3.98</ele>
        <time>2019-04-23T13:17:09Z</time>
      </trkpt>
      <trkpt lat="43.17759" lon="5.61103">
        <ele>4.46</ele>
        <time>2019-04-23T13:17:19Z</time>
      </trkpt>
      <trkpt lat="43.17774" lon="5.61104">
        <ele>3.5</ele>
        <time>2019-04-23T13:17:36Z</time>
      </trkpt>
      <trkpt lat="43.17786" lon="5.61106">
        <ele>3.98</ele>
        <time>2019-04-23T13:17:51Z</time>
      </trkpt>
      <trkpt lat="43.17802" lon="5.61109">
        <ele>4.46</ele>
        <time>2019-04-23T13:18:09Z</time>
      </trkpt>
      <trkpt lat="43.17813" lon="5.61108">
        <ele>4.94</ele>
        <time>2019-04-23T13:18:23Z</time>
      </trkpt>
      <trkpt lat="43.17826" lon="5.61113">
        <ele>4.94</ele>
        <time>2019-04-23T13:18:39Z</time>
      </trkpt>
      <trkpt lat="43.17837" lon="5.61116">
        <ele>4.94</ele>
        <time>2019-04-23T13:18:55Z</time>
      </trkpt>
      <trkpt lat="43.1785" lon="5.61118">
        <ele>4.94</ele>
        <time>2019-04-23T13:19:10Z</time>
      </trkpt>
      <trkpt lat="43.17861" lon="5.61122">
        <ele>4.94</ele>
        <time>2019-04-23T13:19:25Z</time>
      </trkpt>
      <trkpt lat="43.17869" lon="5.61124">
        <ele>4.94</ele>
        <time>2019-04-23T13:19:49Z</time>
      </trkpt>
      <trkpt lat="43.17882" lon="5.6113">
        <ele>4.46</ele>
        <time>2019-04-23T13:20:02Z</time>
      </trkpt>
      <trkpt lat="43.17897" lon="5.6114">
        <ele>3.98</ele>
        <time>2019-04-23T13:20:18Z</time>
      </trkpt>
      <trkpt lat="43.17911" lon="5.6115">
        <ele>3.98</ele>
        <time>2019-04-23T13:20:33Z</time>
      </trkpt>
      <trkpt lat="43.17917" lon="5.61156">
        <ele>3.5</ele>
        <time>2019-04-23T13:20:48Z</time>
      </trkpt>
      <trkpt lat="43.17925" lon="5.6116">
        <ele>3.5</ele>
        <time>2019-04-23T13:21:02Z</time>
      </trkpt>
      <trkpt lat="43.17935" lon="5.61169">
        <ele>3.02</ele>
        <time>2019-04-23T13:21:17Z</time>
      </trkpt>
      <trkpt lat="43.17947" lon="5.61178">
        <ele>2.54</ele>
        <time>2019-04-23T13:21:32Z</time>
      </trkpt>
      <trkpt lat="43.1796" lon="5.61187">
        <ele>2.54</ele>
        <time>2019-04-23T13:21:47Z</time>
      </trkpt>
      <trkpt lat="43.17976" lon="5.61196">
        <ele>2.06</ele>
        <time>2019-04-23T13:22:04Z</time>
      </trkpt>
      <trkpt lat="43.17977" lon="5.61202">
        <ele>2.54</ele>
        <time>2019-04-23T13:22:17Z</time>
      </trkpt>
      <trkpt lat="43.17977" lon="5.61199">
        <ele>2.54</ele>
        <time>2019-04-23T13:22:40Z</time>
      </trkpt>
      <trkpt lat="43.17985" lon="5.61201">
        <ele>2.54</ele>
        <time>2019-04-23T13:22:56Z</time>
      </trkpt>
      <trkpt lat="43.17998" lon="5.61206">
        <ele>1.58</ele>
        <time>2019-04-23T13:23:10Z</time>
      </trkpt>
      <trkpt lat="43.18011" lon="5.61214">
        <ele>1.58</ele>
        <time>2019-04-23T13:23:25Z</time>
      </trkpt>
      <trkpt lat="43.18024" lon="5.61222">
        <ele>2.06</ele>
        <time>2019-04-23T13:23:41Z</time>
      </trkpt>
      <trkpt lat="43.18024" lon="5.61224">
        <ele>2.06</ele>
        <time>2019-04-23T13:23:45Z</time>
      </trkpt>
      <trkpt lat="43.18033" lon="5.6123">
        <ele>1.1</ele>
        <time>2019-04-23T13:23:53Z</time>
      </trkpt>
      <trkpt lat="43.18045" lon="5.6125">
        <ele>1.1</ele>
        <time>2019-04-23T13:24:10Z</time>
      </trkpt>
      <trkpt lat="43.18055" lon="5.6126">
        <ele>2.06</ele>
        <time>2019-04-23T13:24:27Z</time>
      </trkpt>
      <trkpt lat="43.18063" lon="5.61271">
        <ele>1.58</ele>
        <time>2019-04-23T13:24:44Z</time>
      </trkpt>
      <trkpt lat="43.18077" lon="5.61285">
        <ele>1.58</ele>
        <time>2019-04-23T13:25:02Z</time>
      </trkpt>
      <trkpt lat="43.18085" lon="5.61294">
        <ele>1.1</ele>
        <time>2019-04-23T13:25:18Z</time>
      </trkpt>
      <trkpt lat="43.18096" lon="5.61303">
        <ele>0.62</ele>
        <time>2019-04-23T13:25:35Z</time>
      </trkpt>
      <trkpt lat="43.1811" lon="5.61315">
        <ele>0.62</ele>
        <time>2019-04-23T13:25:53Z</time>
      </trkpt>
      <trkpt lat="43.18118" lon="5.61329">
        <ele>1.1</ele>
        <time>2019-04-23T13:26:07Z</time>
      </trkpt>
      <trkpt lat="43.18125" lon="5.6134">
        <ele>0.62</ele>
        <time>2019-04-23T13:26:23Z</time>
      </trkpt>
      <trkpt lat="43.18134" lon="5.61356">
        <ele>1.1</ele>
        <time>2019-04-23T13:26:38Z</time>
      </trkpt>
      <trkpt lat="43.18144" lon="5.61371">
        <ele>0.62</ele>
        <time>2019-04-23T13:26:54Z</time>
      </trkpt>
      <trkpt lat="43.18154" lon="5.61387">
        <ele>1.58</ele>
        <time>2019-04-23T13:27:09Z</time>
      </trkpt>
      <trkpt lat="43.18158" lon="5.61392">
        <ele>0.62</ele>
        <time>2019-04-23T13:27:23Z</time>
      </trkpt>
      <trkpt lat="43.18161" lon="5.61403">
        <ele>0.14</ele>
        <time>2019-04-23T13:27:31Z</time>
      </trkpt>
      <trkpt lat="43.18167" lon="5.61423">
        <ele>0.62</ele>
        <time>2019-04-23T13:27:48Z</time>
      </trkpt>
      <trkpt lat="43.18168" lon="5.61442">
        <ele>1.58</ele>
        <time>2019-04-23T13:28:04Z</time>
      </trkpt>
      <trkpt lat="43.18175" lon="5.61455">
        <ele>2.06</ele>
        <time>2019-04-23T13:28:22Z</time>
      </trkpt>
      <trkpt lat="43.18173" lon="5.61457">
        <ele>1.58</ele>
        <time>2019-04-23T13:28:33Z</time>
      </trkpt>
      <trkpt lat="43.18174" lon="5.61459">
        <ele>2.54</ele>
        <time>2019-04-23T13:28:49Z</time>
      </trkpt>
      <trkpt lat="43.18179" lon="5.6146">
        <ele>1.58</ele>
        <time>2019-04-23T13:29:15Z</time>
      </trkpt>
      <trkpt lat="43.18178" lon="5.61454">
        <ele>2.06</ele>
        <time>2019-04-23T13:29:43Z</time>
      </trkpt>
      <trkpt lat="43.18179" lon="5.61452">
        <ele>1.58</ele>
        <time>2019-04-23T13:30:17Z</time>
      </trkpt>
      <trkpt lat="43.18176" lon="5.6145">
        <ele>2.06</ele>
        <time>2019-04-23T13:30:45Z</time>
      </trkpt>
      <trkpt lat="43.18172" lon="5.61452">
        <ele>2.54</ele>
        <time>2019-04-23T13:31:20Z</time>
      </trkpt>
      <trkpt lat="43.18172" lon="5.61449">
        <ele>3.02</ele>
        <time>2019-04-23T13:31:37Z</time>
      </trkpt>
      <trkpt lat="43.18169" lon="5.61444">
        <ele>2.06</ele>
        <time>2019-04-23T13:31:44Z</time>
      </trkpt>
      <trkpt lat="43.18172" lon="5.61451">
        <ele>2.06</ele>
        <time>2019-04-23T13:31:54Z</time>
      </trkpt>
      <trkpt lat="43.18172" lon="5.61453">
        <ele>2.06</ele>
        <time>2019-04-23T13:32:13Z</time>
      </trkpt>
      <trkpt lat="43.18172" lon="5.61451">
        <ele>2.54</ele>
        <time>2019-04-23T13:32:37Z</time>
      </trkpt>
      <trkpt lat="43.18173" lon="5.61449">
        <ele>3.02</ele>
        <time>2019-04-23T13:33:03Z</time>
      </trkpt>
      <trkpt lat="43.18176" lon="5.61449">
        <ele>2.06</ele>
        <time>2019-04-23T13:33:25Z</time>
      </trkpt>
      <trkpt lat="43.18175" lon="5.61451">
        <ele>2.54</ele>
        <time>2019-04-23T13:33:49Z</time>
      </trkpt>
      <trkpt lat="43.18176" lon="5.61446">
        <ele>3.02</ele>
        <time>2019-04-23T13:34:21Z</time>
      </trkpt>
      <trkpt lat="43.18181" lon="5.6146">
        <ele>2.54</ele>
        <time>2019-04-23T13:34:37Z</time>
      </trkpt>
      <trkpt lat="43.18181" lon="5.61464">
        <ele>2.54</ele>
        <time>2019-04-23T13:34:54Z</time>
      </trkpt>
      <trkpt lat="43.18182" lon="5.61468">
        <ele>1.58</ele>
        <time>2019-04-23T13:35:21Z</time>
      </trkpt>
      <trkpt lat="43.18191" lon="5.61473">
        <ele>2.06</ele>
        <time>2019-04-23T13:35:38Z</time>
      </trkpt>
      <trkpt lat="43.182" lon="5.61482">
        <ele>2.06</ele>
        <time>2019-04-23T13:35:51Z</time>
      </trkpt>
      <trkpt lat="43.18215" lon="5.61496">
        <ele>1.58</ele>
        <time>2019-04-23T13:36:10Z</time>
      </trkpt>
      <trkpt lat="43.18221" lon="5.61507">
        <ele>2.06</ele>
        <time>2019-04-23T13:36:20Z</time>
      </trkpt>
      <trkpt lat="43.18224" lon="5.61512">
        <ele>2.54</ele>
        <time>2019-04-23T13:36:25Z</time>
      </trkpt>
      <trkpt lat="43.18225" lon="5.61514">
        <ele>2.54</ele>
        <time>2019-04-23T13:36:27Z</time>
      </trkpt>
      <trkpt lat="43.18228" lon="5.61518">
        <ele>3.02</ele>
        <time>2019-04-23T13:36:31Z</time>
      </trkpt>
      <trkpt lat="43.18235" lon="5.61532">
        <ele>2.54</ele>
        <time>2019-04-23T13:36:45Z</time>
      </trkpt>
      <trkpt lat="43.18244" lon="5.61546">
        <ele>3.02</ele>
        <time>2019-04-23T13:37:00Z</time>
      </trkpt>
      <trkpt lat="43.18247" lon="5.61551">
        <ele>2.54</ele>
        <time>2019-04-23T13:37:05Z</time>
      </trkpt>
      <trkpt lat="43.18246" lon="5.61558">
        <ele>2.54</ele>
        <time>2019-04-23T13:37:10Z</time>
      </trkpt>
      <trkpt lat="43.18246" lon="5.61561">
        <ele>3.02</ele>
        <time>2019-04-23T13:37:12Z</time>
      </trkpt>
      <trkpt lat="43.18245" lon="5.61566">
        <ele>2.54</ele>
        <time>2019-04-23T13:37:15Z</time>
      </trkpt>
      <trkpt lat="43.18246" lon="5.61589">
        <ele>3.02</ele>
        <time>2019-04-23T13:37:31Z</time>
      </trkpt>
      <trkpt lat="43.1825" lon="5.616">
        <ele>2.06</ele>
        <time>2019-04-23T13:37:45Z</time>
      </trkpt>
      <trkpt lat="43.18252" lon="5.61606">
        <ele>0.62</ele>
        <time>2019-04-23T13:37:50Z</time>
      </trkpt>
      <trkpt lat="43.18254" lon="5.61607">
        <ele>1.58</ele>
        <time>2019-04-23T13:37:52Z</time>
      </trkpt>
      <trkpt lat="43.18262" lon="5.61624">
        <ele>0.62</ele>
        <time>2019-04-23T13:38:07Z</time>
      </trkpt>
      <trkpt lat="43.18266" lon="5.61631">
        <ele>0.62</ele>
        <time>2019-04-23T13:38:20Z</time>
      </trkpt>
      <trkpt lat="43.18269" lon="5.61636">
        <ele>0.14</ele>
        <time>2019-04-23T13:38:31Z</time>
      </trkpt>
      <trkpt lat="43.18277" lon="5.61641">
        <ele>-0.34</ele>
        <time>2019-04-23T13:38:46Z</time>
      </trkpt>
      <trkpt lat="43.18286" lon="5.61638">
        <ele>-0.82</ele>
        <time>2019-04-23T13:38:59Z</time>
      </trkpt>
      <trkpt lat="43.18294" lon="5.61644">
        <ele>-0.82</ele>
        <time>2019-04-23T13:39:10Z</time>
      </trkpt>
      <trkpt lat="43.18295" lon="5.61653">
        <ele>-1.3</ele>
        <time>2019-04-23T13:39:19Z</time>
      </trkpt>
      <trkpt lat="43.183" lon="5.61648">
        <ele>-0.82</ele>
        <time>2019-04-23T13:39:26Z</time>
      </trkpt>
      <trkpt lat="43.18313" lon="5.61653">
        <ele>-0.34</ele>
        <time>2019-04-23T13:39:37Z</time>
      </trkpt>
      <trkpt lat="43.18318" lon="5.61655">
        <ele>-1.79</ele>
        <time>2019-04-23T13:39:40Z</time>
      </trkpt>
      <trkpt lat="43.18324" lon="5.61661">
        <ele>0.62</ele>
        <time>2019-04-23T13:39:52Z</time>
      </trkpt>
      <trkpt lat="43.18328" lon="5.61661">
        <ele>1.58</ele>
        <time>2019-04-23T13:40:10Z</time>
      </trkpt>
      <trkpt lat="43.1833" lon="5.61663">
        <ele>2.06</ele>
        <time>2019-04-23T13:40:27Z</time>
      </trkpt>
      <trkpt lat="43.18327" lon="5.61665">
        <ele>1.58</ele>
        <time>2019-04-23T13:40:38Z</time>
      </trkpt>
      <trkpt lat="43.18325" lon="5.61672">
        <ele>1.1</ele>
        <time>2019-04-23T13:40:52Z</time>
      </trkpt>
      <trkpt lat="43.18321" lon="5.61681">
        <ele>1.58</ele>
        <time>2019-04-23T13:40:58Z</time>
      </trkpt>
      <trkpt lat="43.1832" lon="5.61682">
        <ele>2.54</ele>
        <time>2019-04-23T13:41:15Z</time>
      </trkpt>
      <trkpt lat="43.18318" lon="5.61683">
        <ele>1.58</ele>
        <time>2019-04-23T13:41:29Z</time>
      </trkpt>
      <trkpt lat="43.18318" lon="5.61688">
        <ele>1.58</ele>
        <time>2019-04-23T13:41:32Z</time>
      </trkpt>
      <trkpt lat="43.1832" lon="5.61693">
        <ele>1.58</ele>
        <time>2019-04-23T13:41:35Z</time>
      </trkpt>
      <trkpt lat="43.18322" lon="5.61705">
        <ele>1.1</ele>
        <time>2019-04-23T13:41:44Z</time>
      </trkpt>
      <trkpt lat="43.18318" lon="5.61713">
        <ele>2.06</ele>
        <time>2019-04-23T13:42:01Z</time>
      </trkpt>
      <trkpt lat="43.18317" lon="5.61709">
        <ele>2.06</ele>
        <time>2019-04-23T13:42:22Z</time>
      </trkpt>
      <trkpt lat="43.18315" lon="5.61708">
        <ele>2.54</ele>
        <time>2019-04-23T13:42:35Z</time>
      </trkpt>
      <trkpt lat="43.18316" lon="5.61707">
        <ele>2.06</ele>
        <time>2019-04-23T13:42:54Z</time>
      </trkpt>
      <trkpt lat="43.18313" lon="5.61707">
        <ele>1.58</ele>
        <time>2019-04-23T13:43:02Z</time>
      </trkpt>
      <trkpt lat="43.18309" lon="5.61707">
        <ele>2.06</ele>
        <time>2019-04-23T13:43:15Z</time>
      </trkpt>
      <trkpt lat="43.18323" lon="5.61698">
        <ele>1.1</ele>
        <time>2019-04-23T13:43:33Z</time>
      </trkpt>
      <trkpt lat="43.18331" lon="5.61682">
        <ele>1.58</ele>
        <time>2019-04-23T13:43:50Z</time>
      </trkpt>
      <trkpt lat="43.18337" lon="5.61678">
        <ele>0.14</ele>
        <time>2019-04-23T13:44:04Z</time>
      </trkpt>
      <trkpt lat="43.1834" lon="5.61678">
        <ele>-0.34</ele>
        <time>2019-04-23T13:44:13Z</time>
      </trkpt>
      <trkpt lat="43.18349" lon="5.61675">
        <ele>2.06</ele>
        <time>2019-04-23T13:44:25Z</time>
      </trkpt>
      <trkpt lat="43.1836" lon="5.61683">
        <ele>1.58</ele>
        <time>2019-04-23T13:44:39Z</time>
      </trkpt>
      <trkpt lat="43.18361" lon="5.61685">
        <ele>2.06</ele>
        <time>2019-04-23T13:44:41Z</time>
      </trkpt>
      <trkpt lat="43.1837" lon="5.61698">
        <ele>1.1</ele>
        <time>2019-04-23T13:44:55Z</time>
      </trkpt>
      <trkpt lat="43.18381" lon="5.61709">
        <ele>1.1</ele>
        <time>2019-04-23T13:45:10Z</time>
      </trkpt>
      <trkpt lat="43.1839" lon="5.61718">
        <ele>1.58</ele>
        <time>2019-04-23T13:45:23Z</time>
      </trkpt>
      <trkpt lat="43.18401" lon="5.61731">
        <ele>1.58</ele>
        <time>2019-04-23T13:45:40Z</time>
      </trkpt>
      <trkpt lat="43.18412" lon="5.61743">
        <ele>0.62</ele>
        <time>2019-04-23T13:45:56Z</time>
      </trkpt>
      <trkpt lat="43.18425" lon="5.61758">
        <ele>1.1</ele>
        <time>2019-04-23T13:46:14Z</time>
      </trkpt>
      <trkpt lat="43.18435" lon="5.61772">
        <ele>1.1</ele>
        <time>2019-04-23T13:46:30Z</time>
      </trkpt>
      <trkpt lat="43.18449" lon="5.6179">
        <ele>0.62</ele>
        <time>2019-04-23T13:46:47Z</time>
      </trkpt>
      <trkpt lat="43.18455" lon="5.61809">
        <ele>1.1</ele>
        <time>2019-04-23T13:47:03Z</time>
      </trkpt>
      <trkpt lat="43.1846" lon="5.61818">
        <ele>1.58</ele>
        <time>2019-04-23T13:47:12Z</time>
      </trkpt>
      <trkpt lat="43.18468" lon="5.61837">
        <ele>0.14</ele>
        <time>2019-04-23T13:47:29Z</time>
      </trkpt>
      <trkpt lat="43.18468" lon="5.61838">
        <ele>0.62</ele>
        <time>2019-04-23T13:47:30Z</time>
      </trkpt>
      <trkpt lat="43.18475" lon="5.61854">
        <ele>4.46</ele>
        <time>2019-04-23T13:47:45Z</time>
      </trkpt>
      <trkpt lat="43.18476" lon="5.61856">
        <ele>1.1</ele>
        <time>2019-04-23T13:47:47Z</time>
      </trkpt>
      <trkpt lat="43.18485" lon="5.61877">
        <ele>2.06</ele>
        <time>2019-04-23T13:48:05Z</time>
      </trkpt>
      <trkpt lat="43.18488" lon="5.61882">
        <ele>0.62</ele>
        <time>2019-04-23T13:48:10Z</time>
      </trkpt>
      <trkpt lat="43.18513" lon="5.6194">
        <ele>9.27</ele>
        <time>2019-04-23T13:49:28Z</time>
      </trkpt>
      <trkpt lat="43.18516" lon="5.61947">
        <ele>10.23</ele>
        <time>2019-04-23T13:49:33Z</time>
      </trkpt>
      <trkpt lat="43.18517" lon="5.6195">
        <ele>9.75</ele>
        <time>2019-04-23T13:49:35Z</time>
      </trkpt>
      <trkpt lat="43.18522" lon="5.6196">
        <ele>6.39</ele>
        <time>2019-04-23T13:49:44Z</time>
      </trkpt>
      <trkpt lat="43.18527" lon="5.6197">
        <ele>6.39</ele>
        <time>2019-04-23T13:49:54Z</time>
      </trkpt>
      <trkpt lat="43.18533" lon="5.61991">
        <ele>6.87</ele>
        <time>2019-04-23T13:50:10Z</time>
      </trkpt>
      <trkpt lat="43.18537" lon="5.62001">
        <ele>6.87</ele>
        <time>2019-04-23T13:50:21Z</time>
      </trkpt>
      <trkpt lat="43.1854" lon="5.6201">
        <ele>6.87</ele>
        <time>2019-04-23T13:50:28Z</time>
      </trkpt>
      <trkpt lat="43.18543" lon="5.62018">
        <ele>6.39</ele>
        <time>2019-04-23T13:50:41Z</time>
      </trkpt>
      <trkpt lat="43.18547" lon="5.62024">
        <ele>6.87</ele>
        <time>2019-04-23T13:50:52Z</time>
      </trkpt>
      <trkpt lat="43.18551" lon="5.62033">
        <ele>7.35</ele>
        <time>2019-04-23T13:51:04Z</time>
      </trkpt>
      <trkpt lat="43.18557" lon="5.62046">
        <ele>7.83</ele>
        <time>2019-04-23T13:51:16Z</time>
      </trkpt>
      <trkpt lat="43.1856" lon="5.62049">
        <ele>7.83</ele>
        <time>2019-04-23T13:51:20Z</time>
      </trkpt>
      <trkpt lat="43.18566" lon="5.62058">
        <ele>6.87</ele>
        <time>2019-04-23T13:51:32Z</time>
      </trkpt>
      <trkpt lat="43.18567" lon="5.6206">
        <ele>6.87</ele>
        <time>2019-04-23T13:51:34Z</time>
      </trkpt>
      <trkpt lat="43.18569" lon="5.62062">
        <ele>8.31</ele>
        <time>2019-04-23T13:51:37Z</time>
      </trkpt>
      <trkpt lat="43.18573" lon="5.62068">
        <ele>8.31</ele>
        <time>2019-04-23T13:51:45Z</time>
      </trkpt>
      <trkpt lat="43.18575" lon="5.62073">
        <ele>7.35</ele>
        <time>2019-04-23T13:51:50Z</time>
      </trkpt>
      <trkpt lat="43.18579" lon="5.62078">
        <ele>7.83</ele>
        <time>2019-04-23T13:52:00Z</time>
      </trkpt>
      <trkpt lat="43.1858" lon="5.62079">
        <ele>8.31</ele>
        <time>2019-04-23T13:52:04Z</time>
      </trkpt>
      <trkpt lat="43.18587" lon="5.62089">
        <ele>7.83</ele>
        <time>2019-04-23T13:52:15Z</time>
      </trkpt>
      <trkpt lat="43.18588" lon="5.62097">
        <ele>7.35</ele>
        <time>2019-04-23T13:52:26Z</time>
      </trkpt>
      <trkpt lat="43.18591" lon="5.62097">
        <ele>8.31</ele>
        <time>2019-04-23T13:52:38Z</time>
      </trkpt>
      <trkpt lat="43.18599" lon="5.621">
        <ele>6.87</ele>
        <time>2019-04-23T13:52:48Z</time>
      </trkpt>
      <trkpt lat="43.186" lon="5.62101">
        <ele>5.91</ele>
        <time>2019-04-23T13:52:49Z</time>
      </trkpt>
      <trkpt lat="43.18603" lon="5.62108">
        <ele>5.91</ele>
        <time>2019-04-23T13:53:00Z</time>
      </trkpt>
      <trkpt lat="43.18604" lon="5.62105">
        <ele>6.39</ele>
        <time>2019-04-23T13:53:11Z</time>
      </trkpt>
      <trkpt lat="43.18608" lon="5.62111">
        <ele>5.91</ele>
        <time>2019-04-23T13:53:21Z</time>
      </trkpt>
      <trkpt lat="43.18613" lon="5.62118">
        <ele>6.39</ele>
        <time>2019-04-23T13:53:27Z</time>
      </trkpt>
      <trkpt lat="43.18615" lon="5.62122">
        <ele>6.39</ele>
        <time>2019-04-23T13:53:32Z</time>
      </trkpt>
      <trkpt lat="43.18625" lon="5.62136">
        <ele>5.91</ele>
        <time>2019-04-23T13:53:46Z</time>
      </trkpt>
      <trkpt lat="43.18626" lon="5.62141">
        <ele>6.39</ele>
        <time>2019-04-23T13:53:51Z</time>
      </trkpt>
      <trkpt lat="43.18632" lon="5.62158">
        <ele>6.87</ele>
        <time>2019-04-23T13:54:05Z</time>
      </trkpt>
      <trkpt lat="43.18632" lon="5.62169">
        <ele>7.35</ele>
        <time>2019-04-23T13:54:14Z</time>
      </trkpt>
      <trkpt lat="43.18631" lon="5.62176">
        <ele>6.87</ele>
        <time>2019-04-23T13:54:26Z</time>
      </trkpt>
      <trkpt lat="43.18632" lon="5.6218">
        <ele>7.35</ele>
        <time>2019-04-23T13:54:37Z</time>
      </trkpt>
      <trkpt lat="43.18634" lon="5.62186">
        <ele>6.87</ele>
        <time>2019-04-23T13:54:49Z</time>
      </trkpt>
      <trkpt lat="43.1864" lon="5.62185">
        <ele>6.87</ele>
        <time>2019-04-23T13:55:05Z</time>
      </trkpt>
      <trkpt lat="43.18649" lon="5.6219">
        <ele>7.35</ele>
        <time>2019-04-23T13:55:17Z</time>
      </trkpt>
      <trkpt lat="43.18653" lon="5.62191">
        <ele>7.35</ele>
        <time>2019-04-23T13:55:23Z</time>
      </trkpt>
      <trkpt lat="43.18656" lon="5.62198">
        <ele>6.39</ele>
        <time>2019-04-23T13:55:29Z</time>
      </trkpt>
      <trkpt lat="43.18659" lon="5.62201">
        <ele>6.87</ele>
        <time>2019-04-23T13:55:41Z</time>
      </trkpt>
      <trkpt lat="43.18658" lon="5.62208">
        <ele>5.91</ele>
        <time>2019-04-23T13:55:53Z</time>
      </trkpt>
      <trkpt lat="43.18657" lon="5.62211">
        <ele>6.39</ele>
        <time>2019-04-23T13:56:01Z</time>
      </trkpt>
      <trkpt lat="43.18661" lon="5.62209">
        <ele>6.87</ele>
        <time>2019-04-23T13:56:06Z</time>
      </trkpt>
      <trkpt lat="43.18668" lon="5.62228">
        <ele>6.87</ele>
        <time>2019-04-23T13:56:20Z</time>
      </trkpt>
      <trkpt lat="43.18673" lon="5.62237">
        <ele>7.35</ele>
        <time>2019-04-23T13:56:30Z</time>
      </trkpt>
      <trkpt lat="43.18675" lon="5.62242">
        <ele>6.87</ele>
        <time>2019-04-23T13:56:37Z</time>
      </trkpt>
      <trkpt lat="43.18679" lon="5.62252">
        <ele>7.35</ele>
        <time>2019-04-23T13:56:47Z</time>
      </trkpt>
      <trkpt lat="43.18684" lon="5.62264">
        <ele>7.83</ele>
        <time>2019-04-23T13:56:59Z</time>
      </trkpt>
      <trkpt lat="43.18686" lon="5.62274">
        <ele>6.87</ele>
        <time>2019-04-23T13:57:09Z</time>
      </trkpt>
      <trkpt lat="43.1869" lon="5.62281">
        <ele>7.35</ele>
        <time>2019-04-23T13:57:21Z</time>
      </trkpt>
      <trkpt lat="43.18691" lon="5.62284">
        <ele>6.87</ele>
        <time>2019-04-23T13:57:26Z</time>
      </trkpt>
      <trkpt lat="43.18693" lon="5.62297">
        <ele>6.87</ele>
        <time>2019-04-23T13:57:39Z</time>
      </trkpt>
      <trkpt lat="43.18694" lon="5.62301">
        <ele>6.87</ele>
        <time>2019-04-23T13:57:42Z</time>
      </trkpt>
      <trkpt lat="43.18696" lon="5.62312">
        <ele>6.87</ele>
        <time>2019-04-23T13:57:50Z</time>
      </trkpt>
      <trkpt lat="43.18696" lon="5.62318">
        <ele>6.39</ele>
        <time>2019-04-23T13:57:56Z</time>
      </trkpt>
      <trkpt lat="43.18702" lon="5.62332">
        <ele>6.39</ele>
        <time>2019-04-23T13:58:07Z</time>
      </trkpt>
      <trkpt lat="43.18703" lon="5.62336">
        <ele>6.39</ele>
        <time>2019-04-23T13:58:11Z</time>
      </trkpt>
      <trkpt lat="43.18704" lon="5.6234">
        <ele>6.39</ele>
        <time>2019-04-23T13:58:15Z</time>
      </trkpt>
      <trkpt lat="43.18706" lon="5.62352">
        <ele>6.39</ele>
        <time>2019-04-23T13:58:27Z</time>
      </trkpt>
      <trkpt lat="43.1871" lon="5.62366">
        <ele>5.91</ele>
        <time>2019-04-23T13:58:38Z</time>
      </trkpt>
      <trkpt lat="43.18712" lon="5.62383">
        <ele>6.39</ele>
        <time>2019-04-23T13:58:49Z</time>
      </trkpt>
      <trkpt lat="43.18715" lon="5.624">
        <ele>6.87</ele>
        <time>2019-04-23T13:59:03Z</time>
      </trkpt>
      <trkpt lat="43.18715" lon="5.62402">
        <ele>3.5</ele>
        <time>2019-04-23T13:59:05Z</time>
      </trkpt>
      <trkpt lat="43.18716" lon="5.62403">
        <ele>7.83</ele>
        <time>2019-04-23T13:59:06Z</time>
      </trkpt>
      <trkpt lat="43.18716" lon="5.62405">
        <ele>4.94</ele>
        <time>2019-04-23T13:59:08Z</time>
      </trkpt>
      <trkpt lat="43.18719" lon="5.62424">
        <ele>8.31</ele>
        <time>2019-04-23T13:59:25Z</time>
      </trkpt>
      <trkpt lat="43.18719" lon="5.62425">
        <ele>7.83</ele>
        <time>2019-04-23T13:59:26Z</time>
      </trkpt>
      <trkpt lat="43.1872" lon="5.62428">
        <ele>4.94</ele>
        <time>2019-04-23T13:59:28Z</time>
      </trkpt>
      <trkpt lat="43.18719" lon="5.62432">
        <ele>2.06</ele>
        <time>2019-04-23T13:59:32Z</time>
      </trkpt>
      <trkpt lat="43.1872" lon="5.62433">
        <ele>8.31</ele>
        <time>2019-04-23T13:59:33Z</time>
      </trkpt>
      <trkpt lat="43.1872" lon="5.62434">
        <ele>5.42</ele>
        <time>2019-04-23T13:59:34Z</time>
      </trkpt>
      <trkpt lat="43.18722" lon="5.62454">
        <ele>6.39</ele>
        <time>2019-04-23T13:59:53Z</time>
      </trkpt>
      <trkpt lat="43.18724" lon="5.62467">
        <ele>5.91</ele>
        <time>2019-04-23T14:00:07Z</time>
      </trkpt>
      <trkpt lat="43.18722" lon="5.62477">
        <ele>5.42</ele>
        <time>2019-04-23T14:00:17Z</time>
      </trkpt>
      <trkpt lat="43.18722" lon="5.62478">
        <ele>6.87</ele>
        <time>2019-04-23T14:00:27Z</time>
      </trkpt>
      <trkpt lat="43.18722" lon="5.62479">
        <ele>5.42</ele>
        <time>2019-04-23T14:00:38Z</time>
      </trkpt>
      <trkpt lat="43.18721" lon="5.62483">
        <ele>5.42</ele>
        <time>2019-04-23T14:00:52Z</time>
      </trkpt>
      <trkpt lat="43.18723" lon="5.62489">
        <ele>5.91</ele>
        <time>2019-04-23T14:01:00Z</time>
      </trkpt>
      <trkpt lat="43.18723" lon="5.62495">
        <ele>5.42</ele>
        <time>2019-04-23T14:01:05Z</time>
      </trkpt>
      <trkpt lat="43.18723" lon="5.62511">
        <ele>5.42</ele>
        <time>2019-04-23T14:01:19Z</time>
      </trkpt>
      <trkpt lat="43.18724" lon="5.62518">
        <ele>4.94</ele>
        <time>2019-04-23T14:01:25Z</time>
      </trkpt>
      <trkpt lat="43.18724" lon="5.62526">
        <ele>5.42</ele>
        <time>2019-04-23T14:01:31Z</time>
      </trkpt>
      <trkpt lat="43.18725" lon="5.6253">
        <ele>5.42</ele>
        <time>2019-04-23T14:01:36Z</time>
      </trkpt>
      <trkpt lat="43.18725" lon="5.62537">
        <ele>5.42</ele>
        <time>2019-04-23T14:01:42Z</time>
      </trkpt>
      <trkpt lat="43.18723" lon="5.62556">
        <ele>5.91</ele>
        <time>2019-04-23T14:01:55Z</time>
      </trkpt>
      <trkpt lat="43.18722" lon="5.62574">
        <ele>5.91</ele>
        <time>2019-04-23T14:02:08Z</time>
      </trkpt>
      <trkpt lat="43.18721" lon="5.62593">
        <ele>6.39</ele>
        <time>2019-04-23T14:02:22Z</time>
      </trkpt>
      <trkpt lat="43.18722" lon="5.62607">
        <ele>6.39</ele>
        <time>2019-04-23T14:02:36Z</time>
      </trkpt>
      <trkpt lat="43.18721" lon="5.62609">
        <ele>7.83</ele>
        <time>2019-04-23T14:02:38Z</time>
      </trkpt>
      <trkpt lat="43.18721" lon="5.62614">
        <ele>6.39</ele>
        <time>2019-04-23T14:02:46Z</time>
      </trkpt>
      <trkpt lat="43.18722" lon="5.62622">
        <ele>6.87</ele>
        <time>2019-04-23T14:02:55Z</time>
      </trkpt>
      <trkpt lat="43.18721" lon="5.62625">
        <ele>6.39</ele>
        <time>2019-04-23T14:02:58Z</time>
      </trkpt>
      <trkpt lat="43.18721" lon="5.62645">
        <ele>6.39</ele>
        <time>2019-04-23T14:03:14Z</time>
      </trkpt>
      <trkpt lat="43.18722" lon="5.62654">
        <ele>6.39</ele>
        <time>2019-04-23T14:03:23Z</time>
      </trkpt>
      <trkpt lat="43.18721" lon="5.6266">
        <ele>5.91</ele>
        <time>2019-04-23T14:03:33Z</time>
      </trkpt>
      <trkpt lat="43.18722" lon="5.62668">
        <ele>5.91</ele>
        <time>2019-04-23T14:03:39Z</time>
      </trkpt>
      <trkpt lat="43.18722" lon="5.62674">
        <ele>5.91</ele>
        <time>2019-04-23T14:03:44Z</time>
      </trkpt>
      <trkpt lat="43.18723" lon="5.62687">
        <ele>6.39</ele>
        <time>2019-04-23T14:03:56Z</time>
      </trkpt>
      <trkpt lat="43.18722" lon="5.6268">
        <ele>6.39</ele>
        <time>2019-04-23T14:04:08Z</time>
      </trkpt>
      <trkpt lat="43.18722" lon="5.62678">
        <ele>5.91</ele>
        <time>2019-04-23T14:04:19Z</time>
      </trkpt>
      <trkpt lat="43.18721" lon="5.62677">
        <ele>6.39</ele>
        <time>2019-04-23T14:04:31Z</time>
      </trkpt>
      <trkpt lat="43.18718" lon="5.62679">
        <ele>5.91</ele>
        <time>2019-04-23T14:04:42Z</time>
      </trkpt>
      <trkpt lat="43.18718" lon="5.62678">
        <ele>6.39</ele>
        <time>2019-04-23T14:04:44Z</time>
      </trkpt>
      <trkpt lat="43.1872" lon="5.62683">
        <ele>5.91</ele>
        <time>2019-04-23T14:04:56Z</time>
      </trkpt>
      <trkpt lat="43.1872" lon="5.62678">
        <ele>7.35</ele>
        <time>2019-04-23T14:05:11Z</time>
      </trkpt>
      <trkpt lat="43.1872" lon="5.62679">
        <ele>6.39</ele>
        <time>2019-04-23T14:05:18Z</time>
      </trkpt>
      <trkpt lat="43.1872" lon="5.62683">
        <ele>5.91</ele>
        <time>2019-04-23T14:05:26Z</time>
      </trkpt>
      <trkpt lat="43.18721" lon="5.62683">
        <ele>5.91</ele>
        <time>2019-04-23T14:05:27Z</time>
      </trkpt>
      <trkpt lat="43.18723" lon="5.62702">
        <ele>6.87</ele>
        <time>2019-04-23T14:05:41Z</time>
      </trkpt>
      <trkpt lat="43.18724" lon="5.6272">
        <ele>7.35</ele>
        <time>2019-04-23T14:05:56Z</time>
      </trkpt>
      <trkpt lat="43.18721" lon="5.6273">
        <ele>7.35</ele>
        <time>2019-04-23T14:06:06Z</time>
      </trkpt>
      <trkpt lat="43.18721" lon="5.62737">
        <ele>6.39</ele>
        <time>2019-04-23T14:06:11Z</time>
      </trkpt>
      <trkpt lat="43.18717" lon="5.62754">
        <ele>7.35</ele>
        <time>2019-04-23T14:06:28Z</time>
      </trkpt>
      <trkpt lat="43.18715" lon="5.6277">
        <ele>8.31</ele>
        <time>2019-04-23T14:06:42Z</time>
      </trkpt>
      <trkpt lat="43.18711" lon="5.62789">
        <ele>8.31</ele>
        <time>2019-04-23T14:06:57Z</time>
      </trkpt>
      <trkpt lat="43.18708" lon="5.6281">
        <ele>8.79</ele>
        <time>2019-04-23T14:07:12Z</time>
      </trkpt>
      <trkpt lat="43.18705" lon="5.62818">
        <ele>8.79</ele>
        <time>2019-04-23T14:07:27Z</time>
      </trkpt>
      <trkpt lat="43.18704" lon="5.62818">
        <ele>8.79</ele>
        <time>2019-04-23T14:07:40Z</time>
      </trkpt>
      <trkpt lat="43.18707" lon="5.62827">
        <ele>8.79</ele>
        <time>2019-04-23T14:07:53Z</time>
      </trkpt>
      <trkpt lat="43.187" lon="5.62842">
        <ele>9.75</ele>
        <time>2019-04-23T14:08:09Z</time>
      </trkpt>
      <trkpt lat="43.18695" lon="5.62857">
        <ele>10.23</ele>
        <time>2019-04-23T14:08:19Z</time>
      </trkpt>
      <trkpt lat="43.18687" lon="5.6287">
        <ele>11.19</ele>
        <time>2019-04-23T14:08:33Z</time>
      </trkpt>
      <trkpt lat="43.18682" lon="5.62875">
        <ele>11.67</ele>
        <time>2019-04-23T14:08:40Z</time>
      </trkpt>
      <trkpt lat="43.1868" lon="5.62878">
        <ele>11.19</ele>
        <time>2019-04-23T14:08:42Z</time>
      </trkpt>
      <trkpt lat="43.18675" lon="5.62886">
        <ele>11.67</ele>
        <time>2019-04-23T14:08:48Z</time>
      </trkpt>
      <trkpt lat="43.18673" lon="5.62899">
        <ele>12.15</ele>
        <time>2019-04-23T14:09:01Z</time>
      </trkpt>
      <trkpt lat="43.18676" lon="5.62909">
        <ele>12.63</ele>
        <time>2019-04-23T14:09:14Z</time>
      </trkpt>
      <trkpt lat="43.18674" lon="5.62916">
        <ele>12.63</ele>
        <time>2019-04-23T14:09:23Z</time>
      </trkpt>
      <trkpt lat="43.18674" lon="5.62918">
        <ele>12.63</ele>
        <time>2019-04-23T14:09:26Z</time>
      </trkpt>
      <trkpt lat="43.18676" lon="5.62932">
        <ele>12.63</ele>
        <time>2019-04-23T14:09:39Z</time>
      </trkpt>
      <trkpt lat="43.18681" lon="5.62952">
        <ele>12.63</ele>
        <time>2019-04-23T14:09:52Z</time>
      </trkpt>
      <trkpt lat="43.18684" lon="5.6296">
        <ele>15.52</ele>
        <time>2019-04-23T14:09:59Z</time>
      </trkpt>
      <trkpt lat="43.18685" lon="5.62964">
        <ele>12.63</ele>
        <time>2019-04-23T14:10:02Z</time>
      </trkpt>
      <trkpt lat="43.18695" lon="5.62982">
        <ele>13.6</ele>
        <time>2019-04-23T14:10:20Z</time>
      </trkpt>
      <trkpt lat="43.18702" lon="5.62999">
        <ele>14.08</ele>
        <time>2019-04-23T14:10:35Z</time>
      </trkpt>
      <trkpt lat="43.1871" lon="5.63017">
        <ele>13.6</ele>
        <time>2019-04-23T14:10:50Z</time>
      </trkpt>
      <trkpt lat="43.18712" lon="5.6302">
        <ele>14.08</ele>
        <time>2019-04-23T14:10:53Z</time>
      </trkpt>
      <trkpt lat="43.18715" lon="5.63033">
        <ele>15.04</ele>
        <time>2019-04-23T14:11:06Z</time>
      </trkpt>
      <trkpt lat="43.18723" lon="5.63047">
        <ele>15.04</ele>
        <time>2019-04-23T14:11:19Z</time>
      </trkpt>
      <trkpt lat="43.18725" lon="5.63049">
        <ele>15.52</ele>
        <time>2019-04-23T14:11:21Z</time>
      </trkpt>
      <trkpt lat="43.1873" lon="5.63058">
        <ele>16.48</ele>
        <time>2019-04-23T14:11:31Z</time>
      </trkpt>
      <trkpt lat="43.18731" lon="5.6306">
        <ele>16.48</ele>
        <time>2019-04-23T14:11:37Z</time>
      </trkpt>
      <trkpt lat="43.18741" lon="5.63066">
        <ele>16.96</ele>
        <time>2019-04-23T14:11:48Z</time>
      </trkpt>
      <trkpt lat="43.18747" lon="5.63074">
        <ele>17.44</ele>
        <time>2019-04-23T14:12:00Z</time>
      </trkpt>
      <trkpt lat="43.18746" lon="5.6308">
        <ele>17.44</ele>
        <time>2019-04-23T14:12:03Z</time>
      </trkpt>
      <trkpt lat="43.18745" lon="5.63093">
        <ele>16</ele>
        <time>2019-04-23T14:12:10Z</time>
      </trkpt>
      <trkpt lat="43.18746" lon="5.63103">
        <ele>15.52</ele>
        <time>2019-04-23T14:12:16Z</time>
      </trkpt>
      <trkpt lat="43.18745" lon="5.6311">
        <ele>15.52</ele>
        <time>2019-04-23T14:12:25Z</time>
      </trkpt>
      <trkpt lat="43.18744" lon="5.63113">
        <ele>14.56</ele>
        <time>2019-04-23T14:12:27Z</time>
      </trkpt>
      <trkpt lat="43.18746" lon="5.6312">
        <ele>14.56</ele>
        <time>2019-04-23T14:12:30Z</time>
      </trkpt>
      <trkpt lat="43.18746" lon="5.63122">
        <ele>13.6</ele>
        <time>2019-04-23T14:12:31Z</time>
      </trkpt>
      <trkpt lat="43.18746" lon="5.63124">
        <ele>14.08</ele>
        <time>2019-04-23T14:12:32Z</time>
      </trkpt>
      <trkpt lat="43.18746" lon="5.63128">
        <ele>13.6</ele>
        <time>2019-04-23T14:12:33Z</time>
      </trkpt>
      <trkpt lat="43.18746" lon="5.63146">
        <ele>13.12</ele>
        <time>2019-04-23T14:12:44Z</time>
      </trkpt>
      <trkpt lat="43.18746" lon="5.63147">
        <ele>12.63</ele>
        <time>2019-04-23T14:12:45Z</time>
      </trkpt>
      <trkpt lat="43.18745" lon="5.63148">
        <ele>12.63</ele>
        <time>2019-04-23T14:12:46Z</time>
      </trkpt>
      <trkpt lat="43.18745" lon="5.6315">
        <ele>12.63</ele>
        <time>2019-04-23T14:12:47Z</time>
      </trkpt>
      <trkpt lat="43.18745" lon="5.63152">
        <ele>12.63</ele>
        <time>2019-04-23T14:12:48Z</time>
      </trkpt>
      <trkpt lat="43.18744" lon="5.63154">
        <ele>12.15</ele>
        <time>2019-04-23T14:12:49Z</time>
      </trkpt>
      <trkpt lat="43.18743" lon="5.63158">
        <ele>12.15</ele>
        <time>2019-04-23T14:12:53Z</time>
      </trkpt>
      <trkpt lat="43.18743" lon="5.6316">
        <ele>11.19</ele>
        <time>2019-04-23T14:12:54Z</time>
      </trkpt>
      <trkpt lat="43.18742" lon="5.63162">
        <ele>11.67</ele>
        <time>2019-04-23T14:12:55Z</time>
      </trkpt>
      <trkpt lat="43.1874" lon="5.63168">
        <ele>8.31</ele>
        <time>2019-04-23T14:13:03Z</time>
      </trkpt>
      <trkpt lat="43.18741" lon="5.63173">
        <ele>6.39</ele>
        <time>2019-04-23T14:13:18Z</time>
      </trkpt>
      <trkpt lat="43.1874" lon="5.63174">
        <ele>3.02</ele>
        <time>2019-04-23T14:13:28Z</time>
      </trkpt>
      <trkpt lat="43.1874" lon="5.63173">
        <ele>7.83</ele>
        <time>2019-04-23T14:13:29Z</time>
      </trkpt>
      <trkpt lat="43.18739" lon="5.63173">
        <ele>4.46</ele>
        <time>2019-04-23T14:13:38Z</time>
      </trkpt>
      <trkpt lat="43.18736" lon="5.63173">
        <ele>5.42</ele>
        <time>2019-04-23T14:13:53Z</time>
      </trkpt>
      <trkpt lat="43.18737" lon="5.63174">
        <ele>5.91</ele>
        <time>2019-04-23T14:14:08Z</time>
      </trkpt>
      <trkpt lat="43.18736" lon="5.63175">
        <ele>5.42</ele>
        <time>2019-04-23T14:14:22Z</time>
      </trkpt>
      <trkpt lat="43.18737" lon="5.63172">
        <ele>6.39</ele>
        <time>2019-04-23T14:14:35Z</time>
      </trkpt>
      <trkpt lat="43.18737" lon="5.63173">
        <ele>7.35</ele>
        <time>2019-04-23T14:14:43Z</time>
      </trkpt>
      <trkpt lat="43.18738" lon="5.63172">
        <ele>6.87</ele>
        <time>2019-04-23T14:14:48Z</time>
      </trkpt>
      <trkpt lat="43.18741" lon="5.63174">
        <ele>7.83</ele>
        <time>2019-04-23T14:15:07Z</time>
      </trkpt>
      <trkpt lat="43.18739" lon="5.6318">
        <ele>7.35</ele>
        <time>2019-04-23T14:15:22Z</time>
      </trkpt>
      <trkpt lat="43.18735" lon="5.63182">
        <ele>5.42</ele>
        <time>2019-04-23T14:15:27Z</time>
      </trkpt>
      <trkpt lat="43.18733" lon="5.63189">
        <ele>5.42</ele>
        <time>2019-04-23T14:15:39Z</time>
      </trkpt>
      <trkpt lat="43.18739" lon="5.63192">
        <ele>5.42</ele>
        <time>2019-04-23T14:15:55Z</time>
      </trkpt>
      <trkpt lat="43.1874" lon="5.63196">
        <ele>7.35</ele>
        <time>2019-04-23T14:16:06Z</time>
      </trkpt>
      <trkpt lat="43.18739" lon="5.63198">
        <ele>6.39</ele>
        <time>2019-04-23T14:16:22Z</time>
      </trkpt>
      <trkpt lat="43.18739" lon="5.63195">
        <ele>6.87</ele>
        <time>2019-04-23T14:16:37Z</time>
      </trkpt>
      <trkpt lat="43.18738" lon="5.6319">
        <ele>6.39</ele>
        <time>2019-04-23T14:16:54Z</time>
      </trkpt>
      <trkpt lat="43.1874" lon="5.63197">
        <ele>5.91</ele>
        <time>2019-04-23T14:16:59Z</time>
      </trkpt>
      <trkpt lat="43.18744" lon="5.63209">
        <ele>5.91</ele>
        <time>2019-04-23T14:17:11Z</time>
      </trkpt>
      <trkpt lat="43.18748" lon="5.63224">
        <ele>5.42</ele>
        <time>2019-04-23T14:17:25Z</time>
      </trkpt>
      <trkpt lat="43.18748" lon="5.63233">
        <ele>5.91</ele>
        <time>2019-04-23T14:17:32Z</time>
      </trkpt>
      <trkpt lat="43.1875" lon="5.6324">
        <ele>6.87</ele>
        <time>2019-04-23T14:17:42Z</time>
      </trkpt>
      <trkpt lat="43.1875" lon="5.6324">
        <ele>5.42</ele>
        <time>2019-04-23T14:17:46Z</time>
      </trkpt>
      <trkpt lat="43.18751" lon="5.63242">
        <ele>5.42</ele>
        <time>2019-04-23T14:17:48Z</time>
      </trkpt>
      <trkpt lat="43.18752" lon="5.63248">
        <ele>4.94</ele>
        <time>2019-04-23T14:17:57Z</time>
      </trkpt>
      <trkpt lat="43.18752" lon="5.63255">
        <ele>5.91</ele>
        <time>2019-04-23T14:18:08Z</time>
      </trkpt>
      <trkpt lat="43.18757" lon="5.63263">
        <ele>5.91</ele>
        <time>2019-04-23T14:18:16Z</time>
      </trkpt>
      <trkpt lat="43.18759" lon="5.63268">
        <ele>5.42</ele>
        <time>2019-04-23T14:18:23Z</time>
      </trkpt>
      <trkpt lat="43.1876" lon="5.6327">
        <ele>4.94</ele>
        <time>2019-04-23T14:18:29Z</time>
      </trkpt>
      <trkpt lat="43.18761" lon="5.63275">
        <ele>5.91</ele>
        <time>2019-04-23T14:18:37Z</time>
      </trkpt>
      <trkpt lat="43.18764" lon="5.63283">
        <ele>4.94</ele>
        <time>2019-04-23T14:18:44Z</time>
      </trkpt>
      <trkpt lat="43.18777" lon="5.63296">
        <ele>4.46</ele>
        <time>2019-04-23T14:18:55Z</time>
      </trkpt>
      <trkpt lat="43.18779" lon="5.63297">
        <ele>3.98</ele>
        <time>2019-04-23T14:18:57Z</time>
      </trkpt>
      <trkpt lat="43.18785" lon="5.63303">
        <ele>4.94</ele>
        <time>2019-04-23T14:19:05Z</time>
      </trkpt>
      <trkpt lat="43.18787" lon="5.63304">
        <ele>3.98</ele>
        <time>2019-04-23T14:19:17Z</time>
      </trkpt>
      <trkpt lat="43.18787" lon="5.63304">
        <ele>3.98</ele>
        <time>2019-04-23T14:19:18Z</time>
      </trkpt>
      <trkpt lat="43.18793" lon="5.63309">
        <ele>3.5</ele>
        <time>2019-04-23T14:19:21Z</time>
      </trkpt>
      <trkpt lat="43.18801" lon="5.63312">
        <ele>4.94</ele>
        <time>2019-04-23T14:19:30Z</time>
      </trkpt>
      <trkpt lat="43.18804" lon="5.63315">
        <ele>5.91</ele>
        <time>2019-04-23T14:19:33Z</time>
      </trkpt>
      <trkpt lat="43.18811" lon="5.6332">
        <ele>6.87</ele>
        <time>2019-04-23T14:19:43Z</time>
      </trkpt>
      <trkpt lat="43.18811" lon="5.63321">
        <ele>6.87</ele>
        <time>2019-04-23T14:19:44Z</time>
      </trkpt>
      <trkpt lat="43.1882" lon="5.63318">
        <ele>9.75</ele>
        <time>2019-04-23T14:19:54Z</time>
      </trkpt>
      <trkpt lat="43.18813" lon="5.63322">
        <ele>6.87</ele>
        <time>2019-04-23T14:20:02Z</time>
      </trkpt>
      <trkpt lat="43.18807" lon="5.6333">
        <ele>6.39</ele>
        <time>2019-04-23T14:20:15Z</time>
      </trkpt>
      <trkpt lat="43.18807" lon="5.63327">
        <ele>6.87</ele>
        <time>2019-04-23T14:20:34Z</time>
      </trkpt>
      <trkpt lat="43.18807" lon="5.63326">
        <ele>5.91</ele>
        <time>2019-04-23T14:20:46Z</time>
      </trkpt>
      <trkpt lat="43.18803" lon="5.63325">
        <ele>5.42</ele>
        <time>2019-04-23T14:21:04Z</time>
      </trkpt>
      <trkpt lat="43.18804" lon="5.63324">
        <ele>6.39</ele>
        <time>2019-04-23T14:21:16Z</time>
      </trkpt>
      <trkpt lat="43.18805" lon="5.63325">
        <ele>6.87</ele>
        <time>2019-04-23T14:21:38Z</time>
      </trkpt>
      <trkpt lat="43.18809" lon="5.63333">
        <ele>5.91</ele>
        <time>2019-04-23T14:21:46Z</time>
      </trkpt>
      <trkpt lat="43.18813" lon="5.63332">
        <ele>6.39</ele>
        <time>2019-04-23T14:21:50Z</time>
      </trkpt>
      <trkpt lat="43.18814" lon="5.63332">
        <ele>6.39</ele>
        <time>2019-04-23T14:21:58Z</time>
      </trkpt>
      <trkpt lat="43.18814" lon="5.63331">
        <ele>5.91</ele>
        <time>2019-04-23T14:22:00Z</time>
      </trkpt>
      <trkpt lat="43.18823" lon="5.6332">
        <ele>8.79</ele>
        <time>2019-04-23T14:22:13Z</time>
      </trkpt>
      <trkpt lat="43.1883" lon="5.63312">
        <ele>9.27</ele>
        <time>2019-04-23T14:22:24Z</time>
      </trkpt>
      <trkpt lat="43.18839" lon="5.63309">
        <ele>10.23</ele>
        <time>2019-04-23T14:22:35Z</time>
      </trkpt>
      <trkpt lat="43.18839" lon="5.63308">
        <ele>10.71</ele>
        <time>2019-04-23T14:22:36Z</time>
      </trkpt>
      <trkpt lat="43.18839" lon="5.63306">
        <ele>11.19</ele>
        <time>2019-04-23T14:22:38Z</time>
      </trkpt>
      <trkpt lat="43.1884" lon="5.63302">
        <ele>11.19</ele>
        <time>2019-04-23T14:22:41Z</time>
      </trkpt>
      <trkpt lat="43.18837" lon="5.63284">
        <ele>11.19</ele>
        <time>2019-04-23T14:22:56Z</time>
      </trkpt>
      <trkpt lat="43.18834" lon="5.63278">
        <ele>11.67</ele>
        <time>2019-04-23T14:23:02Z</time>
      </trkpt>
      <trkpt lat="43.18833" lon="5.63267">
        <ele>12.15</ele>
        <time>2019-04-23T14:23:10Z</time>
      </trkpt>
      <trkpt lat="43.18832" lon="5.63251">
        <ele>11.67</ele>
        <time>2019-04-23T14:23:20Z</time>
      </trkpt>
      <trkpt lat="43.18833" lon="5.63226">
        <ele>10.71</ele>
        <time>2019-04-23T14:23:35Z</time>
      </trkpt>
      <trkpt lat="43.18839" lon="5.63209">
        <ele>10.71</ele>
        <time>2019-04-23T14:23:47Z</time>
      </trkpt>
      <trkpt lat="43.18844" lon="5.63199">
        <ele>9.75</ele>
        <time>2019-04-23T14:23:59Z</time>
      </trkpt>
      <trkpt lat="43.18846" lon="5.63194">
        <ele>10.23</ele>
        <time>2019-04-23T14:24:03Z</time>
      </trkpt>
      <trkpt lat="43.18847" lon="5.63192">
        <ele>10.23</ele>
        <time>2019-04-23T14:24:04Z</time>
      </trkpt>
      <trkpt lat="43.18848" lon="5.63189">
        <ele>10.23</ele>
        <time>2019-04-23T14:24:05Z</time>
      </trkpt>
      <trkpt lat="43.18849" lon="5.63187">
        <ele>10.23</ele>
        <time>2019-04-23T14:24:06Z</time>
      </trkpt>
      <trkpt lat="43.18849" lon="5.63186">
        <ele>9.75</ele>
        <time>2019-04-23T14:24:07Z</time>
      </trkpt>
      <trkpt lat="43.18851" lon="5.63185">
        <ele>9.75</ele>
        <time>2019-04-23T14:24:10Z</time>
      </trkpt>
      <trkpt lat="43.18855" lon="5.63188">
        <ele>10.23</ele>
        <time>2019-04-23T14:24:16Z</time>
      </trkpt>
      <trkpt lat="43.18859" lon="5.63194">
        <ele>12.15</ele>
        <time>2019-04-23T14:24:26Z</time>
      </trkpt>
      <trkpt lat="43.1886" lon="5.63195">
        <ele>12.15</ele>
        <time>2019-04-23T14:24:29Z</time>
      </trkpt>
      <trkpt lat="43.18861" lon="5.63196">
        <ele>12.63</ele>
        <time>2019-04-23T14:24:30Z</time>
      </trkpt>
      <trkpt lat="43.18868" lon="5.63201">
        <ele>14.08</ele>
        <time>2019-04-23T14:24:39Z</time>
      </trkpt>
      <trkpt lat="43.18871" lon="5.63203">
        <ele>14.56</ele>
        <time>2019-04-23T14:24:43Z</time>
      </trkpt>
      <trkpt lat="43.18879" lon="5.63206">
        <ele>15.52</ele>
        <time>2019-04-23T14:24:52Z</time>
      </trkpt>
      <trkpt lat="43.18881" lon="5.63207">
        <ele>16</ele>
        <time>2019-04-23T14:24:53Z</time>
      </trkpt>
      <trkpt lat="43.18885" lon="5.63209">
        <ele>16.96</ele>
        <time>2019-04-23T14:24:57Z</time>
      </trkpt>
      <trkpt lat="43.18895" lon="5.63212">
        <ele>17.92</ele>
        <time>2019-04-23T14:25:08Z</time>
      </trkpt>
      <trkpt lat="43.18896" lon="5.63212">
        <ele>17.44</ele>
        <time>2019-04-23T14:25:09Z</time>
      </trkpt>
      <trkpt lat="43.18899" lon="5.63213">
        <ele>18.88</ele>
        <time>2019-04-23T14:25:13Z</time>
      </trkpt>
      <trkpt lat="43.189" lon="5.63214">
        <ele>18.88</ele>
        <time>2019-04-23T14:25:14Z</time>
      </trkpt>
      <trkpt lat="43.18911" lon="5.63217">
        <ele>19.84</ele>
        <time>2019-04-23T14:25:27Z</time>
      </trkpt>
      <trkpt lat="43.18915" lon="5.63216">
        <ele>19.84</ele>
        <time>2019-04-23T14:25:30Z</time>
      </trkpt>
      <trkpt lat="43.18916" lon="5.63217">
        <ele>20.32</ele>
        <time>2019-04-23T14:25:31Z</time>
      </trkpt>
      <trkpt lat="43.18918" lon="5.63218">
        <ele>19.84</ele>
        <time>2019-04-23T14:25:32Z</time>
      </trkpt>
      <trkpt lat="43.18931" lon="5.63217">
        <ele>20.81</ele>
        <time>2019-04-23T14:25:44Z</time>
      </trkpt>
      <trkpt lat="43.18942" lon="5.63217">
        <ele>20.81</ele>
        <time>2019-04-23T14:25:54Z</time>
      </trkpt>
      <trkpt lat="43.18954" lon="5.63218">
        <ele>22.73</ele>
        <time>2019-04-23T14:26:06Z</time>
      </trkpt>
      <trkpt lat="43.1896" lon="5.63218">
        <ele>23.21</ele>
        <time>2019-04-23T14:26:10Z</time>
      </trkpt>
      <trkpt lat="43.18961" lon="5.63219">
        <ele>23.21</ele>
        <time>2019-04-23T14:26:11Z</time>
      </trkpt>
      <trkpt lat="43.18972" lon="5.63222">
        <ele>23.21</ele>
        <time>2019-04-23T14:26:23Z</time>
      </trkpt>
      <trkpt lat="43.18986" lon="5.63225">
        <ele>24.17</ele>
        <time>2019-04-23T14:26:35Z</time>
      </trkpt>
      <trkpt lat="43.19002" lon="5.63226">
        <ele>25.61</ele>
        <time>2019-04-23T14:26:49Z</time>
      </trkpt>
      <trkpt lat="43.19012" lon="5.63226">
        <ele>26.09</ele>
        <time>2019-04-23T14:27:00Z</time>
      </trkpt>
      <trkpt lat="43.19013" lon="5.63226">
        <ele>27.05</ele>
        <time>2019-04-23T14:27:01Z</time>
      </trkpt>
      <trkpt lat="43.19014" lon="5.63226">
        <ele>27.05</ele>
        <time>2019-04-23T14:27:02Z</time>
      </trkpt>
      <trkpt lat="43.19025" lon="5.63226">
        <ele>27.53</ele>
        <time>2019-04-23T14:27:13Z</time>
      </trkpt>
      <trkpt lat="43.19026" lon="5.63227">
        <ele>27.53</ele>
        <time>2019-04-23T14:27:14Z</time>
      </trkpt>
      <trkpt lat="43.19028" lon="5.63227">
        <ele>28.02</ele>
        <time>2019-04-23T14:27:15Z</time>
      </trkpt>
      <trkpt lat="43.19033" lon="5.63226">
        <ele>28.5</ele>
        <time>2019-04-23T14:27:20Z</time>
      </trkpt>
      <trkpt lat="43.19034" lon="5.63226">
        <ele>28.5</ele>
        <time>2019-04-23T14:27:21Z</time>
      </trkpt>
      <trkpt lat="43.19035" lon="5.63226">
        <ele>28.02</ele>
        <time>2019-04-23T14:27:22Z</time>
      </trkpt>
      <trkpt lat="43.19045" lon="5.6323">
        <ele>29.46</ele>
        <time>2019-04-23T14:27:32Z</time>
      </trkpt>
      <trkpt lat="43.19059" lon="5.63235">
        <ele>30.42</ele>
        <time>2019-04-23T14:27:44Z</time>
      </trkpt>
      <trkpt lat="43.19067" lon="5.63239">
        <ele>31.38</ele>
        <time>2019-04-23T14:27:51Z</time>
      </trkpt>
      <trkpt lat="43.19071" lon="5.63242">
        <ele>31.86</ele>
        <time>2019-04-23T14:27:56Z</time>
      </trkpt>
      <trkpt lat="43.19072" lon="5.63243">
        <ele>31.86</ele>
        <time>2019-04-23T14:27:57Z</time>
      </trkpt>
      <trkpt lat="43.19084" lon="5.63249">
        <ele>32.34</ele>
        <time>2019-04-23T14:28:11Z</time>
      </trkpt>
      <trkpt lat="43.19095" lon="5.63252">
        <ele>33.3</ele>
        <time>2019-04-23T14:28:22Z</time>
      </trkpt>
      <trkpt lat="43.19106" lon="5.63258">
        <ele>33.3</ele>
        <time>2019-04-23T14:28:35Z</time>
      </trkpt>
      <trkpt lat="43.19124" lon="5.63264">
        <ele>34.74</ele>
        <time>2019-04-23T14:28:52Z</time>
      </trkpt>
      <trkpt lat="43.19139" lon="5.63271">
        <ele>35.23</ele>
        <time>2019-04-23T14:29:06Z</time>
      </trkpt>
      <trkpt lat="43.19144" lon="5.63273">
        <ele>35.23</ele>
        <time>2019-04-23T14:29:18Z</time>
      </trkpt>
      <trkpt lat="43.19151" lon="5.63277">
        <ele>35.71</ele>
        <time>2019-04-23T14:29:28Z</time>
      </trkpt>
      <trkpt lat="43.19164" lon="5.6329">
        <ele>35.71</ele>
        <time>2019-04-23T14:29:40Z</time>
      </trkpt>
      <trkpt lat="43.19173" lon="5.63294">
        <ele>35.71</ele>
        <time>2019-04-23T14:29:51Z</time>
      </trkpt>
      <trkpt lat="43.19175" lon="5.63297">
        <ele>35.23</ele>
        <time>2019-04-23T14:29:54Z</time>
      </trkpt>
      <trkpt lat="43.19176" lon="5.63298">
        <ele>35.71</ele>
        <time>2019-04-23T14:29:55Z</time>
      </trkpt>
      <trkpt lat="43.19177" lon="5.633">
        <ele>35.71</ele>
        <time>2019-04-23T14:29:56Z</time>
      </trkpt>
      <trkpt lat="43.19178" lon="5.63303">
        <ele>35.71</ele>
        <time>2019-04-23T14:29:57Z</time>
      </trkpt>
      <trkpt lat="43.19179" lon="5.63304">
        <ele>35.71</ele>
        <time>2019-04-23T14:29:58Z</time>
      </trkpt>
      <trkpt lat="43.1918" lon="5.63306">
        <ele>35.71</ele>
        <time>2019-04-23T14:29:59Z</time>
      </trkpt>
      <trkpt lat="43.19183" lon="5.63309">
        <ele>35.71</ele>
        <time>2019-04-23T14:30:03Z</time>
      </trkpt>
      <trkpt lat="43.19186" lon="5.63312">
        <ele>36.19</ele>
        <time>2019-04-23T14:30:06Z</time>
      </trkpt>
      <trkpt lat="43.19193" lon="5.63322">
        <ele>35.71</ele>
        <time>2019-04-23T14:30:14Z</time>
      </trkpt>
      <trkpt lat="43.19194" lon="5.63323">
        <ele>36.19</ele>
        <time>2019-04-23T14:30:15Z</time>
      </trkpt>
      <trkpt lat="43.19195" lon="5.63324">
        <ele>36.67</ele>
        <time>2019-04-23T14:30:16Z</time>
      </trkpt>
      <trkpt lat="43.19196" lon="5.63325">
        <ele>36.19</ele>
        <time>2019-04-23T14:30:17Z</time>
      </trkpt>
      <trkpt lat="43.19198" lon="5.63326">
        <ele>36.19</ele>
        <time>2019-04-23T14:30:18Z</time>
      </trkpt>
      <trkpt lat="43.19208" lon="5.63337">
        <ele>37.15</ele>
        <time>2019-04-23T14:30:30Z</time>
      </trkpt>
      <trkpt lat="43.19216" lon="5.63349">
        <ele>37.15</ele>
        <time>2019-04-23T14:30:42Z</time>
      </trkpt>
      <trkpt lat="43.19221" lon="5.63365">
        <ele>38.11</ele>
        <time>2019-04-23T14:30:54Z</time>
      </trkpt>
      <trkpt lat="43.19221" lon="5.63367">
        <ele>38.11</ele>
        <time>2019-04-23T14:30:55Z</time>
      </trkpt>
      <trkpt lat="43.19227" lon="5.63384">
        <ele>38.11</ele>
        <time>2019-04-23T14:31:06Z</time>
      </trkpt>
      <trkpt lat="43.19231" lon="5.63399">
        <ele>38.59</ele>
        <time>2019-04-23T14:31:18Z</time>
      </trkpt>
      <trkpt lat="43.19232" lon="5.63404">
        <ele>38.11</ele>
        <time>2019-04-23T14:31:22Z</time>
      </trkpt>
      <trkpt lat="43.19237" lon="5.63429">
        <ele>38.59</ele>
        <time>2019-04-23T14:31:37Z</time>
      </trkpt>
      <trkpt lat="43.19241" lon="5.63441">
        <ele>38.11</ele>
        <time>2019-04-23T14:31:47Z</time>
      </trkpt>
      <trkpt lat="43.19242" lon="5.63443">
        <ele>38.59</ele>
        <time>2019-04-23T14:31:48Z</time>
      </trkpt>
      <trkpt lat="43.19242" lon="5.63445">
        <ele>38.11</ele>
        <time>2019-04-23T14:31:49Z</time>
      </trkpt>
      <trkpt lat="43.19243" lon="5.63447">
        <ele>38.59</ele>
        <time>2019-04-23T14:31:50Z</time>
      </trkpt>
      <trkpt lat="43.19243" lon="5.63448">
        <ele>38.59</ele>
        <time>2019-04-23T14:31:51Z</time>
      </trkpt>
      <trkpt lat="43.19246" lon="5.63461">
        <ele>38.59</ele>
        <time>2019-04-23T14:32:00Z</time>
      </trkpt>
      <trkpt lat="43.19248" lon="5.63464">
        <ele>38.59</ele>
        <time>2019-04-23T14:32:02Z</time>
      </trkpt>
      <trkpt lat="43.19249" lon="5.63466">
        <ele>38.59</ele>
        <time>2019-04-23T14:32:03Z</time>
      </trkpt>
      <trkpt lat="43.19257" lon="5.63478">
        <ele>39.07</ele>
        <time>2019-04-23T14:32:14Z</time>
      </trkpt>
      <trkpt lat="43.19258" lon="5.63479">
        <ele>38.59</ele>
        <time>2019-04-23T14:32:15Z</time>
      </trkpt>
      <trkpt lat="43.19259" lon="5.6348">
        <ele>39.07</ele>
        <time>2019-04-23T14:32:16Z</time>
      </trkpt>
      <trkpt lat="43.19272" lon="5.63489">
        <ele>39.55</ele>
        <time>2019-04-23T14:32:29Z</time>
      </trkpt>
      <trkpt lat="43.19274" lon="5.63487">
        <ele>39.07</ele>
        <time>2019-04-23T14:32:35Z</time>
      </trkpt>
      <trkpt lat="43.1928" lon="5.63479">
        <ele>39.07</ele>
        <time>2019-04-23T14:32:43Z</time>
      </trkpt>
      <trkpt lat="43.19292" lon="5.63466">
        <ele>40.03</ele>
        <time>2019-04-23T14:32:57Z</time>
      </trkpt>
      <trkpt lat="43.19299" lon="5.63462">
        <ele>39.55</ele>
        <time>2019-04-23T14:33:04Z</time>
      </trkpt>
      <trkpt lat="43.19299" lon="5.63461">
        <ele>39.55</ele>
        <time>2019-04-23T14:33:05Z</time>
      </trkpt>
      <trkpt lat="43.1931" lon="5.63449">
        <ele>40.03</ele>
        <time>2019-04-23T14:33:18Z</time>
      </trkpt>
      <trkpt lat="43.19321" lon="5.63446">
        <ele>39.55</ele>
        <time>2019-04-23T14:33:28Z</time>
      </trkpt>
      <trkpt lat="43.19323" lon="5.63445">
        <ele>40.03</ele>
        <time>2019-04-23T14:33:29Z</time>
      </trkpt>
      <trkpt lat="43.19324" lon="5.63445">
        <ele>39.55</ele>
        <time>2019-04-23T14:33:30Z</time>
      </trkpt>
      <trkpt lat="43.19338" lon="5.63444">
        <ele>40.03</ele>
        <time>2019-04-23T14:33:45Z</time>
      </trkpt>
      <trkpt lat="43.19339" lon="5.63445">
        <ele>40.03</ele>
        <time>2019-04-23T14:33:46Z</time>
      </trkpt>
      <trkpt lat="43.19346" lon="5.63445">
        <ele>40.51</ele>
        <time>2019-04-23T14:33:52Z</time>
      </trkpt>
      <trkpt lat="43.19347" lon="5.63445">
        <ele>40.51</ele>
        <time>2019-04-23T14:33:53Z</time>
      </trkpt>
      <trkpt lat="43.19353" lon="5.63446">
        <ele>40.99</ele>
        <time>2019-04-23T14:33:57Z</time>
      </trkpt>
      <trkpt lat="43.19354" lon="5.63447">
        <ele>40.51</ele>
        <time>2019-04-23T14:33:58Z</time>
      </trkpt>
      <trkpt lat="43.19362" lon="5.63447">
        <ele>40.03</ele>
        <time>2019-04-23T14:34:05Z</time>
      </trkpt>
      <trkpt lat="43.19371" lon="5.63449">
        <ele>40.51</ele>
        <time>2019-04-23T14:34:15Z</time>
      </trkpt>
      <trkpt lat="43.19388" lon="5.63451">
        <ele>40.99</ele>
        <time>2019-04-23T14:34:30Z</time>
      </trkpt>
      <trkpt lat="43.19404" lon="5.63451">
        <ele>40.99</ele>
        <time>2019-04-23T14:34:43Z</time>
      </trkpt>
      <trkpt lat="43.19418" lon="5.63456">
        <ele>41.47</ele>
        <time>2019-04-23T14:34:55Z</time>
      </trkpt>
      <trkpt lat="43.19426" lon="5.63458">
        <ele>41.47</ele>
        <time>2019-04-23T14:35:02Z</time>
      </trkpt>
      <trkpt lat="43.19427" lon="5.63459">
        <ele>41.95</ele>
        <time>2019-04-23T14:35:03Z</time>
      </trkpt>
      <trkpt lat="43.19433" lon="5.63464">
        <ele>41.95</ele>
        <time>2019-04-23T14:35:10Z</time>
      </trkpt>
      <trkpt lat="43.19435" lon="5.63464">
        <ele>41.95</ele>
        <time>2019-04-23T14:35:11Z</time>
      </trkpt>
      <trkpt lat="43.19437" lon="5.63464">
        <ele>41.47</ele>
        <time>2019-04-23T14:35:12Z</time>
      </trkpt>
      <trkpt lat="43.19438" lon="5.63464">
        <ele>41.47</ele>
        <time>2019-04-23T14:35:13Z</time>
      </trkpt>
      <trkpt lat="43.19439" lon="5.63464">
        <ele>41.47</ele>
        <time>2019-04-23T14:35:14Z</time>
      </trkpt>
      <trkpt lat="43.19456" lon="5.63457">
        <ele>41.47</ele>
        <time>2019-04-23T14:35:29Z</time>
      </trkpt>
      <trkpt lat="43.19473" lon="5.6345">
        <ele>42.44</ele>
        <time>2019-04-23T14:35:44Z</time>
      </trkpt>
      <trkpt lat="43.19475" lon="5.63446">
        <ele>42.44</ele>
        <time>2019-04-23T14:35:48Z</time>
      </trkpt>
      <trkpt lat="43.19488" lon="5.63429">
        <ele>42.44</ele>
        <time>2019-04-23T14:36:03Z</time>
      </trkpt>
      <trkpt lat="43.19489" lon="5.63429">
        <ele>43.88</ele>
        <time>2019-04-23T14:36:04Z</time>
      </trkpt>
      <trkpt lat="43.19509" lon="5.63412">
        <ele>44.84</ele>
        <time>2019-04-23T14:36:21Z</time>
      </trkpt>
      <trkpt lat="43.19522" lon="5.63403">
        <ele>44.84</ele>
        <time>2019-04-23T14:36:36Z</time>
      </trkpt>
      <trkpt lat="43.19531" lon="5.63397">
        <ele>45.8</ele>
        <time>2019-04-23T14:36:45Z</time>
      </trkpt>
      <trkpt lat="43.19533" lon="5.63394">
        <ele>45.8</ele>
        <time>2019-04-23T14:36:48Z</time>
      </trkpt>
      <trkpt lat="43.19534" lon="5.63394">
        <ele>45.32</ele>
        <time>2019-04-23T14:36:49Z</time>
      </trkpt>
      <trkpt lat="43.19548" lon="5.63391">
        <ele>45.8</ele>
        <time>2019-04-23T14:37:02Z</time>
      </trkpt>
      <trkpt lat="43.19559" lon="5.63384">
        <ele>46.28</ele>
        <time>2019-04-23T14:37:15Z</time>
      </trkpt>
      <trkpt lat="43.19561" lon="5.63383">
        <ele>46.28</ele>
        <time>2019-04-23T14:37:16Z</time>
      </trkpt>
      <trkpt lat="43.19563" lon="5.6338">
        <ele>46.28</ele>
        <time>2019-04-23T14:37:19Z</time>
      </trkpt>
      <trkpt lat="43.1957" lon="5.63377">
        <ele>46.76</ele>
        <time>2019-04-23T14:37:24Z</time>
      </trkpt>
      <trkpt lat="43.19576" lon="5.63374">
        <ele>46.28</ele>
        <time>2019-04-23T14:37:35Z</time>
      </trkpt>
      <trkpt lat="43.19585" lon="5.63369">
        <ele>47.24</ele>
        <time>2019-04-23T14:37:46Z</time>
      </trkpt>
      <trkpt lat="43.19592" lon="5.63367">
        <ele>47.24</ele>
        <time>2019-04-23T14:37:52Z</time>
      </trkpt>
      <trkpt lat="43.19593" lon="5.63366">
        <ele>47.72</ele>
        <time>2019-04-23T14:37:53Z</time>
      </trkpt>
      <trkpt lat="43.19594" lon="5.63366">
        <ele>47.72</ele>
        <time>2019-04-23T14:37:54Z</time>
      </trkpt>
      <trkpt lat="43.19608" lon="5.63359">
        <ele>48.2</ele>
        <time>2019-04-23T14:38:07Z</time>
      </trkpt>
      <trkpt lat="43.19619" lon="5.63351">
        <ele>48.68</ele>
        <time>2019-04-23T14:38:19Z</time>
      </trkpt>
      <trkpt lat="43.19627" lon="5.63346">
        <ele>49.16</ele>
        <time>2019-04-23T14:38:26Z</time>
      </trkpt>
      <trkpt lat="43.19634" lon="5.63343">
        <ele>49.65</ele>
        <time>2019-04-23T14:38:35Z</time>
      </trkpt>
      <trkpt lat="43.19635" lon="5.63343">
        <ele>49.16</ele>
        <time>2019-04-23T14:38:36Z</time>
      </trkpt>
      <trkpt lat="43.19636" lon="5.63342">
        <ele>49.16</ele>
        <time>2019-04-23T14:38:37Z</time>
      </trkpt>
      <trkpt lat="43.19648" lon="5.63342">
        <ele>50.13</ele>
        <time>2019-04-23T14:38:49Z</time>
      </trkpt>
      <trkpt lat="43.19665" lon="5.63343">
        <ele>51.09</ele>
        <time>2019-04-23T14:39:04Z</time>
      </trkpt>
      <trkpt lat="43.19685" lon="5.63342">
        <ele>51.57</ele>
        <time>2019-04-23T14:39:20Z</time>
      </trkpt>
      <trkpt lat="43.197" lon="5.63344">
        <ele>52.05</ele>
        <time>2019-04-23T14:39:34Z</time>
      </trkpt>
      <trkpt lat="43.19713" lon="5.63343">
        <ele>52.53</ele>
        <time>2019-04-23T14:39:47Z</time>
      </trkpt>
      <trkpt lat="43.19724" lon="5.63341">
        <ele>53.01</ele>
        <time>2019-04-23T14:39:59Z</time>
      </trkpt>
      <trkpt lat="43.19725" lon="5.63341">
        <ele>53.49</ele>
        <time>2019-04-23T14:40:00Z</time>
      </trkpt>
      <trkpt lat="43.19726" lon="5.6334">
        <ele>53.49</ele>
        <time>2019-04-23T14:40:01Z</time>
      </trkpt>
      <trkpt lat="43.19728" lon="5.6334">
        <ele>53.01</ele>
        <time>2019-04-23T14:40:02Z</time>
      </trkpt>
      <trkpt lat="43.19729" lon="5.63339">
        <ele>53.49</ele>
        <time>2019-04-23T14:40:03Z</time>
      </trkpt>
      <trkpt lat="43.19747" lon="5.63338">
        <ele>54.93</ele>
        <time>2019-04-23T14:40:19Z</time>
      </trkpt>
      <trkpt lat="43.19765" lon="5.63326">
        <ele>55.41</ele>
        <time>2019-04-23T14:40:35Z</time>
      </trkpt>
      <trkpt lat="43.19777" lon="5.63313">
        <ele>55.89</ele>
        <time>2019-04-23T14:40:47Z</time>
      </trkpt>
      <trkpt lat="43.1979" lon="5.63303">
        <ele>55.89</ele>
        <time>2019-04-23T14:41:01Z</time>
      </trkpt>
      <trkpt lat="43.19804" lon="5.63296">
        <ele>56.86</ele>
        <time>2019-04-23T14:41:14Z</time>
      </trkpt>
      <trkpt lat="43.19813" lon="5.6329">
        <ele>56.86</ele>
        <time>2019-04-23T14:41:25Z</time>
      </trkpt>
      <trkpt lat="43.19815" lon="5.63291">
        <ele>56.86</ele>
        <time>2019-04-23T14:41:26Z</time>
      </trkpt>
      <trkpt lat="43.19816" lon="5.63292">
        <ele>56.86</ele>
        <time>2019-04-23T14:41:27Z</time>
      </trkpt>
      <trkpt lat="43.19828" lon="5.6329">
        <ele>57.34</ele>
        <time>2019-04-23T14:41:38Z</time>
      </trkpt>
      <trkpt lat="43.19833" lon="5.6329">
        <ele>57.34</ele>
        <time>2019-04-23T14:41:43Z</time>
      </trkpt>
      <trkpt lat="43.19838" lon="5.63291">
        <ele>57.34</ele>
        <time>2019-04-23T14:41:47Z</time>
      </trkpt>
      <trkpt lat="43.19846" lon="5.63288">
        <ele>58.3</ele>
        <time>2019-04-23T14:41:58Z</time>
      </trkpt>
      <trkpt lat="43.19856" lon="5.63284">
        <ele>58.78</ele>
        <time>2019-04-23T14:42:09Z</time>
      </trkpt>
      <trkpt lat="43.19873" lon="5.63275">
        <ele>60.22</ele>
        <time>2019-04-23T14:42:23Z</time>
      </trkpt>
      <trkpt lat="43.19892" lon="5.63274">
        <ele>61.66</ele>
        <time>2019-04-23T14:42:39Z</time>
      </trkpt>
      <trkpt lat="43.19898" lon="5.63271">
        <ele>61.18</ele>
        <time>2019-04-23T14:42:53Z</time>
      </trkpt>
      <trkpt lat="43.19902" lon="5.6327">
        <ele>61.66</ele>
        <time>2019-04-23T14:43:05Z</time>
      </trkpt>
      <trkpt lat="43.1991" lon="5.63269">
        <ele>62.62</ele>
        <time>2019-04-23T14:43:12Z</time>
      </trkpt>
      <trkpt lat="43.19916" lon="5.63266">
        <ele>62.62</ele>
        <time>2019-04-23T14:43:18Z</time>
      </trkpt>
      <trkpt lat="43.19924" lon="5.63265">
        <ele>63.1</ele>
        <time>2019-04-23T14:43:29Z</time>
      </trkpt>
      <trkpt lat="43.19937" lon="5.63263">
        <ele>65.03</ele>
        <time>2019-04-23T14:43:44Z</time>
      </trkpt>
      <trkpt lat="43.19878" lon="5.63273">
        <ele>62.62</ele>
        <time>2019-04-23T08:14:30Z</time>
      </trkpt>
      <trkpt lat="43.19863" lon="5.63279">
        <ele>61.66</ele>
        <time>2019-04-23T08:14:44Z</time>
      </trkpt>
      <trkpt lat="43.19847" lon="5.63285">
        <ele>60.7</ele>
        <time>2019-04-23T08:15:00Z</time>
      </trkpt>
      <trkpt lat="43.19836" lon="5.63288">
        <ele>60.22</ele>
        <time>2019-04-23T08:15:17Z</time>
      </trkpt>
      <trkpt lat="43.19831" lon="5.63294">
        <ele>60.22</ele>
        <time>2019-04-23T08:15:30Z</time>
      </trkpt>
      <trkpt lat="43.19829" lon="5.63288">
        <ele>59.26</ele>
        <time>2019-04-23T08:15:37Z</time>
      </trkpt>
      <trkpt lat="43.19823" lon="5.63274">
        <ele>59.74</ele>
        <time>2019-04-23T08:15:50Z</time>
      </trkpt>
      <trkpt lat="43.19819" lon="5.63272">
        <ele>59.26</ele>
        <time>2019-04-23T08:16:01Z</time>
      </trkpt>
      <trkpt lat="43.19816" lon="5.63273">
        <ele>59.26</ele>
        <time>2019-04-23T08:16:22Z</time>
      </trkpt>
      <trkpt lat="43.19817" lon="5.63265">
        <ele>59.74</ele>
        <time>2019-04-23T08:16:41Z</time>
      </trkpt>
      <trkpt lat="43.19816" lon="5.63261">
        <ele>59.74</ele>
        <time>2019-04-23T08:16:45Z</time>
      </trkpt>
      <trkpt lat="43.19814" lon="5.63241">
        <ele>58.78</ele>
        <time>2019-04-23T08:16:58Z</time>
      </trkpt>
      <trkpt lat="43.19812" lon="5.63219">
        <ele>57.82</ele>
        <time>2019-04-23T08:17:14Z</time>
      </trkpt>
      <trkpt lat="43.1981" lon="5.63194">
        <ele>57.34</ele>
        <time>2019-04-23T08:17:31Z</time>
      </trkpt>
      <trkpt lat="43.19807" lon="5.63168">
        <ele>55.89</ele>
        <time>2019-04-23T08:17:47Z</time>
      </trkpt>
      <trkpt lat="43.19806" lon="5.63157">
        <ele>54.93</ele>
        <time>2019-04-23T08:17:53Z</time>
      </trkpt>
      <trkpt lat="43.19804" lon="5.63144">
        <ele>55.41</ele>
        <time>2019-04-23T08:18:04Z</time>
      </trkpt>
      <trkpt lat="43.19811" lon="5.63115">
        <ele>53.49</ele>
        <time>2019-04-23T08:18:19Z</time>
      </trkpt>
      <trkpt lat="43.19809" lon="5.63102">
        <ele>53.01</ele>
        <time>2019-04-23T08:18:27Z</time>
      </trkpt>
      <trkpt lat="43.19806" lon="5.63093">
        <ele>53.97</ele>
        <time>2019-04-23T08:18:41Z</time>
      </trkpt>
      <trkpt lat="43.19803" lon="5.63071">
        <ele>52.05</ele>
        <time>2019-04-23T08:18:55Z</time>
      </trkpt>
      <trkpt lat="43.19801" lon="5.63059">
        <ele>51.57</ele>
        <time>2019-04-23T08:19:05Z</time>
      </trkpt>
      <trkpt lat="43.19798" lon="5.63035">
        <ele>50.13</ele>
        <time>2019-04-23T08:19:21Z</time>
      </trkpt>
      <trkpt lat="43.19796" lon="5.63009">
        <ele>49.65</ele>
        <time>2019-04-23T08:19:35Z</time>
      </trkpt>
      <trkpt lat="43.19795" lon="5.63006">
        <ele>49.16</ele>
        <time>2019-04-23T08:19:37Z</time>
      </trkpt>
      <trkpt lat="43.19795" lon="5.63001">
        <ele>48.68</ele>
        <time>2019-04-23T08:19:40Z</time>
      </trkpt>
      <trkpt lat="43.19796" lon="5.62996">
        <ele>48.68</ele>
        <time>2019-04-23T08:19:43Z</time>
      </trkpt>
      <trkpt lat="43.19791" lon="5.62972">
        <ele>48.2</ele>
        <time>2019-04-23T08:19:56Z</time>
      </trkpt>
      <trkpt lat="43.19787" lon="5.62956">
        <ele>47.72</ele>
        <time>2019-04-23T08:20:06Z</time>
      </trkpt>
      <trkpt lat="43.1978" lon="5.62951">
        <ele>46.76</ele>
        <time>2019-04-23T08:20:13Z</time>
      </trkpt>
      <trkpt lat="43.19759" lon="5.62943">
        <ele>45.32</ele>
        <time>2019-04-23T08:20:29Z</time>
      </trkpt>
      <trkpt lat="43.19745" lon="5.62934">
        <ele>43.88</ele>
        <time>2019-04-23T08:20:44Z</time>
      </trkpt>
      <trkpt lat="43.19742" lon="5.62933">
        <ele>44.36</ele>
        <time>2019-04-23T08:20:53Z</time>
      </trkpt>
      <trkpt lat="43.19741" lon="5.62933">
        <ele>44.36</ele>
        <time>2019-04-23T08:20:54Z</time>
      </trkpt>
      <trkpt lat="43.1974" lon="5.62934">
        <ele>43.4</ele>
        <time>2019-04-23T08:20:59Z</time>
      </trkpt>
      <trkpt lat="43.1975" lon="5.62936">
        <ele>45.32</ele>
        <time>2019-04-23T08:21:12Z</time>
      </trkpt>
      <trkpt lat="43.19751" lon="5.62937">
        <ele>44.84</ele>
        <time>2019-04-23T08:21:13Z</time>
      </trkpt>
      <trkpt lat="43.19758" lon="5.62937">
        <ele>45.8</ele>
        <time>2019-04-23T08:21:19Z</time>
      </trkpt>
      <trkpt lat="43.19767" lon="5.62942">
        <ele>46.28</ele>
        <time>2019-04-23T08:21:27Z</time>
      </trkpt>
      <trkpt lat="43.19782" lon="5.62947">
        <ele>47.72</ele>
        <time>2019-04-23T08:21:40Z</time>
      </trkpt>
      <trkpt lat="43.19787" lon="5.62923">
        <ele>47.72</ele>
        <time>2019-04-23T08:21:54Z</time>
      </trkpt>
      <trkpt lat="43.19788" lon="5.62921">
        <ele>46.76</ele>
        <time>2019-04-23T08:21:56Z</time>
      </trkpt>
      <trkpt lat="43.19795" lon="5.62905">
        <ele>45.32</ele>
        <time>2019-04-23T08:22:09Z</time>
      </trkpt>
      <trkpt lat="43.19806" lon="5.62892">
        <ele>45.32</ele>
        <time>2019-04-23T08:22:22Z</time>
      </trkpt>
      <trkpt lat="43.19813" lon="5.62886">
        <ele>44.36</ele>
        <time>2019-04-23T08:22:34Z</time>
      </trkpt>
      <trkpt lat="43.1983" lon="5.62879">
        <ele>43.4</ele>
        <time>2019-04-23T08:22:50Z</time>
      </trkpt>
      <trkpt lat="43.19839" lon="5.62874">
        <ele>42.92</ele>
        <time>2019-04-23T08:22:58Z</time>
      </trkpt>
      <trkpt lat="43.1984" lon="5.62873">
        <ele>42.92</ele>
        <time>2019-04-23T08:22:59Z</time>
      </trkpt>
      <trkpt lat="43.19842" lon="5.62872">
        <ele>42.92</ele>
        <time>2019-04-23T08:23:00Z</time>
      </trkpt>
      <trkpt lat="43.19847" lon="5.62872">
        <ele>42.92</ele>
        <time>2019-04-23T08:23:03Z</time>
      </trkpt>
      <trkpt lat="43.19848" lon="5.62872">
        <ele>43.4</ele>
        <time>2019-04-23T08:23:04Z</time>
      </trkpt>
      <trkpt lat="43.19865" lon="5.6287">
        <ele>41.95</ele>
        <time>2019-04-23T08:23:17Z</time>
      </trkpt>
      <trkpt lat="43.19878" lon="5.62863">
        <ele>41.47</ele>
        <time>2019-04-23T08:23:26Z</time>
      </trkpt>
      <trkpt lat="43.1988" lon="5.62862">
        <ele>41.47</ele>
        <time>2019-04-23T08:23:27Z</time>
      </trkpt>
      <trkpt lat="43.19888" lon="5.62859">
        <ele>40.03</ele>
        <time>2019-04-23T08:23:36Z</time>
      </trkpt>
      <trkpt lat="43.19889" lon="5.62858">
        <ele>40.03</ele>
        <time>2019-04-23T08:23:37Z</time>
      </trkpt>
      <trkpt lat="43.19902" lon="5.62836">
        <ele>39.07</ele>
        <time>2019-04-23T08:23:48Z</time>
      </trkpt>
      <trkpt lat="43.1991" lon="5.62813">
        <ele>38.11</ele>
        <time>2019-04-23T08:23:57Z</time>
      </trkpt>
      <trkpt lat="43.19911" lon="5.62811">
        <ele>38.11</ele>
        <time>2019-04-23T08:23:58Z</time>
      </trkpt>
      <trkpt lat="43.19915" lon="5.62785">
        <ele>37.15</ele>
        <time>2019-04-23T08:24:11Z</time>
      </trkpt>
      <trkpt lat="43.19916" lon="5.62783">
        <ele>37.63</ele>
        <time>2019-04-23T08:24:13Z</time>
      </trkpt>
      <trkpt lat="43.19919" lon="5.62771">
        <ele>36.67</ele>
        <time>2019-04-23T08:24:26Z</time>
      </trkpt>
      <trkpt lat="43.19918" lon="5.62767">
        <ele>36.19</ele>
        <time>2019-04-23T08:24:28Z</time>
      </trkpt>
      <trkpt lat="43.19917" lon="5.62765">
        <ele>36.67</ele>
        <time>2019-04-23T08:24:29Z</time>
      </trkpt>
      <trkpt lat="43.19917" lon="5.62763">
        <ele>36.67</ele>
        <time>2019-04-23T08:24:30Z</time>
      </trkpt>
      <trkpt lat="43.19914" lon="5.62753">
        <ele>36.19</ele>
        <time>2019-04-23T08:24:35Z</time>
      </trkpt>
      <trkpt lat="43.19914" lon="5.62751">
        <ele>36.19</ele>
        <time>2019-04-23T08:24:36Z</time>
      </trkpt>
      <trkpt lat="43.19914" lon="5.62749">
        <ele>36.67</ele>
        <time>2019-04-23T08:24:37Z</time>
      </trkpt>
      <trkpt lat="43.19907" lon="5.62734">
        <ele>36.67</ele>
        <time>2019-04-23T08:24:47Z</time>
      </trkpt>
      <trkpt lat="43.19898" lon="5.62716">
        <ele>37.15</ele>
        <time>2019-04-23T08:24:59Z</time>
      </trkpt>
      <trkpt lat="43.19897" lon="5.6271">
        <ele>37.15</ele>
        <time>2019-04-23T08:25:04Z</time>
      </trkpt>
      <trkpt lat="43.19897" lon="5.62708">
        <ele>37.63</ele>
        <time>2019-04-23T08:25:05Z</time>
      </trkpt>
      <trkpt lat="43.19896" lon="5.62706">
        <ele>37.15</ele>
        <time>2019-04-23T08:25:06Z</time>
      </trkpt>
      <trkpt lat="43.19896" lon="5.62704">
        <ele>37.15</ele>
        <time>2019-04-23T08:25:07Z</time>
      </trkpt>
      <trkpt lat="43.19895" lon="5.62702">
        <ele>37.15</ele>
        <time>2019-04-23T08:25:08Z</time>
      </trkpt>
      <trkpt lat="43.19894" lon="5.62701">
        <ele>37.15</ele>
        <time>2019-04-23T08:25:09Z</time>
      </trkpt>
      <trkpt lat="43.19893" lon="5.62699">
        <ele>37.15</ele>
        <time>2019-04-23T08:25:10Z</time>
      </trkpt>
      <trkpt lat="43.19892" lon="5.62698">
        <ele>38.11</ele>
        <time>2019-04-23T08:25:11Z</time>
      </trkpt>
      <trkpt lat="43.19885" lon="5.62675">
        <ele>38.11</ele>
        <time>2019-04-23T08:25:25Z</time>
      </trkpt>
      <trkpt lat="43.19874" lon="5.62654">
        <ele>38.11</ele>
        <time>2019-04-23T08:25:35Z</time>
      </trkpt>
      <trkpt lat="43.19871" lon="5.62648">
        <ele>38.59</ele>
        <time>2019-04-23T08:25:44Z</time>
      </trkpt>
      <trkpt lat="43.1987" lon="5.62648">
        <ele>38.11</ele>
        <time>2019-04-23T08:25:48Z</time>
      </trkpt>
      <trkpt lat="43.19853" lon="5.62651">
        <ele>37.15</ele>
        <time>2019-04-23T08:26:01Z</time>
      </trkpt>
      <trkpt lat="43.19841" lon="5.62653">
        <ele>36.67</ele>
        <time>2019-04-23T08:26:13Z</time>
      </trkpt>
      <trkpt lat="43.19836" lon="5.62653">
        <ele>36.67</ele>
        <time>2019-04-23T08:26:18Z</time>
      </trkpt>
      <trkpt lat="43.19833" lon="5.62653">
        <ele>36.19</ele>
        <time>2019-04-23T08:26:20Z</time>
      </trkpt>
      <trkpt lat="43.19832" lon="5.62654">
        <ele>36.19</ele>
        <time>2019-04-23T08:26:21Z</time>
      </trkpt>
      <trkpt lat="43.1982" lon="5.62659">
        <ele>35.71</ele>
        <time>2019-04-23T08:26:31Z</time>
      </trkpt>
      <trkpt lat="43.19817" lon="5.62663">
        <ele>35.71</ele>
        <time>2019-04-23T08:26:34Z</time>
      </trkpt>
      <trkpt lat="43.19815" lon="5.62664">
        <ele>35.71</ele>
        <time>2019-04-23T08:26:35Z</time>
      </trkpt>
      <trkpt lat="43.19813" lon="5.62665">
        <ele>35.23</ele>
        <time>2019-04-23T08:26:36Z</time>
      </trkpt>
      <trkpt lat="43.19793" lon="5.62672">
        <ele>34.26</ele>
        <time>2019-04-23T08:26:50Z</time>
      </trkpt>
      <trkpt lat="43.1979" lon="5.62673">
        <ele>34.26</ele>
        <time>2019-04-23T08:26:54Z</time>
      </trkpt>
      <trkpt lat="43.19789" lon="5.62675">
        <ele>33.78</ele>
        <time>2019-04-23T08:26:55Z</time>
      </trkpt>
      <trkpt lat="43.19788" lon="5.62676">
        <ele>33.78</ele>
        <time>2019-04-23T08:26:56Z</time>
      </trkpt>
      <trkpt lat="43.19787" lon="5.62677">
        <ele>33.78</ele>
        <time>2019-04-23T08:26:57Z</time>
      </trkpt>
      <trkpt lat="43.19786" lon="5.62678">
        <ele>33.78</ele>
        <time>2019-04-23T08:26:58Z</time>
      </trkpt>
      <trkpt lat="43.19785" lon="5.62679">
        <ele>33.78</ele>
        <time>2019-04-23T08:26:59Z</time>
      </trkpt>
      <trkpt lat="43.19784" lon="5.62679">
        <ele>33.3</ele>
        <time>2019-04-23T08:27:00Z</time>
      </trkpt>
      <trkpt lat="43.19769" lon="5.62692">
        <ele>32.82</ele>
        <time>2019-04-23T08:27:15Z</time>
      </trkpt>
      <trkpt lat="43.19763" lon="5.62704">
        <ele>32.34</ele>
        <time>2019-04-23T08:27:24Z</time>
      </trkpt>
      <trkpt lat="43.1975" lon="5.62721">
        <ele>31.86</ele>
        <time>2019-04-23T08:27:38Z</time>
      </trkpt>
      <trkpt lat="43.19747" lon="5.62722">
        <ele>32.34</ele>
        <time>2019-04-23T08:27:40Z</time>
      </trkpt>
      <trkpt lat="43.19747" lon="5.62724">
        <ele>32.34</ele>
        <time>2019-04-23T08:27:41Z</time>
      </trkpt>
      <trkpt lat="43.19745" lon="5.62728">
        <ele>31.38</ele>
        <time>2019-04-23T08:27:44Z</time>
      </trkpt>
      <trkpt lat="43.19744" lon="5.62729">
        <ele>31.86</ele>
        <time>2019-04-23T08:27:45Z</time>
      </trkpt>
      <trkpt lat="43.19743" lon="5.6273">
        <ele>32.34</ele>
        <time>2019-04-23T08:27:46Z</time>
      </trkpt>
      <trkpt lat="43.19742" lon="5.62732">
        <ele>31.38</ele>
        <time>2019-04-23T08:27:47Z</time>
      </trkpt>
      <trkpt lat="43.19741" lon="5.62733">
        <ele>31.38</ele>
        <time>2019-04-23T08:27:48Z</time>
      </trkpt>
      <trkpt lat="43.19739" lon="5.62735">
        <ele>30.9</ele>
        <time>2019-04-23T08:27:49Z</time>
      </trkpt>
      <trkpt lat="43.19736" lon="5.6274">
        <ele>31.38</ele>
        <time>2019-04-23T08:27:53Z</time>
      </trkpt>
      <trkpt lat="43.19735" lon="5.6274">
        <ele>30.9</ele>
        <time>2019-04-23T08:27:54Z</time>
      </trkpt>
      <trkpt lat="43.1973" lon="5.62744">
        <ele>30.42</ele>
        <time>2019-04-23T08:28:00Z</time>
      </trkpt>
      <trkpt lat="43.19729" lon="5.62745">
        <ele>29.94</ele>
        <time>2019-04-23T08:28:01Z</time>
      </trkpt>
      <trkpt lat="43.19709" lon="5.62755">
        <ele>29.46</ele>
        <time>2019-04-23T08:28:15Z</time>
      </trkpt>
      <trkpt lat="43.197" lon="5.62754">
        <ele>28.5</ele>
        <time>2019-04-23T08:28:29Z</time>
      </trkpt>
      <trkpt lat="43.19693" lon="5.62746">
        <ele>28.98</ele>
        <time>2019-04-23T08:28:41Z</time>
      </trkpt>
      <trkpt lat="43.1969" lon="5.62745">
        <ele>28.5</ele>
        <time>2019-04-23T08:28:43Z</time>
      </trkpt>
      <trkpt lat="43.19676" lon="5.62738">
        <ele>29.46</ele>
        <time>2019-04-23T08:28:55Z</time>
      </trkpt>
      <trkpt lat="43.19675" lon="5.62736">
        <ele>29.46</ele>
        <time>2019-04-23T08:28:56Z</time>
      </trkpt>
      <trkpt lat="43.19673" lon="5.62738">
        <ele>29.46</ele>
        <time>2019-04-23T08:28:58Z</time>
      </trkpt>
      <trkpt lat="43.19672" lon="5.62739">
        <ele>29.46</ele>
        <time>2019-04-23T08:28:59Z</time>
      </trkpt>
      <trkpt lat="43.19657" lon="5.62742">
        <ele>29.46</ele>
        <time>2019-04-23T08:29:10Z</time>
      </trkpt>
      <trkpt lat="43.19635" lon="5.6275">
        <ele>28.98</ele>
        <time>2019-04-23T08:29:22Z</time>
      </trkpt>
      <trkpt lat="43.19633" lon="5.62751">
        <ele>28.98</ele>
        <time>2019-04-23T08:29:23Z</time>
      </trkpt>
      <trkpt lat="43.19633" lon="5.62752">
        <ele>28.98</ele>
        <time>2019-04-23T08:29:24Z</time>
      </trkpt>
      <trkpt lat="43.19629" lon="5.62754">
        <ele>28.98</ele>
        <time>2019-04-23T08:29:29Z</time>
      </trkpt>
      <trkpt lat="43.19628" lon="5.62757">
        <ele>28.5</ele>
        <time>2019-04-23T08:29:31Z</time>
      </trkpt>
      <trkpt lat="43.1962" lon="5.62773">
        <ele>28.98</ele>
        <time>2019-04-23T08:29:44Z</time>
      </trkpt>
      <trkpt lat="43.19619" lon="5.62777">
        <ele>28.5</ele>
        <time>2019-04-23T08:29:49Z</time>
      </trkpt>
      <trkpt lat="43.19617" lon="5.62779">
        <ele>28.5</ele>
        <time>2019-04-23T08:29:50Z</time>
      </trkpt>
      <trkpt lat="43.19615" lon="5.62781">
        <ele>28.5</ele>
        <time>2019-04-23T08:29:51Z</time>
      </trkpt>
      <trkpt lat="43.19607" lon="5.62797">
        <ele>28.02</ele>
        <time>2019-04-23T08:29:58Z</time>
      </trkpt>
      <trkpt lat="43.19606" lon="5.628">
        <ele>28.02</ele>
        <time>2019-04-23T08:29:59Z</time>
      </trkpt>
      <trkpt lat="43.19602" lon="5.62808">
        <ele>27.53</ele>
        <time>2019-04-23T08:30:06Z</time>
      </trkpt>
      <trkpt lat="43.19601" lon="5.62809">
        <ele>27.53</ele>
        <time>2019-04-23T08:30:07Z</time>
      </trkpt>
      <trkpt lat="43.19601" lon="5.62811">
        <ele>27.53</ele>
        <time>2019-04-23T08:30:08Z</time>
      </trkpt>
      <trkpt lat="43.196" lon="5.62813">
        <ele>27.53</ele>
        <time>2019-04-23T08:30:09Z</time>
      </trkpt>
      <trkpt lat="43.196" lon="5.62815">
        <ele>28.02</ele>
        <time>2019-04-23T08:30:10Z</time>
      </trkpt>
      <trkpt lat="43.196" lon="5.62816">
        <ele>28.02</ele>
        <time>2019-04-23T08:30:11Z</time>
      </trkpt>
      <trkpt lat="43.19598" lon="5.62818">
        <ele>27.53</ele>
        <time>2019-04-23T08:30:12Z</time>
      </trkpt>
      <trkpt lat="43.19597" lon="5.62819">
        <ele>27.53</ele>
        <time>2019-04-23T08:30:13Z</time>
      </trkpt>
      <trkpt lat="43.19595" lon="5.6282">
        <ele>28.02</ele>
        <time>2019-04-23T08:30:14Z</time>
      </trkpt>
      <trkpt lat="43.19584" lon="5.62826">
        <ele>28.5</ele>
        <time>2019-04-23T08:30:23Z</time>
      </trkpt>
      <trkpt lat="43.19582" lon="5.62827">
        <ele>28.5</ele>
        <time>2019-04-23T08:30:24Z</time>
      </trkpt>
      <trkpt lat="43.19581" lon="5.62828">
        <ele>28.5</ele>
        <time>2019-04-23T08:30:25Z</time>
      </trkpt>
      <trkpt lat="43.1958" lon="5.62829">
        <ele>28.02</ele>
        <time>2019-04-23T08:30:26Z</time>
      </trkpt>
      <trkpt lat="43.19579" lon="5.62829">
        <ele>28.02</ele>
        <time>2019-04-23T08:30:27Z</time>
      </trkpt>
      <trkpt lat="43.19578" lon="5.62829">
        <ele>28.5</ele>
        <time>2019-04-23T08:30:28Z</time>
      </trkpt>
      <trkpt lat="43.19569" lon="5.62839">
        <ele>28.5</ele>
        <time>2019-04-23T08:30:41Z</time>
      </trkpt>
      <trkpt lat="43.19563" lon="5.62843">
        <ele>28.5</ele>
        <time>2019-04-23T08:30:46Z</time>
      </trkpt>
      <trkpt lat="43.19561" lon="5.62843">
        <ele>28.02</ele>
        <time>2019-04-23T08:30:47Z</time>
      </trkpt>
      <trkpt lat="43.19543" lon="5.62853">
        <ele>28.02</ele>
        <time>2019-04-23T08:31:01Z</time>
      </trkpt>
      <trkpt lat="43.19521" lon="5.62859">
        <ele>28.02</ele>
        <time>2019-04-23T08:31:16Z</time>
      </trkpt>
      <trkpt lat="43.19514" lon="5.62864">
        <ele>28.5</ele>
        <time>2019-04-23T08:31:23Z</time>
      </trkpt>
      <trkpt lat="43.19513" lon="5.62864">
        <ele>28.02</ele>
        <time>2019-04-23T08:31:24Z</time>
      </trkpt>
      <trkpt lat="43.19512" lon="5.62864">
        <ele>28.5</ele>
        <time>2019-04-23T08:31:25Z</time>
      </trkpt>
      <trkpt lat="43.1951" lon="5.62864">
        <ele>28.5</ele>
        <time>2019-04-23T08:31:26Z</time>
      </trkpt>
      <trkpt lat="43.19509" lon="5.62864">
        <ele>28.5</ele>
        <time>2019-04-23T08:31:27Z</time>
      </trkpt>
      <trkpt lat="43.19508" lon="5.62864">
        <ele>28.5</ele>
        <time>2019-04-23T08:31:28Z</time>
      </trkpt>
      <trkpt lat="43.19493" lon="5.62858">
        <ele>28.02</ele>
        <time>2019-04-23T08:31:42Z</time>
      </trkpt>
      <trkpt lat="43.1949" lon="5.62858">
        <ele>28.02</ele>
        <time>2019-04-23T08:31:44Z</time>
      </trkpt>
      <trkpt lat="43.19489" lon="5.62857">
        <ele>27.53</ele>
        <time>2019-04-23T08:31:45Z</time>
      </trkpt>
      <trkpt lat="43.19475" lon="5.62851">
        <ele>28.02</ele>
        <time>2019-04-23T08:31:58Z</time>
      </trkpt>
      <trkpt lat="43.19456" lon="5.62846">
        <ele>27.05</ele>
        <time>2019-04-23T08:32:12Z</time>
      </trkpt>
      <trkpt lat="43.19439" lon="5.62842">
        <ele>26.09</ele>
        <time>2019-04-23T08:32:26Z</time>
      </trkpt>
      <trkpt lat="43.19421" lon="5.62836">
        <ele>27.05</ele>
        <time>2019-04-23T08:32:42Z</time>
      </trkpt>
      <trkpt lat="43.19416" lon="5.62836">
        <ele>25.13</ele>
        <time>2019-04-23T08:32:46Z</time>
      </trkpt>
      <trkpt lat="43.19403" lon="5.62832">
        <ele>24.65</ele>
        <time>2019-04-23T08:33:01Z</time>
      </trkpt>
      <trkpt lat="43.19398" lon="5.62827">
        <ele>24.65</ele>
        <time>2019-04-23T08:33:08Z</time>
      </trkpt>
      <trkpt lat="43.19397" lon="5.62827">
        <ele>24.65</ele>
        <time>2019-04-23T08:33:09Z</time>
      </trkpt>
      <trkpt lat="43.19396" lon="5.62826">
        <ele>25.13</ele>
        <time>2019-04-23T08:33:10Z</time>
      </trkpt>
      <trkpt lat="43.19378" lon="5.6282">
        <ele>23.69</ele>
        <time>2019-04-23T08:33:27Z</time>
      </trkpt>
      <trkpt lat="43.19363" lon="5.6281">
        <ele>24.65</ele>
        <time>2019-04-23T08:33:44Z</time>
      </trkpt>
      <trkpt lat="43.19361" lon="5.6281">
        <ele>24.65</ele>
        <time>2019-04-23T08:33:46Z</time>
      </trkpt>
      <trkpt lat="43.1936" lon="5.62809">
        <ele>24.17</ele>
        <time>2019-04-23T08:33:47Z</time>
      </trkpt>
      <trkpt lat="43.1935" lon="5.62806">
        <ele>23.21</ele>
        <time>2019-04-23T08:33:56Z</time>
      </trkpt>
      <trkpt lat="43.19349" lon="5.62806">
        <ele>23.21</ele>
        <time>2019-04-23T08:33:57Z</time>
      </trkpt>
      <trkpt lat="43.19348" lon="5.62806">
        <ele>23.21</ele>
        <time>2019-04-23T08:33:58Z</time>
      </trkpt>
      <trkpt lat="43.19347" lon="5.62805">
        <ele>23.21</ele>
        <time>2019-04-23T08:33:59Z</time>
      </trkpt>
      <trkpt lat="43.19345" lon="5.62805">
        <ele>23.21</ele>
        <time>2019-04-23T08:34:00Z</time>
      </trkpt>
      <trkpt lat="43.19344" lon="5.62805">
        <ele>23.21</ele>
        <time>2019-04-23T08:34:01Z</time>
      </trkpt>
      <trkpt lat="43.19331" lon="5.62799">
        <ele>23.21</ele>
        <time>2019-04-23T08:34:11Z</time>
      </trkpt>
      <trkpt lat="43.1933" lon="5.62798">
        <ele>23.69</ele>
        <time>2019-04-23T08:34:12Z</time>
      </trkpt>
      <trkpt lat="43.19327" lon="5.62797">
        <ele>23.69</ele>
        <time>2019-04-23T08:34:16Z</time>
      </trkpt>
      <trkpt lat="43.19326" lon="5.62796">
        <ele>23.69</ele>
        <time>2019-04-23T08:34:17Z</time>
      </trkpt>
      <trkpt lat="43.19324" lon="5.62794">
        <ele>24.65</ele>
        <time>2019-04-23T08:34:18Z</time>
      </trkpt>
      <trkpt lat="43.19322" lon="5.62794">
        <ele>24.17</ele>
        <time>2019-04-23T08:34:19Z</time>
      </trkpt>
      <trkpt lat="43.1932" lon="5.62794">
        <ele>24.65</ele>
        <time>2019-04-23T08:34:20Z</time>
      </trkpt>
      <trkpt lat="43.1932" lon="5.62794">
        <ele>24.17</ele>
        <time>2019-04-23T08:34:21Z</time>
      </trkpt>
      <trkpt lat="43.19308" lon="5.62789">
        <ele>24.17</ele>
        <time>2019-04-23T08:34:32Z</time>
      </trkpt>
      <trkpt lat="43.19295" lon="5.62785">
        <ele>23.69</ele>
        <time>2019-04-23T08:34:43Z</time>
      </trkpt>
      <trkpt lat="43.19281" lon="5.6278">
        <ele>23.69</ele>
        <time>2019-04-23T08:34:55Z</time>
      </trkpt>
      <trkpt lat="43.19265" lon="5.62781">
        <ele>23.69</ele>
        <time>2019-04-23T08:35:08Z</time>
      </trkpt>
      <trkpt lat="43.19264" lon="5.62781">
        <ele>23.69</ele>
        <time>2019-04-23T08:35:09Z</time>
      </trkpt>
      <trkpt lat="43.19263" lon="5.62781">
        <ele>24.17</ele>
        <time>2019-04-23T08:35:10Z</time>
      </trkpt>
      <trkpt lat="43.19261" lon="5.62782">
        <ele>23.69</ele>
        <time>2019-04-23T08:35:11Z</time>
      </trkpt>
      <trkpt lat="43.19259" lon="5.62783">
        <ele>23.21</ele>
        <time>2019-04-23T08:35:12Z</time>
      </trkpt>
      <trkpt lat="43.19257" lon="5.62784">
        <ele>23.21</ele>
        <time>2019-04-23T08:35:14Z</time>
      </trkpt>
      <trkpt lat="43.19255" lon="5.62784">
        <ele>23.21</ele>
        <time>2019-04-23T08:35:15Z</time>
      </trkpt>
      <trkpt lat="43.19243" lon="5.62783">
        <ele>22.25</ele>
        <time>2019-04-23T08:35:28Z</time>
      </trkpt>
      <trkpt lat="43.19234" lon="5.62782">
        <ele>22.25</ele>
        <time>2019-04-23T08:35:38Z</time>
      </trkpt>
      <trkpt lat="43.19215" lon="5.62787">
        <ele>21.29</ele>
        <time>2019-04-23T08:35:48Z</time>
      </trkpt>
      <trkpt lat="43.19199" lon="5.62787">
        <ele>20.81</ele>
        <time>2019-04-23T08:36:02Z</time>
      </trkpt>
      <trkpt lat="43.19186" lon="5.62785">
        <ele>21.29</ele>
        <time>2019-04-23T08:36:14Z</time>
      </trkpt>
      <trkpt lat="43.19183" lon="5.62784">
        <ele>21.29</ele>
        <time>2019-04-23T08:36:17Z</time>
      </trkpt>
      <trkpt lat="43.19182" lon="5.62784">
        <ele>21.77</ele>
        <time>2019-04-23T08:36:18Z</time>
      </trkpt>
      <trkpt lat="43.19181" lon="5.62784">
        <ele>21.29</ele>
        <time>2019-04-23T08:36:19Z</time>
      </trkpt>
      <trkpt lat="43.19166" lon="5.62779">
        <ele>20.81</ele>
        <time>2019-04-23T08:36:31Z</time>
      </trkpt>
      <trkpt lat="43.1915" lon="5.62776">
        <ele>20.32</ele>
        <time>2019-04-23T08:36:42Z</time>
      </trkpt>
      <trkpt lat="43.19146" lon="5.62777">
        <ele>19.84</ele>
        <time>2019-04-23T08:36:46Z</time>
      </trkpt>
      <trkpt lat="43.19129" lon="5.62781">
        <ele>19.36</ele>
        <time>2019-04-23T08:36:59Z</time>
      </trkpt>
      <trkpt lat="43.19128" lon="5.62782">
        <ele>19.36</ele>
        <time>2019-04-23T08:37:01Z</time>
      </trkpt>
      <trkpt lat="43.19126" lon="5.62782">
        <ele>19.36</ele>
        <time>2019-04-23T08:37:03Z</time>
      </trkpt>
      <trkpt lat="43.19124" lon="5.62783">
        <ele>19.36</ele>
        <time>2019-04-23T08:37:04Z</time>
      </trkpt>
      <trkpt lat="43.1911" lon="5.62796">
        <ele>18.88</ele>
        <time>2019-04-23T08:37:17Z</time>
      </trkpt>
      <trkpt lat="43.19096" lon="5.62806">
        <ele>18.88</ele>
        <time>2019-04-23T08:37:30Z</time>
      </trkpt>
      <trkpt lat="43.19083" lon="5.62813">
        <ele>17.92</ele>
        <time>2019-04-23T08:37:40Z</time>
      </trkpt>
      <trkpt lat="43.19081" lon="5.62815">
        <ele>17.44</ele>
        <time>2019-04-23T08:37:42Z</time>
      </trkpt>
      <trkpt lat="43.19079" lon="5.62816">
        <ele>16.96</ele>
        <time>2019-04-23T08:37:43Z</time>
      </trkpt>
      <trkpt lat="43.19064" lon="5.62822">
        <ele>16.48</ele>
        <time>2019-04-23T08:37:57Z</time>
      </trkpt>
      <trkpt lat="43.19049" lon="5.62827">
        <ele>16.48</ele>
        <time>2019-04-23T08:38:09Z</time>
      </trkpt>
      <trkpt lat="43.19041" lon="5.62834">
        <ele>16.48</ele>
        <time>2019-04-23T08:38:16Z</time>
      </trkpt>
      <trkpt lat="43.1904" lon="5.62835">
        <ele>16</ele>
        <time>2019-04-23T08:38:17Z</time>
      </trkpt>
      <trkpt lat="43.19039" lon="5.62836">
        <ele>16.48</ele>
        <time>2019-04-23T08:38:18Z</time>
      </trkpt>
      <trkpt lat="43.19038" lon="5.62837">
        <ele>16.48</ele>
        <time>2019-04-23T08:38:19Z</time>
      </trkpt>
      <trkpt lat="43.19037" lon="5.62837">
        <ele>16</ele>
        <time>2019-04-23T08:38:20Z</time>
      </trkpt>
      <trkpt lat="43.19035" lon="5.62838">
        <ele>16</ele>
        <time>2019-04-23T08:38:21Z</time>
      </trkpt>
      <trkpt lat="43.19034" lon="5.62839">
        <ele>16.48</ele>
        <time>2019-04-23T08:38:22Z</time>
      </trkpt>
      <trkpt lat="43.19033" lon="5.62839">
        <ele>16</ele>
        <time>2019-04-23T08:38:23Z</time>
      </trkpt>
      <trkpt lat="43.19032" lon="5.6284">
        <ele>16</ele>
        <time>2019-04-23T08:38:24Z</time>
      </trkpt>
      <trkpt lat="43.19012" lon="5.62852">
        <ele>16.48</ele>
        <time>2019-04-23T08:38:42Z</time>
      </trkpt>
      <trkpt lat="43.18996" lon="5.62866">
        <ele>16</ele>
        <time>2019-04-23T08:38:57Z</time>
      </trkpt>
      <trkpt lat="43.1899" lon="5.6287">
        <ele>15.52</ele>
        <time>2019-04-23T08:39:04Z</time>
      </trkpt>
      <trkpt lat="43.1899" lon="5.62873">
        <ele>15.04</ele>
        <time>2019-04-23T08:39:05Z</time>
      </trkpt>
      <trkpt lat="43.18988" lon="5.62875">
        <ele>15.04</ele>
        <time>2019-04-23T08:39:06Z</time>
      </trkpt>
      <trkpt lat="43.18975" lon="5.62892">
        <ele>15.04</ele>
        <time>2019-04-23T08:39:20Z</time>
      </trkpt>
      <trkpt lat="43.18972" lon="5.62895">
        <ele>14.56</ele>
        <time>2019-04-23T08:39:23Z</time>
      </trkpt>
      <trkpt lat="43.18971" lon="5.62897">
        <ele>15.04</ele>
        <time>2019-04-23T08:39:24Z</time>
      </trkpt>
      <trkpt lat="43.1897" lon="5.62899">
        <ele>15.04</ele>
        <time>2019-04-23T08:39:25Z</time>
      </trkpt>
      <trkpt lat="43.18966" lon="5.62905">
        <ele>15.52</ele>
        <time>2019-04-23T08:39:36Z</time>
      </trkpt>
      <trkpt lat="43.18967" lon="5.62902">
        <ele>15.04</ele>
        <time>2019-04-23T08:39:39Z</time>
      </trkpt>
      <trkpt lat="43.18968" lon="5.629">
        <ele>15.04</ele>
        <time>2019-04-23T08:39:40Z</time>
      </trkpt>
      <trkpt lat="43.18968" lon="5.62898">
        <ele>15.04</ele>
        <time>2019-04-23T08:39:41Z</time>
      </trkpt>
      <trkpt lat="43.18965" lon="5.62892">
        <ele>14.56</ele>
        <time>2019-04-23T08:39:45Z</time>
      </trkpt>
      <trkpt lat="43.18951" lon="5.62886">
        <ele>15.04</ele>
        <time>2019-04-23T08:39:58Z</time>
      </trkpt>
      <trkpt lat="43.18937" lon="5.62886">
        <ele>15.04</ele>
        <time>2019-04-23T08:40:06Z</time>
      </trkpt>
      <trkpt lat="43.18933" lon="5.62888">
        <ele>14.56</ele>
        <time>2019-04-23T08:40:10Z</time>
      </trkpt>
      <trkpt lat="43.18925" lon="5.62889">
        <ele>14.56</ele>
        <time>2019-04-23T08:40:18Z</time>
      </trkpt>
      <trkpt lat="43.18916" lon="5.62908">
        <ele>14.08</ele>
        <time>2019-04-23T08:40:31Z</time>
      </trkpt>
      <trkpt lat="43.18916" lon="5.62911">
        <ele>14.08</ele>
        <time>2019-04-23T08:40:33Z</time>
      </trkpt>
      <trkpt lat="43.18917" lon="5.62913">
        <ele>13.6</ele>
        <time>2019-04-23T08:40:34Z</time>
      </trkpt>
      <trkpt lat="43.18917" lon="5.62915">
        <ele>13.6</ele>
        <time>2019-04-23T08:40:35Z</time>
      </trkpt>
      <trkpt lat="43.18917" lon="5.62917">
        <ele>13.6</ele>
        <time>2019-04-23T08:40:36Z</time>
      </trkpt>
      <trkpt lat="43.18917" lon="5.62919">
        <ele>14.56</ele>
        <time>2019-04-23T08:40:37Z</time>
      </trkpt>
      <trkpt lat="43.18915" lon="5.62934">
        <ele>13.6</ele>
        <time>2019-04-23T08:40:47Z</time>
      </trkpt>
      <trkpt lat="43.18916" lon="5.62938">
        <ele>13.12</ele>
        <time>2019-04-23T08:40:51Z</time>
      </trkpt>
      <trkpt lat="43.18916" lon="5.62941">
        <ele>13.12</ele>
        <time>2019-04-23T08:40:54Z</time>
      </trkpt>
      <trkpt lat="43.18916" lon="5.62943">
        <ele>14.08</ele>
        <time>2019-04-23T08:40:55Z</time>
      </trkpt>
      <trkpt lat="43.18916" lon="5.62944">
        <ele>12.63</ele>
        <time>2019-04-23T08:40:56Z</time>
      </trkpt>
      <trkpt lat="43.18916" lon="5.62946">
        <ele>14.08</ele>
        <time>2019-04-23T08:40:57Z</time>
      </trkpt>
      <trkpt lat="43.18915" lon="5.62948">
        <ele>13.6</ele>
        <time>2019-04-23T08:41:00Z</time>
      </trkpt>
      <trkpt lat="43.18915" lon="5.6295">
        <ele>13.6</ele>
        <time>2019-04-23T08:41:01Z</time>
      </trkpt>
      <trkpt lat="43.18914" lon="5.62957">
        <ele>13.6</ele>
        <time>2019-04-23T08:41:11Z</time>
      </trkpt>
      <trkpt lat="43.18911" lon="5.62962">
        <ele>13.12</ele>
        <time>2019-04-23T08:41:19Z</time>
      </trkpt>
      <trkpt lat="43.18911" lon="5.62963">
        <ele>13.12</ele>
        <time>2019-04-23T08:41:20Z</time>
      </trkpt>
      <trkpt lat="43.18911" lon="5.62964">
        <ele>13.6</ele>
        <time>2019-04-23T08:41:21Z</time>
      </trkpt>
      <trkpt lat="43.18906" lon="5.6298">
        <ele>13.12</ele>
        <time>2019-04-23T08:41:32Z</time>
      </trkpt>
      <trkpt lat="43.18898" lon="5.62998">
        <ele>12.15</ele>
        <time>2019-04-23T08:41:47Z</time>
      </trkpt>
      <trkpt lat="43.18892" lon="5.63012">
        <ele>12.15</ele>
        <time>2019-04-23T08:41:58Z</time>
      </trkpt>
      <trkpt lat="43.18885" lon="5.63025">
        <ele>11.19</ele>
        <time>2019-04-23T08:42:09Z</time>
      </trkpt>
      <trkpt lat="43.18878" lon="5.63042">
        <ele>11.67</ele>
        <time>2019-04-23T08:42:21Z</time>
      </trkpt>
      <trkpt lat="43.18871" lon="5.63061">
        <ele>10.71</ele>
        <time>2019-04-23T08:42:34Z</time>
      </trkpt>
      <trkpt lat="43.18867" lon="5.63081">
        <ele>10.71</ele>
        <time>2019-04-23T08:42:48Z</time>
      </trkpt>
      <trkpt lat="43.18864" lon="5.63091">
        <ele>10.71</ele>
        <time>2019-04-23T08:42:55Z</time>
      </trkpt>
      <trkpt lat="43.18864" lon="5.63093">
        <ele>10.71</ele>
        <time>2019-04-23T08:42:56Z</time>
      </trkpt>
      <trkpt lat="43.18864" lon="5.63095">
        <ele>10.23</ele>
        <time>2019-04-23T08:42:57Z</time>
      </trkpt>
      <trkpt lat="43.18864" lon="5.63097">
        <ele>10.23</ele>
        <time>2019-04-23T08:42:58Z</time>
      </trkpt>
      <trkpt lat="43.18864" lon="5.63102">
        <ele>10.23</ele>
        <time>2019-04-23T08:43:01Z</time>
      </trkpt>
      <trkpt lat="43.18863" lon="5.63106">
        <ele>10.23</ele>
        <time>2019-04-23T08:43:04Z</time>
      </trkpt>
      <trkpt lat="43.18863" lon="5.63108">
        <ele>10.23</ele>
        <time>2019-04-23T08:43:05Z</time>
      </trkpt>
      <trkpt lat="43.18863" lon="5.6311">
        <ele>10.71</ele>
        <time>2019-04-23T08:43:06Z</time>
      </trkpt>
      <trkpt lat="43.18863" lon="5.63111">
        <ele>10.23</ele>
        <time>2019-04-23T08:43:07Z</time>
      </trkpt>
      <trkpt lat="43.18863" lon="5.63113">
        <ele>10.71</ele>
        <time>2019-04-23T08:43:08Z</time>
      </trkpt>
      <trkpt lat="43.18862" lon="5.63115">
        <ele>10.71</ele>
        <time>2019-04-23T08:43:09Z</time>
      </trkpt>
      <trkpt lat="43.18862" lon="5.63118">
        <ele>10.71</ele>
        <time>2019-04-23T08:43:11Z</time>
      </trkpt>
      <trkpt lat="43.18858" lon="5.63143">
        <ele>10.71</ele>
        <time>2019-04-23T08:43:29Z</time>
      </trkpt>
      <trkpt lat="43.18855" lon="5.63152">
        <ele>11.19</ele>
        <time>2019-04-23T08:43:36Z</time>
      </trkpt>
      <trkpt lat="43.18855" lon="5.63154">
        <ele>11.19</ele>
        <time>2019-04-23T08:43:37Z</time>
      </trkpt>
      <trkpt lat="43.18852" lon="5.63162">
        <ele>11.67</ele>
        <time>2019-04-23T08:43:43Z</time>
      </trkpt>
      <trkpt lat="43.18852" lon="5.63165">
        <ele>11.67</ele>
        <time>2019-04-23T08:43:44Z</time>
      </trkpt>
      <trkpt lat="43.18851" lon="5.63167">
        <ele>11.67</ele>
        <time>2019-04-23T08:43:45Z</time>
      </trkpt>
      <trkpt lat="43.1885" lon="5.63169">
        <ele>11.67</ele>
        <time>2019-04-23T08:43:46Z</time>
      </trkpt>
      <trkpt lat="43.18845" lon="5.6319">
        <ele>11.67</ele>
        <time>2019-04-23T08:43:59Z</time>
      </trkpt>
      <trkpt lat="43.18839" lon="5.63204">
        <ele>12.15</ele>
        <time>2019-04-23T08:44:10Z</time>
      </trkpt>
      <trkpt lat="43.18835" lon="5.63221">
        <ele>12.63</ele>
        <time>2019-04-23T08:44:22Z</time>
      </trkpt>
      <trkpt lat="43.18833" lon="5.63235">
        <ele>13.6</ele>
        <time>2019-04-23T08:44:29Z</time>
      </trkpt>
      <trkpt lat="43.18834" lon="5.63241">
        <ele>13.12</ele>
        <time>2019-04-23T08:44:35Z</time>
      </trkpt>
      <trkpt lat="43.18833" lon="5.63243">
        <ele>13.12</ele>
        <time>2019-04-23T08:44:36Z</time>
      </trkpt>
      <trkpt lat="43.18834" lon="5.63245">
        <ele>12.63</ele>
        <time>2019-04-23T08:44:37Z</time>
      </trkpt>
      <trkpt lat="43.18834" lon="5.63248">
        <ele>13.12</ele>
        <time>2019-04-23T08:44:38Z</time>
      </trkpt>
      <trkpt lat="43.18835" lon="5.63251">
        <ele>12.63</ele>
        <time>2019-04-23T08:44:39Z</time>
      </trkpt>
      <trkpt lat="43.18837" lon="5.63266">
        <ele>13.12</ele>
        <time>2019-04-23T08:44:49Z</time>
      </trkpt>
      <trkpt lat="43.18841" lon="5.63286">
        <ele>13.12</ele>
        <time>2019-04-23T08:45:01Z</time>
      </trkpt>
      <trkpt lat="43.18843" lon="5.63302">
        <ele>13.12</ele>
        <time>2019-04-23T08:45:12Z</time>
      </trkpt>
      <trkpt lat="43.18851" lon="5.63322">
        <ele>12.15</ele>
        <time>2019-04-23T08:45:25Z</time>
      </trkpt>
      <trkpt lat="43.18854" lon="5.63328">
        <ele>12.15</ele>
        <time>2019-04-23T08:45:31Z</time>
      </trkpt>
      <trkpt lat="43.18854" lon="5.63329">
        <ele>12.15</ele>
        <time>2019-04-23T08:45:32Z</time>
      </trkpt>
      <trkpt lat="43.18862" lon="5.63346">
        <ele>11.19</ele>
        <time>2019-04-23T08:45:45Z</time>
      </trkpt>
      <trkpt lat="43.18869" lon="5.63362">
        <ele>11.67</ele>
        <time>2019-04-23T08:45:58Z</time>
      </trkpt>
      <trkpt lat="43.18879" lon="5.63383">
        <ele>11.19</ele>
        <time>2019-04-23T08:46:14Z</time>
      </trkpt>
      <trkpt lat="43.1889" lon="5.634">
        <ele>12.15</ele>
        <time>2019-04-23T08:46:28Z</time>
      </trkpt>
      <trkpt lat="43.18891" lon="5.63402">
        <ele>12.15</ele>
        <time>2019-04-23T08:46:29Z</time>
      </trkpt>
      <trkpt lat="43.18891" lon="5.63403">
        <ele>11.67</ele>
        <time>2019-04-23T08:46:30Z</time>
      </trkpt>
      <trkpt lat="43.18902" lon="5.6342">
        <ele>11.67</ele>
        <time>2019-04-23T08:46:44Z</time>
      </trkpt>
      <trkpt lat="43.18911" lon="5.63439">
        <ele>11.67</ele>
        <time>2019-04-23T08:46:58Z</time>
      </trkpt>
      <trkpt lat="43.18912" lon="5.63447">
        <ele>12.15</ele>
        <time>2019-04-23T08:47:02Z</time>
      </trkpt>
      <trkpt lat="43.18911" lon="5.63453">
        <ele>12.15</ele>
        <time>2019-04-23T08:47:06Z</time>
      </trkpt>
      <trkpt lat="43.18897" lon="5.63458">
        <ele>11.19</ele>
        <time>2019-04-23T08:47:18Z</time>
      </trkpt>
      <trkpt lat="43.18885" lon="5.63464">
        <ele>9.75</ele>
        <time>2019-04-23T08:47:31Z</time>
      </trkpt>
      <trkpt lat="43.18886" lon="5.63465">
        <ele>9.27</ele>
        <time>2019-04-23T08:47:45Z</time>
      </trkpt>
      <trkpt lat="43.18886" lon="5.63465">
        <ele>8.79</ele>
        <time>2019-04-23T08:47:58Z</time>
      </trkpt>
      <trkpt lat="43.18886" lon="5.63463">
        <ele>9.75</ele>
        <time>2019-04-23T08:48:14Z</time>
      </trkpt>
      <trkpt lat="43.18886" lon="5.63464">
        <ele>8.79</ele>
        <time>2019-04-23T08:48:28Z</time>
      </trkpt>
      <trkpt lat="43.18886" lon="5.63464">
        <ele>8.31</ele>
        <time>2019-04-23T08:48:29Z</time>
      </trkpt>
      <trkpt lat="43.18881" lon="5.6346">
        <ele>6.87</ele>
        <time>2019-04-23T08:48:41Z</time>
      </trkpt>
      <trkpt lat="43.18882" lon="5.6346">
        <ele>6.87</ele>
        <time>2019-04-23T08:48:45Z</time>
      </trkpt>
      <trkpt lat="43.18886" lon="5.63465">
        <ele>9.27</ele>
        <time>2019-04-23T08:48:52Z</time>
      </trkpt>
      <trkpt lat="43.18886" lon="5.63462">
        <ele>8.79</ele>
        <time>2019-04-23T08:49:06Z</time>
      </trkpt>
      <trkpt lat="43.18884" lon="5.63461">
        <ele>6.87</ele>
        <time>2019-04-23T08:49:21Z</time>
      </trkpt>
      <trkpt lat="43.18881" lon="5.63462">
        <ele>7.35</ele>
        <time>2019-04-23T08:49:36Z</time>
      </trkpt>
      <trkpt lat="43.18888" lon="5.6346">
        <ele>7.35</ele>
        <time>2019-04-23T08:49:58Z</time>
      </trkpt>
      <trkpt lat="43.18886" lon="5.63462">
        <ele>7.35</ele>
        <time>2019-04-23T08:50:04Z</time>
      </trkpt>
      <trkpt lat="43.18888" lon="5.63463">
        <ele>8.31</ele>
        <time>2019-04-23T08:50:14Z</time>
      </trkpt>
      <trkpt lat="43.18888" lon="5.63465">
        <ele>8.31</ele>
        <time>2019-04-23T08:50:40Z</time>
      </trkpt>
      <trkpt lat="43.18888" lon="5.63466">
        <ele>8.31</ele>
        <time>2019-04-23T08:51:10Z</time>
      </trkpt>
      <trkpt lat="43.18886" lon="5.63464">
        <ele>8.31</ele>
        <time>2019-04-23T08:51:41Z</time>
      </trkpt>
      <trkpt lat="43.18887" lon="5.63464">
        <ele>8.31</ele>
        <time>2019-04-23T08:52:12Z</time>
      </trkpt>
      <trkpt lat="43.18886" lon="5.63463">
        <ele>7.83</ele>
        <time>2019-04-23T08:52:44Z</time>
      </trkpt>
      <trkpt lat="43.18888" lon="5.63466">
        <ele>9.27</ele>
        <time>2019-04-23T08:53:07Z</time>
      </trkpt>
      <trkpt lat="43.18887" lon="5.63465">
        <ele>9.27</ele>
        <time>2019-04-23T08:53:21Z</time>
      </trkpt>
      <trkpt lat="43.18888" lon="5.63463">
        <ele>9.27</ele>
        <time>2019-04-23T08:53:30Z</time>
      </trkpt>
      <trkpt lat="43.18887" lon="5.63464">
        <ele>9.75</ele>
        <time>2019-04-23T08:53:43Z</time>
      </trkpt>
      <trkpt lat="43.18886" lon="5.63464">
        <ele>9.75</ele>
        <time>2019-04-23T08:54:00Z</time>
      </trkpt>
      <trkpt lat="43.18886" lon="5.63465">
        <ele>9.27</ele>
        <time>2019-04-23T08:54:14Z</time>
      </trkpt>
      <trkpt lat="43.18886" lon="5.63466">
        <ele>9.75</ele>
        <time>2019-04-23T08:54:29Z</time>
      </trkpt>
      <trkpt lat="43.1889" lon="5.63463">
        <ele>10.71</ele>
        <time>2019-04-23T08:54:41Z</time>
      </trkpt>
      <trkpt lat="43.18889" lon="5.63463">
        <ele>9.75</ele>
        <time>2019-04-23T08:54:51Z</time>
      </trkpt>
      <trkpt lat="43.1889" lon="5.63463">
        <ele>9.27</ele>
        <time>2019-04-23T08:55:03Z</time>
      </trkpt>
      <trkpt lat="43.18891" lon="5.63461">
        <ele>9.75</ele>
        <time>2019-04-23T08:55:16Z</time>
      </trkpt>
      <trkpt lat="43.18891" lon="5.63464">
        <ele>9.75</ele>
        <time>2019-04-23T08:55:28Z</time>
      </trkpt>
      <trkpt lat="43.18894" lon="5.63462">
        <ele>9.75</ele>
        <time>2019-04-23T08:55:47Z</time>
      </trkpt>
      <trkpt lat="43.18897" lon="5.6346">
        <ele>10.23</ele>
        <time>2019-04-23T08:55:50Z</time>
      </trkpt>
      <trkpt lat="43.18905" lon="5.63461">
        <ele>10.71</ele>
        <time>2019-04-23T08:56:02Z</time>
      </trkpt>
      <trkpt lat="43.18917" lon="5.63457">
        <ele>11.67</ele>
        <time>2019-04-23T08:56:14Z</time>
      </trkpt>
      <trkpt lat="43.18922" lon="5.63463">
        <ele>12.63</ele>
        <time>2019-04-23T08:56:27Z</time>
      </trkpt>
      <trkpt lat="43.18922" lon="5.63464">
        <ele>13.12</ele>
        <time>2019-04-23T08:56:28Z</time>
      </trkpt>
      <trkpt lat="43.18923" lon="5.63466">
        <ele>12.63</ele>
        <time>2019-04-23T08:56:29Z</time>
      </trkpt>
      <trkpt lat="43.18934" lon="5.63485">
        <ele>13.12</ele>
        <time>2019-04-23T08:56:43Z</time>
      </trkpt>
      <trkpt lat="43.18941" lon="5.63498">
        <ele>13.12</ele>
        <time>2019-04-23T08:56:56Z</time>
      </trkpt>
      <trkpt lat="43.18946" lon="5.63512">
        <ele>12.63</ele>
        <time>2019-04-23T08:57:10Z</time>
      </trkpt>
      <trkpt lat="43.18951" lon="5.63525">
        <ele>12.15</ele>
        <time>2019-04-23T08:57:23Z</time>
      </trkpt>
      <trkpt lat="43.18958" lon="5.63539">
        <ele>13.6</ele>
        <time>2019-04-23T08:57:36Z</time>
      </trkpt>
      <trkpt lat="43.18964" lon="5.63553">
        <ele>13.6</ele>
        <time>2019-04-23T08:57:49Z</time>
      </trkpt>
      <trkpt lat="43.18967" lon="5.63563">
        <ele>13.6</ele>
        <time>2019-04-23T08:57:57Z</time>
      </trkpt>
      <trkpt lat="43.18967" lon="5.63565">
        <ele>13.12</ele>
        <time>2019-04-23T08:57:58Z</time>
      </trkpt>
      <trkpt lat="43.18972" lon="5.63577">
        <ele>13.12</ele>
        <time>2019-04-23T08:58:09Z</time>
      </trkpt>
      <trkpt lat="43.18982" lon="5.63594">
        <ele>13.6</ele>
        <time>2019-04-23T08:58:23Z</time>
      </trkpt>
      <trkpt lat="43.18991" lon="5.6362">
        <ele>14.08</ele>
        <time>2019-04-23T08:58:41Z</time>
      </trkpt>
      <trkpt lat="43.18995" lon="5.63638">
        <ele>13.12</ele>
        <time>2019-04-23T08:58:53Z</time>
      </trkpt>
      <trkpt lat="43.19005" lon="5.63659">
        <ele>14.08</ele>
        <time>2019-04-23T08:59:09Z</time>
      </trkpt>
      <trkpt lat="43.19012" lon="5.63684">
        <ele>14.08</ele>
        <time>2019-04-23T08:59:25Z</time>
      </trkpt>
      <trkpt lat="43.1902" lon="5.63706">
        <ele>14.08</ele>
        <time>2019-04-23T08:59:41Z</time>
      </trkpt>
      <trkpt lat="43.1903" lon="5.63735">
        <ele>15.04</ele>
        <time>2019-04-23T09:00:00Z</time>
      </trkpt>
      <trkpt lat="43.19036" lon="5.63753">
        <ele>14.08</ele>
        <time>2019-04-23T09:00:13Z</time>
      </trkpt>
      <trkpt lat="43.19037" lon="5.63758">
        <ele>13.6</ele>
        <time>2019-04-23T09:00:17Z</time>
      </trkpt>
      <trkpt lat="43.19039" lon="5.63766">
        <ele>14.56</ele>
        <time>2019-04-23T09:00:23Z</time>
      </trkpt>
      <trkpt lat="43.1904" lon="5.63768">
        <ele>15.04</ele>
        <time>2019-04-23T09:00:24Z</time>
      </trkpt>
      <trkpt lat="43.19041" lon="5.63769">
        <ele>14.56</ele>
        <time>2019-04-23T09:00:25Z</time>
      </trkpt>
      <trkpt lat="43.19041" lon="5.63771">
        <ele>14.56</ele>
        <time>2019-04-23T09:00:26Z</time>
      </trkpt>
      <trkpt lat="43.19042" lon="5.63773">
        <ele>15.04</ele>
        <time>2019-04-23T09:00:27Z</time>
      </trkpt>
      <trkpt lat="43.19042" lon="5.63775">
        <ele>15.04</ele>
        <time>2019-04-23T09:00:28Z</time>
      </trkpt>
      <trkpt lat="43.19045" lon="5.63791">
        <ele>15.04</ele>
        <time>2019-04-23T09:00:41Z</time>
      </trkpt>
      <trkpt lat="43.19047" lon="5.63796">
        <ele>15.04</ele>
        <time>2019-04-23T09:00:45Z</time>
      </trkpt>
      <trkpt lat="43.19047" lon="5.63797">
        <ele>15.52</ele>
        <time>2019-04-23T09:00:46Z</time>
      </trkpt>
      <trkpt lat="43.19047" lon="5.63818">
        <ele>15.04</ele>
        <time>2019-04-23T09:01:00Z</time>
      </trkpt>
      <trkpt lat="43.19037" lon="5.63824">
        <ele>14.08</ele>
        <time>2019-04-23T09:01:13Z</time>
      </trkpt>
      <trkpt lat="43.1903" lon="5.63825">
        <ele>12.63</ele>
        <time>2019-04-23T09:01:18Z</time>
      </trkpt>
      <trkpt lat="43.19024" lon="5.63827">
        <ele>12.15</ele>
        <time>2019-04-23T09:01:25Z</time>
      </trkpt>
      <trkpt lat="43.19023" lon="5.63827">
        <ele>12.15</ele>
        <time>2019-04-23T09:01:26Z</time>
      </trkpt>
      <trkpt lat="43.19021" lon="5.63827">
        <ele>12.15</ele>
        <time>2019-04-23T09:01:27Z</time>
      </trkpt>
      <trkpt lat="43.1902" lon="5.63827">
        <ele>11.67</ele>
        <time>2019-04-23T09:01:28Z</time>
      </trkpt>
      <trkpt lat="43.19019" lon="5.63827">
        <ele>11.67</ele>
        <time>2019-04-23T09:01:29Z</time>
      </trkpt>
      <trkpt lat="43.19017" lon="5.63828">
        <ele>11.67</ele>
        <time>2019-04-23T09:01:30Z</time>
      </trkpt>
      <trkpt lat="43.19001" lon="5.63831">
        <ele>13.12</ele>
        <time>2019-04-23T09:01:45Z</time>
      </trkpt>
      <trkpt lat="43.1898" lon="5.63834">
        <ele>13.6</ele>
        <time>2019-04-23T09:02:02Z</time>
      </trkpt>
      <trkpt lat="43.18962" lon="5.63837">
        <ele>11.67</ele>
        <time>2019-04-23T09:02:16Z</time>
      </trkpt>
      <trkpt lat="43.18941" lon="5.63842">
        <ele>10.71</ele>
        <time>2019-04-23T09:02:34Z</time>
      </trkpt>
      <trkpt lat="43.18934" lon="5.63844">
        <ele>9.27</ele>
        <time>2019-04-23T09:02:53Z</time>
      </trkpt>
      <trkpt lat="43.18935" lon="5.63844">
        <ele>8.31</ele>
        <time>2019-04-23T09:03:10Z</time>
      </trkpt>
      <trkpt lat="43.18938" lon="5.63846">
        <ele>9.75</ele>
        <time>2019-04-23T09:03:20Z</time>
      </trkpt>
      <trkpt lat="43.18944" lon="5.63842">
        <ele>11.67</ele>
        <time>2019-04-23T09:03:36Z</time>
      </trkpt>
      <trkpt lat="43.18948" lon="5.63843">
        <ele>11.19</ele>
        <time>2019-04-23T09:04:02Z</time>
      </trkpt>
      <trkpt lat="43.18956" lon="5.6384">
        <ele>11.67</ele>
        <time>2019-04-23T09:04:10Z</time>
      </trkpt>
      <trkpt lat="43.18972" lon="5.63834">
        <ele>13.12</ele>
        <time>2019-04-23T09:04:29Z</time>
      </trkpt>
      <trkpt lat="43.18984" lon="5.63833">
        <ele>13.12</ele>
        <time>2019-04-23T09:04:41Z</time>
      </trkpt>
      <trkpt lat="43.18997" lon="5.63831">
        <ele>12.63</ele>
        <time>2019-04-23T09:04:54Z</time>
      </trkpt>
      <trkpt lat="43.19004" lon="5.6383">
        <ele>12.63</ele>
        <time>2019-04-23T09:05:06Z</time>
      </trkpt>
      <trkpt lat="43.19005" lon="5.6383">
        <ele>12.63</ele>
        <time>2019-04-23T09:05:07Z</time>
      </trkpt>
      <trkpt lat="43.19007" lon="5.6383">
        <ele>12.15</ele>
        <time>2019-04-23T09:05:08Z</time>
      </trkpt>
      <trkpt lat="43.19016" lon="5.63829">
        <ele>12.15</ele>
        <time>2019-04-23T09:05:16Z</time>
      </trkpt>
      <trkpt lat="43.19017" lon="5.63829">
        <ele>11.67</ele>
        <time>2019-04-23T09:05:17Z</time>
      </trkpt>
      <trkpt lat="43.19021" lon="5.63828">
        <ele>12.15</ele>
        <time>2019-04-23T09:05:23Z</time>
      </trkpt>
      <trkpt lat="43.19022" lon="5.63828">
        <ele>12.15</ele>
        <time>2019-04-23T09:05:24Z</time>
      </trkpt>
      <trkpt lat="43.19025" lon="5.63827">
        <ele>13.12</ele>
        <time>2019-04-23T09:05:28Z</time>
      </trkpt>
      <trkpt lat="43.19027" lon="5.63827">
        <ele>13.6</ele>
        <time>2019-04-23T09:05:29Z</time>
      </trkpt>
      <trkpt lat="43.19029" lon="5.63826">
        <ele>13.12</ele>
        <time>2019-04-23T09:05:30Z</time>
      </trkpt>
      <trkpt lat="43.1903" lon="5.63826">
        <ele>13.12</ele>
        <time>2019-04-23T09:05:31Z</time>
      </trkpt>
      <trkpt lat="43.19039" lon="5.63825">
        <ele>13.6</ele>
        <time>2019-04-23T09:05:41Z</time>
      </trkpt>
      <trkpt lat="43.1904" lon="5.63825">
        <ele>13.6</ele>
        <time>2019-04-23T09:05:42Z</time>
      </trkpt>
      <trkpt lat="43.19043" lon="5.63824">
        <ele>15.04</ele>
        <time>2019-04-23T09:05:47Z</time>
      </trkpt>
      <trkpt lat="43.19052" lon="5.6383">
        <ele>16.48</ele>
        <time>2019-04-23T09:05:56Z</time>
      </trkpt>
      <trkpt lat="43.19053" lon="5.63831">
        <ele>16.48</ele>
        <time>2019-04-23T09:05:57Z</time>
      </trkpt>
      <trkpt lat="43.19054" lon="5.63833">
        <ele>16</ele>
        <time>2019-04-23T09:05:58Z</time>
      </trkpt>
      <trkpt lat="43.19062" lon="5.63857">
        <ele>16</ele>
        <time>2019-04-23T09:06:13Z</time>
      </trkpt>
      <trkpt lat="43.19065" lon="5.63866">
        <ele>16</ele>
        <time>2019-04-23T09:06:20Z</time>
      </trkpt>
      <trkpt lat="43.19063" lon="5.63877">
        <ele>16.96</ele>
        <time>2019-04-23T09:06:29Z</time>
      </trkpt>
      <trkpt lat="43.19063" lon="5.63879">
        <ele>16.96</ele>
        <time>2019-04-23T09:06:30Z</time>
      </trkpt>
      <trkpt lat="43.19063" lon="5.63881">
        <ele>16.96</ele>
        <time>2019-04-23T09:06:31Z</time>
      </trkpt>
      <trkpt lat="43.19064" lon="5.63898">
        <ele>17.44</ele>
        <time>2019-04-23T09:06:44Z</time>
      </trkpt>
      <trkpt lat="43.19063" lon="5.63899">
        <ele>16.96</ele>
        <time>2019-04-23T09:06:56Z</time>
      </trkpt>
      <trkpt lat="43.19065" lon="5.63904">
        <ele>16.48</ele>
        <time>2019-04-23T09:07:06Z</time>
      </trkpt>
      <trkpt lat="43.19065" lon="5.63905">
        <ele>16.48</ele>
        <time>2019-04-23T09:07:07Z</time>
      </trkpt>
      <trkpt lat="43.19064" lon="5.6391">
        <ele>16.96</ele>
        <time>2019-04-23T09:07:11Z</time>
      </trkpt>
      <trkpt lat="43.19063" lon="5.63911">
        <ele>16.48</ele>
        <time>2019-04-23T09:07:12Z</time>
      </trkpt>
      <trkpt lat="43.19063" lon="5.63914">
        <ele>16.48</ele>
        <time>2019-04-23T09:07:16Z</time>
      </trkpt>
      <trkpt lat="43.19063" lon="5.63917">
        <ele>16.96</ele>
        <time>2019-04-23T09:07:17Z</time>
      </trkpt>
      <trkpt lat="43.19064" lon="5.63918">
        <ele>16.96</ele>
        <time>2019-04-23T09:07:18Z</time>
      </trkpt>
      <trkpt lat="43.19064" lon="5.63925">
        <ele>16.96</ele>
        <time>2019-04-23T09:07:23Z</time>
      </trkpt>
      <trkpt lat="43.19064" lon="5.63926">
        <ele>16.48</ele>
        <time>2019-04-23T09:07:24Z</time>
      </trkpt>
      <trkpt lat="43.19066" lon="5.63947">
        <ele>17.44</ele>
        <time>2019-04-23T09:07:37Z</time>
      </trkpt>
      <trkpt lat="43.19066" lon="5.6396">
        <ele>16.96</ele>
        <time>2019-04-23T09:07:46Z</time>
      </trkpt>
      <trkpt lat="43.19069" lon="5.63974">
        <ele>17.44</ele>
        <time>2019-04-23T09:07:55Z</time>
      </trkpt>
      <trkpt lat="43.1907" lon="5.63992">
        <ele>17.92</ele>
        <time>2019-04-23T09:08:07Z</time>
      </trkpt>
      <trkpt lat="43.19068" lon="5.64016">
        <ele>17.44</ele>
        <time>2019-04-23T09:08:22Z</time>
      </trkpt>
      <trkpt lat="43.1907" lon="5.64043">
        <ele>17.92</ele>
        <time>2019-04-23T09:08:38Z</time>
      </trkpt>
      <trkpt lat="43.19071" lon="5.64063">
        <ele>17.44</ele>
        <time>2019-04-23T09:08:51Z</time>
      </trkpt>
      <trkpt lat="43.19069" lon="5.64083">
        <ele>16.48</ele>
        <time>2019-04-23T09:09:05Z</time>
      </trkpt>
      <trkpt lat="43.19069" lon="5.64086">
        <ele>16.48</ele>
        <time>2019-04-23T09:09:07Z</time>
      </trkpt>
      <trkpt lat="43.19066" lon="5.64101">
        <ele>17.44</ele>
        <time>2019-04-23T09:09:17Z</time>
      </trkpt>
      <trkpt lat="43.19061" lon="5.64124">
        <ele>16.96</ele>
        <time>2019-04-23T09:09:34Z</time>
      </trkpt>
      <trkpt lat="43.19059" lon="5.64126">
        <ele>16.48</ele>
        <time>2019-04-23T09:09:37Z</time>
      </trkpt>
      <trkpt lat="43.19058" lon="5.64127">
        <ele>16.48</ele>
        <time>2019-04-23T09:09:38Z</time>
      </trkpt>
      <trkpt lat="43.19057" lon="5.64129">
        <ele>16.48</ele>
        <time>2019-04-23T09:09:50Z</time>
      </trkpt>
      <trkpt lat="43.19059" lon="5.64133">
        <ele>16.96</ele>
        <time>2019-04-23T09:10:11Z</time>
      </trkpt>
      <trkpt lat="43.1906" lon="5.64131">
        <ele>17.92</ele>
        <time>2019-04-23T09:10:27Z</time>
      </trkpt>
      <trkpt lat="43.1906" lon="5.64131">
        <ele>17.44</ele>
        <time>2019-04-23T09:10:46Z</time>
      </trkpt>
      <trkpt lat="43.19061" lon="5.6413">
        <ele>16.48</ele>
        <time>2019-04-23T09:10:59Z</time>
      </trkpt>
      <trkpt lat="43.1906" lon="5.6413">
        <ele>16.96</ele>
        <time>2019-04-23T09:11:13Z</time>
      </trkpt>
      <trkpt lat="43.1906" lon="5.64131">
        <ele>16.48</ele>
        <time>2019-04-23T09:11:28Z</time>
      </trkpt>
      <trkpt lat="43.19062" lon="5.6413">
        <ele>17.44</ele>
        <time>2019-04-23T09:11:42Z</time>
      </trkpt>
      <trkpt lat="43.19064" lon="5.64135">
        <ele>16.96</ele>
        <time>2019-04-23T09:11:59Z</time>
      </trkpt>
      <trkpt lat="43.19065" lon="5.64137">
        <ele>16</ele>
        <time>2019-04-23T09:12:17Z</time>
      </trkpt>
      <trkpt lat="43.19065" lon="5.64139">
        <ele>16.96</ele>
        <time>2019-04-23T09:12:18Z</time>
      </trkpt>
      <trkpt lat="43.19063" lon="5.64141">
        <ele>17.44</ele>
        <time>2019-04-23T09:12:20Z</time>
      </trkpt>
      <trkpt lat="43.19062" lon="5.64143">
        <ele>16.96</ele>
        <time>2019-04-23T09:12:21Z</time>
      </trkpt>
      <trkpt lat="43.19061" lon="5.64144">
        <ele>16.48</ele>
        <time>2019-04-23T09:12:22Z</time>
      </trkpt>
      <trkpt lat="43.19059" lon="5.64149">
        <ele>16.96</ele>
        <time>2019-04-23T09:12:26Z</time>
      </trkpt>
      <trkpt lat="43.19057" lon="5.6415">
        <ele>16.48</ele>
        <time>2019-04-23T09:12:27Z</time>
      </trkpt>
      <trkpt lat="43.19049" lon="5.6417">
        <ele>16.48</ele>
        <time>2019-04-23T09:12:43Z</time>
      </trkpt>
      <trkpt lat="43.19047" lon="5.64174">
        <ele>16.48</ele>
        <time>2019-04-23T09:12:46Z</time>
      </trkpt>
      <trkpt lat="43.19045" lon="5.64178">
        <ele>15.52</ele>
        <time>2019-04-23T09:12:49Z</time>
      </trkpt>
      <trkpt lat="43.19044" lon="5.64181">
        <ele>15.52</ele>
        <time>2019-04-23T09:12:51Z</time>
      </trkpt>
      <trkpt lat="43.19043" lon="5.64182">
        <ele>16.96</ele>
        <time>2019-04-23T09:12:52Z</time>
      </trkpt>
      <trkpt lat="43.19043" lon="5.64183">
        <ele>16.48</ele>
        <time>2019-04-23T09:12:53Z</time>
      </trkpt>
      <trkpt lat="43.19034" lon="5.64207">
        <ele>16</ele>
        <time>2019-04-23T09:13:10Z</time>
      </trkpt>
      <trkpt lat="43.19033" lon="5.64209">
        <ele>16</ele>
        <time>2019-04-23T09:13:12Z</time>
      </trkpt>
      <trkpt lat="43.19033" lon="5.64213">
        <ele>16</ele>
        <time>2019-04-23T09:13:14Z</time>
      </trkpt>
      <trkpt lat="43.19032" lon="5.64214">
        <ele>16</ele>
        <time>2019-04-23T09:13:15Z</time>
      </trkpt>
      <trkpt lat="43.19032" lon="5.64216">
        <ele>15.52</ele>
        <time>2019-04-23T09:13:16Z</time>
      </trkpt>
      <trkpt lat="43.19031" lon="5.64218">
        <ele>14.56</ele>
        <time>2019-04-23T09:13:17Z</time>
      </trkpt>
      <trkpt lat="43.1903" lon="5.64219">
        <ele>16</ele>
        <time>2019-04-23T09:13:18Z</time>
      </trkpt>
      <trkpt lat="43.19029" lon="5.6422">
        <ele>17.44</ele>
        <time>2019-04-23T09:13:19Z</time>
      </trkpt>
      <trkpt lat="43.19021" lon="5.64241">
        <ele>15.52</ele>
        <time>2019-04-23T09:13:35Z</time>
      </trkpt>
      <trkpt lat="43.19011" lon="5.64264">
        <ele>15.52</ele>
        <time>2019-04-23T09:13:53Z</time>
      </trkpt>
      <trkpt lat="43.19" lon="5.64285">
        <ele>15.04</ele>
        <time>2019-04-23T09:14:11Z</time>
      </trkpt>
      <trkpt lat="43.18981" lon="5.64308">
        <ele>14.56</ele>
        <time>2019-04-23T09:14:31Z</time>
      </trkpt>
      <trkpt lat="43.18962" lon="5.64324">
        <ele>14.56</ele>
        <time>2019-04-23T09:14:50Z</time>
      </trkpt>
      <trkpt lat="43.1896" lon="5.64325">
        <ele>14.08</ele>
        <time>2019-04-23T09:14:51Z</time>
      </trkpt>
      <trkpt lat="43.18942" lon="5.64343">
        <ele>14.08</ele>
        <time>2019-04-23T09:15:12Z</time>
      </trkpt>
      <trkpt lat="43.18928" lon="5.6435">
        <ele>12.63</ele>
        <time>2019-04-23T09:15:30Z</time>
      </trkpt>
      <trkpt lat="43.18922" lon="5.64339">
        <ele>12.15</ele>
        <time>2019-04-23T09:15:44Z</time>
      </trkpt>
      <trkpt lat="43.18926" lon="5.64338">
        <ele>12.63</ele>
        <time>2019-04-23T09:16:02Z</time>
      </trkpt>
      <trkpt lat="43.18924" lon="5.64342">
        <ele>13.12</ele>
        <time>2019-04-23T09:16:23Z</time>
      </trkpt>
      <trkpt lat="43.18923" lon="5.64344">
        <ele>12.63</ele>
        <time>2019-04-23T09:16:58Z</time>
      </trkpt>
      <trkpt lat="43.18925" lon="5.64338">
        <ele>12.15</ele>
        <time>2019-04-23T09:17:25Z</time>
      </trkpt>
      <trkpt lat="43.18926" lon="5.64333">
        <ele>12.15</ele>
        <time>2019-04-23T09:17:43Z</time>
      </trkpt>
      <trkpt lat="43.18925" lon="5.64336">
        <ele>12.15</ele>
        <time>2019-04-23T09:18:08Z</time>
      </trkpt>
      <trkpt lat="43.18923" lon="5.64337">
        <ele>11.67</ele>
        <time>2019-04-23T09:18:31Z</time>
      </trkpt>
      <trkpt lat="43.18924" lon="5.64335">
        <ele>11.67</ele>
        <time>2019-04-23T09:18:56Z</time>
      </trkpt>
      <trkpt lat="43.18927" lon="5.64339">
        <ele>10.71</ele>
        <time>2019-04-23T09:19:15Z</time>
      </trkpt>
      <trkpt lat="43.18926" lon="5.64346">
        <ele>11.19</ele>
        <time>2019-04-23T09:19:30Z</time>
      </trkpt>
      <trkpt lat="43.18923" lon="5.64354">
        <ele>11.19</ele>
        <time>2019-04-23T09:19:47Z</time>
      </trkpt>
      <trkpt lat="43.18918" lon="5.64363">
        <ele>11.67</ele>
        <time>2019-04-23T09:20:02Z</time>
      </trkpt>
      <trkpt lat="43.18907" lon="5.64365">
        <ele>11.19</ele>
        <time>2019-04-23T09:20:19Z</time>
      </trkpt>
      <trkpt lat="43.18903" lon="5.64378">
        <ele>10.71</ele>
        <time>2019-04-23T09:20:36Z</time>
      </trkpt>
      <trkpt lat="43.18897" lon="5.64388">
        <ele>10.71</ele>
        <time>2019-04-23T09:20:42Z</time>
      </trkpt>
      <trkpt lat="43.18896" lon="5.64389">
        <ele>10.71</ele>
        <time>2019-04-23T09:20:43Z</time>
      </trkpt>
      <trkpt lat="43.18895" lon="5.64391">
        <ele>11.19</ele>
        <time>2019-04-23T09:20:44Z</time>
      </trkpt>
      <trkpt lat="43.18877" lon="5.64417">
        <ele>10.23</ele>
        <time>2019-04-23T09:21:02Z</time>
      </trkpt>
      <trkpt lat="43.18865" lon="5.64433">
        <ele>10.23</ele>
        <time>2019-04-23T09:21:18Z</time>
      </trkpt>
      <trkpt lat="43.18851" lon="5.64451">
        <ele>10.71</ele>
        <time>2019-04-23T09:21:36Z</time>
      </trkpt>
      <trkpt lat="43.18828" lon="5.64471">
        <ele>10.23</ele>
        <time>2019-04-23T09:21:58Z</time>
      </trkpt>
      <trkpt lat="43.1881" lon="5.64492">
        <ele>10.23</ele>
        <time>2019-04-23T09:22:21Z</time>
      </trkpt>
      <trkpt lat="43.188" lon="5.64505">
        <ele>9.75</ele>
        <time>2019-04-23T09:22:38Z</time>
      </trkpt>
      <trkpt lat="43.18795" lon="5.64512">
        <ele>9.27</ele>
        <time>2019-04-23T09:22:55Z</time>
      </trkpt>
      <trkpt lat="43.18793" lon="5.64516">
        <ele>8.79</ele>
        <time>2019-04-23T09:23:13Z</time>
      </trkpt>
      <trkpt lat="43.18793" lon="5.64531">
        <ele>8.79</ele>
        <time>2019-04-23T09:23:26Z</time>
      </trkpt>
      <trkpt lat="43.18791" lon="5.64556">
        <ele>8.31</ele>
        <time>2019-04-23T09:23:42Z</time>
      </trkpt>
      <trkpt lat="43.18787" lon="5.64577">
        <ele>7.83</ele>
        <time>2019-04-23T09:23:59Z</time>
      </trkpt>
      <trkpt lat="43.18784" lon="5.64602">
        <ele>8.31</ele>
        <time>2019-04-23T09:24:17Z</time>
      </trkpt>
      <trkpt lat="43.18779" lon="5.64598">
        <ele>8.79</ele>
        <time>2019-04-23T09:24:36Z</time>
      </trkpt>
      <trkpt lat="43.1878" lon="5.64615">
        <ele>8.79</ele>
        <time>2019-04-23T09:24:53Z</time>
      </trkpt>
      <trkpt lat="43.18777" lon="5.64642">
        <ele>8.31</ele>
        <time>2019-04-23T09:25:13Z</time>
      </trkpt>
      <trkpt lat="43.18773" lon="5.64663">
        <ele>8.31</ele>
        <time>2019-04-23T09:25:31Z</time>
      </trkpt>
      <trkpt lat="43.18771" lon="5.64664">
        <ele>9.75</ele>
        <time>2019-04-23T09:25:42Z</time>
      </trkpt>
      <trkpt lat="43.1877" lon="5.64665">
        <ele>7.83</ele>
        <time>2019-04-23T09:25:47Z</time>
      </trkpt>
      <trkpt lat="43.1877" lon="5.64666">
        <ele>7.83</ele>
        <time>2019-04-23T09:26:17Z</time>
      </trkpt>
      <trkpt lat="43.18771" lon="5.64665">
        <ele>7.35</ele>
        <time>2019-04-23T09:26:47Z</time>
      </trkpt>
      <trkpt lat="43.18772" lon="5.64665">
        <ele>8.31</ele>
        <time>2019-04-23T09:27:09Z</time>
      </trkpt>
      <trkpt lat="43.18774" lon="5.64676">
        <ele>9.27</ele>
        <time>2019-04-23T09:27:23Z</time>
      </trkpt>
      <trkpt lat="43.1878" lon="5.64692">
        <ele>8.79</ele>
        <time>2019-04-23T09:27:42Z</time>
      </trkpt>
      <trkpt lat="43.18782" lon="5.64695">
        <ele>9.27</ele>
        <time>2019-04-23T09:27:49Z</time>
      </trkpt>
      <trkpt lat="43.18783" lon="5.64698">
        <ele>7.83</ele>
        <time>2019-04-23T09:27:51Z</time>
      </trkpt>
      <trkpt lat="43.18795" lon="5.64714">
        <ele>7.83</ele>
        <time>2019-04-23T09:28:11Z</time>
      </trkpt>
      <trkpt lat="43.1881" lon="5.64727">
        <ele>6.87</ele>
        <time>2019-04-23T09:28:28Z</time>
      </trkpt>
      <trkpt lat="43.18809" lon="5.64738">
        <ele>7.35</ele>
        <time>2019-04-23T09:28:45Z</time>
      </trkpt>
      <trkpt lat="43.18806" lon="5.64747">
        <ele>7.35</ele>
        <time>2019-04-23T09:29:10Z</time>
      </trkpt>
      <trkpt lat="43.18811" lon="5.64738">
        <ele>6.87</ele>
        <time>2019-04-23T09:29:35Z</time>
      </trkpt>
      <trkpt lat="43.18815" lon="5.64728">
        <ele>8.31</ele>
        <time>2019-04-23T09:30:00Z</time>
      </trkpt>
      <trkpt lat="43.18822" lon="5.64735">
        <ele>7.35</ele>
        <time>2019-04-23T09:30:08Z</time>
      </trkpt>
      <trkpt lat="43.18833" lon="5.64762">
        <ele>7.83</ele>
        <time>2019-04-23T09:30:27Z</time>
      </trkpt>
      <trkpt lat="43.18833" lon="5.64787">
        <ele>7.83</ele>
        <time>2019-04-23T09:30:45Z</time>
      </trkpt>
      <trkpt lat="43.18832" lon="5.64784">
        <ele>7.83</ele>
        <time>2019-04-23T09:31:00Z</time>
      </trkpt>
      <trkpt lat="43.18832" lon="5.64787">
        <ele>8.31</ele>
        <time>2019-04-23T09:31:19Z</time>
      </trkpt>
      <trkpt lat="43.18832" lon="5.64785">
        <ele>7.83</ele>
        <time>2019-04-23T09:31:37Z</time>
      </trkpt>
      <trkpt lat="43.18832" lon="5.64785">
        <ele>7.83</ele>
        <time>2019-04-23T09:31:54Z</time>
      </trkpt>
      <trkpt lat="43.18833" lon="5.64784">
        <ele>7.35</ele>
        <time>2019-04-23T09:32:14Z</time>
      </trkpt>
      <trkpt lat="43.18833" lon="5.64786">
        <ele>7.35</ele>
        <time>2019-04-23T09:32:27Z</time>
      </trkpt>
      <trkpt lat="43.18833" lon="5.64784">
        <ele>5.91</ele>
        <time>2019-04-23T09:32:44Z</time>
      </trkpt>
      <trkpt lat="43.18833" lon="5.64782">
        <ele>8.31</ele>
        <time>2019-04-23T09:32:47Z</time>
      </trkpt>
      <trkpt lat="43.18835" lon="5.64784">
        <ele>6.87</ele>
        <time>2019-04-23T09:32:55Z</time>
      </trkpt>
      <trkpt lat="43.18835" lon="5.64784">
        <ele>7.83</ele>
        <time>2019-04-23T09:33:00Z</time>
      </trkpt>
      <trkpt lat="43.18837" lon="5.64803">
        <ele>8.31</ele>
        <time>2019-04-23T09:33:19Z</time>
      </trkpt>
      <trkpt lat="43.18837" lon="5.64808">
        <ele>7.83</ele>
        <time>2019-04-23T09:33:37Z</time>
      </trkpt>
      <trkpt lat="43.1884" lon="5.64825">
        <ele>7.83</ele>
        <time>2019-04-23T09:33:54Z</time>
      </trkpt>
      <trkpt lat="43.18845" lon="5.64847">
        <ele>8.79</ele>
        <time>2019-04-23T09:34:11Z</time>
      </trkpt>
      <trkpt lat="43.18847" lon="5.64868">
        <ele>8.31</ele>
        <time>2019-04-23T09:34:27Z</time>
      </trkpt>
      <trkpt lat="43.1885" lon="5.64893">
        <ele>8.31</ele>
        <time>2019-04-23T09:34:44Z</time>
      </trkpt>
      <trkpt lat="43.18851" lon="5.64915">
        <ele>7.83</ele>
        <time>2019-04-23T09:35:03Z</time>
      </trkpt>
      <trkpt lat="43.18858" lon="5.64942">
        <ele>8.31</ele>
        <time>2019-04-23T09:35:24Z</time>
      </trkpt>
      <trkpt lat="43.18862" lon="5.64972">
        <ele>7.83</ele>
        <time>2019-04-23T09:35:47Z</time>
      </trkpt>
      <trkpt lat="43.18865" lon="5.64994">
        <ele>8.79</ele>
        <time>2019-04-23T09:36:05Z</time>
      </trkpt>
      <trkpt lat="43.18866" lon="5.65013">
        <ele>8.31</ele>
        <time>2019-04-23T09:36:22Z</time>
      </trkpt>
      <trkpt lat="43.18865" lon="5.65018">
        <ele>8.79</ele>
        <time>2019-04-23T09:36:38Z</time>
      </trkpt>
      <trkpt lat="43.18864" lon="5.65018">
        <ele>8.31</ele>
        <time>2019-04-23T09:36:52Z</time>
      </trkpt>
      <trkpt lat="43.18867" lon="5.65025">
        <ele>8.79</ele>
        <time>2019-04-23T09:37:06Z</time>
      </trkpt>
      <trkpt lat="43.18871" lon="5.65046">
        <ele>9.75</ele>
        <time>2019-04-23T09:37:20Z</time>
      </trkpt>
      <trkpt lat="43.18876" lon="5.6507">
        <ele>9.75</ele>
        <time>2019-04-23T09:37:36Z</time>
      </trkpt>
      <trkpt lat="43.18878" lon="5.6509">
        <ele>11.19</ele>
        <time>2019-04-23T09:37:50Z</time>
      </trkpt>
      <trkpt lat="43.18881" lon="5.65113">
        <ele>12.63</ele>
        <time>2019-04-23T09:38:06Z</time>
      </trkpt>
      <trkpt lat="43.18883" lon="5.65123">
        <ele>12.63</ele>
        <time>2019-04-23T09:38:13Z</time>
      </trkpt>
      <trkpt lat="43.18886" lon="5.65146">
        <ele>14.56</ele>
        <time>2019-04-23T09:38:31Z</time>
      </trkpt>
      <trkpt lat="43.18888" lon="5.65167">
        <ele>16</ele>
        <time>2019-04-23T09:38:46Z</time>
      </trkpt>
      <trkpt lat="43.18888" lon="5.65175">
        <ele>16.96</ele>
        <time>2019-04-23T09:38:51Z</time>
      </trkpt>
      <trkpt lat="43.18882" lon="5.65184">
        <ele>16.96</ele>
        <time>2019-04-23T09:39:04Z</time>
      </trkpt>
      <trkpt lat="43.18871" lon="5.65206">
        <ele>17.92</ele>
        <time>2019-04-23T09:39:21Z</time>
      </trkpt>
      <trkpt lat="43.18866" lon="5.65212">
        <ele>17.92</ele>
        <time>2019-04-23T09:39:37Z</time>
      </trkpt>
      <trkpt lat="43.18865" lon="5.65209">
        <ele>17.44</ele>
        <time>2019-04-23T09:40:04Z</time>
      </trkpt>
      <trkpt lat="43.18872" lon="5.65209">
        <ele>18.4</ele>
        <time>2019-04-23T09:40:31Z</time>
      </trkpt>
      <trkpt lat="43.18858" lon="5.65216">
        <ele>18.88</ele>
        <time>2019-04-23T09:40:50Z</time>
      </trkpt>
      <trkpt lat="43.18843" lon="5.65242">
        <ele>19.84</ele>
        <time>2019-04-23T09:41:06Z</time>
      </trkpt>
      <trkpt lat="43.18824" lon="5.65267">
        <ele>21.77</ele>
        <time>2019-04-23T09:41:27Z</time>
      </trkpt>
      <trkpt lat="43.18809" lon="5.6528">
        <ele>22.25</ele>
        <time>2019-04-23T09:41:45Z</time>
      </trkpt>
      <trkpt lat="43.18796" lon="5.65296">
        <ele>23.21</ele>
        <time>2019-04-23T09:42:04Z</time>
      </trkpt>
      <trkpt lat="43.18778" lon="5.65316">
        <ele>25.13</ele>
        <time>2019-04-23T09:42:23Z</time>
      </trkpt>
      <trkpt lat="43.18763" lon="5.6533">
        <ele>25.61</ele>
        <time>2019-04-23T09:42:41Z</time>
      </trkpt>
      <trkpt lat="43.18747" lon="5.65347">
        <ele>26.57</ele>
        <time>2019-04-23T09:42:59Z</time>
      </trkpt>
      <trkpt lat="43.18733" lon="5.6536">
        <ele>27.53</ele>
        <time>2019-04-23T09:43:14Z</time>
      </trkpt>
      <trkpt lat="43.18731" lon="5.6536">
        <ele>28.5</ele>
        <time>2019-04-23T09:43:28Z</time>
      </trkpt>
      <trkpt lat="43.18727" lon="5.65369">
        <ele>28.02</ele>
        <time>2019-04-23T09:43:38Z</time>
      </trkpt>
      <trkpt lat="43.18721" lon="5.6538">
        <ele>27.53</ele>
        <time>2019-04-23T09:43:50Z</time>
      </trkpt>
      <trkpt lat="43.18713" lon="5.65396">
        <ele>28.5</ele>
        <time>2019-04-23T09:44:04Z</time>
      </trkpt>
      <trkpt lat="43.18706" lon="5.65416">
        <ele>28.98</ele>
        <time>2019-04-23T09:44:19Z</time>
      </trkpt>
      <trkpt lat="43.18699" lon="5.65437">
        <ele>28.5</ele>
        <time>2019-04-23T09:44:35Z</time>
      </trkpt>
      <trkpt lat="43.18694" lon="5.65463">
        <ele>28.5</ele>
        <time>2019-04-23T09:44:52Z</time>
      </trkpt>
      <trkpt lat="43.18689" lon="5.65487">
        <ele>28.5</ele>
        <time>2019-04-23T09:45:10Z</time>
      </trkpt>
      <trkpt lat="43.18687" lon="5.65511">
        <ele>28.5</ele>
        <time>2019-04-23T09:45:27Z</time>
      </trkpt>
      <trkpt lat="43.18683" lon="5.65541">
        <ele>28.02</ele>
        <time>2019-04-23T09:45:47Z</time>
      </trkpt>
      <trkpt lat="43.18683" lon="5.6557">
        <ele>28.02</ele>
        <time>2019-04-23T09:46:06Z</time>
      </trkpt>
      <trkpt lat="43.18683" lon="5.65572">
        <ele>28.02</ele>
        <time>2019-04-23T09:46:07Z</time>
      </trkpt>
      <trkpt lat="43.18682" lon="5.65602">
        <ele>27.05</ele>
        <time>2019-04-23T09:46:27Z</time>
      </trkpt>
      <trkpt lat="43.1868" lon="5.65629">
        <ele>27.05</ele>
        <time>2019-04-23T09:46:45Z</time>
      </trkpt>
      <trkpt lat="43.18678" lon="5.6566">
        <ele>27.05</ele>
        <time>2019-04-23T09:47:05Z</time>
      </trkpt>
      <trkpt lat="43.18674" lon="5.6569">
        <ele>26.57</ele>
        <time>2019-04-23T09:47:25Z</time>
      </trkpt>
      <trkpt lat="43.1867" lon="5.65718">
        <ele>26.09</ele>
        <time>2019-04-23T09:47:44Z</time>
      </trkpt>
      <trkpt lat="43.18665" lon="5.65743">
        <ele>26.57</ele>
        <time>2019-04-23T09:48:01Z</time>
      </trkpt>
      <trkpt lat="43.18654" lon="5.65748">
        <ele>26.57</ele>
        <time>2019-04-23T09:48:14Z</time>
      </trkpt>
      <trkpt lat="43.18651" lon="5.65762">
        <ele>27.05</ele>
        <time>2019-04-23T09:48:29Z</time>
      </trkpt>
      <trkpt lat="43.18646" lon="5.65781">
        <ele>25.61</ele>
        <time>2019-04-23T09:48:43Z</time>
      </trkpt>
      <trkpt lat="43.18642" lon="5.65799">
        <ele>22.73</ele>
        <time>2019-04-23T09:48:55Z</time>
      </trkpt>
      <trkpt lat="43.1864" lon="5.65803">
        <ele>26.09</ele>
        <time>2019-04-23T09:48:58Z</time>
      </trkpt>
      <trkpt lat="43.1864" lon="5.65805">
        <ele>26.09</ele>
        <time>2019-04-23T09:48:59Z</time>
      </trkpt>
      <trkpt lat="43.18635" lon="5.65817">
        <ele>24.17</ele>
        <time>2019-04-23T09:49:07Z</time>
      </trkpt>
      <trkpt lat="43.18635" lon="5.65819">
        <ele>23.69</ele>
        <time>2019-04-23T09:49:08Z</time>
      </trkpt>
      <trkpt lat="43.18629" lon="5.65836">
        <ele>24.17</ele>
        <time>2019-04-23T09:49:20Z</time>
      </trkpt>
      <trkpt lat="43.18619" lon="5.65872">
        <ele>23.69</ele>
        <time>2019-04-23T09:49:38Z</time>
      </trkpt>
      <trkpt lat="43.18612" lon="5.65889">
        <ele>24.17</ele>
        <time>2019-04-23T09:49:52Z</time>
      </trkpt>
      <trkpt lat="43.18608" lon="5.65906">
        <ele>21.29</ele>
        <time>2019-04-23T09:50:05Z</time>
      </trkpt>
      <trkpt lat="43.18606" lon="5.65917">
        <ele>22.25</ele>
        <time>2019-04-23T09:50:11Z</time>
      </trkpt>
      <trkpt lat="43.18605" lon="5.65921">
        <ele>23.21</ele>
        <time>2019-04-23T09:50:14Z</time>
      </trkpt>
      <trkpt lat="43.18602" lon="5.65932">
        <ele>22.25</ele>
        <time>2019-04-23T09:50:20Z</time>
      </trkpt>
      <trkpt lat="43.18593" lon="5.65963">
        <ele>21.77</ele>
        <time>2019-04-23T09:50:39Z</time>
      </trkpt>
      <trkpt lat="43.18587" lon="5.65979">
        <ele>20.32</ele>
        <time>2019-04-23T09:50:55Z</time>
      </trkpt>
      <trkpt lat="43.18581" lon="5.66007">
        <ele>20.81</ele>
        <time>2019-04-23T09:51:13Z</time>
      </trkpt>
      <trkpt lat="43.18576" lon="5.66033">
        <ele>19.36</ele>
        <time>2019-04-23T09:51:29Z</time>
      </trkpt>
      <trkpt lat="43.1857" lon="5.66058">
        <ele>18.88</ele>
        <time>2019-04-23T09:51:45Z</time>
      </trkpt>
      <trkpt lat="43.18567" lon="5.66074">
        <ele>18.4</ele>
        <time>2019-04-23T09:51:55Z</time>
      </trkpt>
      <trkpt lat="43.18558" lon="5.66096">
        <ele>18.88</ele>
        <time>2019-04-23T09:52:12Z</time>
      </trkpt>
      <trkpt lat="43.18557" lon="5.66097">
        <ele>17.44</ele>
        <time>2019-04-23T09:52:13Z</time>
      </trkpt>
      <trkpt lat="43.18547" lon="5.66116">
        <ele>17.44</ele>
        <time>2019-04-23T09:52:27Z</time>
      </trkpt>
      <trkpt lat="43.18536" lon="5.66139">
        <ele>16.96</ele>
        <time>2019-04-23T09:52:44Z</time>
      </trkpt>
      <trkpt lat="43.18531" lon="5.6615">
        <ele>16.48</ele>
        <time>2019-04-23T09:52:52Z</time>
      </trkpt>
      <trkpt lat="43.18519" lon="5.66169">
        <ele>15.04</ele>
        <time>2019-04-23T09:53:07Z</time>
      </trkpt>
      <trkpt lat="43.18514" lon="5.66176">
        <ele>15.04</ele>
        <time>2019-04-23T09:53:15Z</time>
      </trkpt>
      <trkpt lat="43.18498" lon="5.66191">
        <ele>15.04</ele>
        <time>2019-04-23T09:53:29Z</time>
      </trkpt>
      <trkpt lat="43.1848" lon="5.66207">
        <ele>12.63</ele>
        <time>2019-04-23T09:53:47Z</time>
      </trkpt>
      <trkpt lat="43.18463" lon="5.66221">
        <ele>12.63</ele>
        <time>2019-04-23T09:54:05Z</time>
      </trkpt>
      <trkpt lat="43.18457" lon="5.66225">
        <ele>13.12</ele>
        <time>2019-04-23T09:54:11Z</time>
      </trkpt>
      <trkpt lat="43.18444" lon="5.66237">
        <ele>12.15</ele>
        <time>2019-04-23T09:54:27Z</time>
      </trkpt>
      <trkpt lat="43.1844" lon="5.66242">
        <ele>7.83</ele>
        <time>2019-04-23T09:54:33Z</time>
      </trkpt>
      <trkpt lat="43.18439" lon="5.66242">
        <ele>15.52</ele>
        <time>2019-04-23T09:54:34Z</time>
      </trkpt>
      <trkpt lat="43.18437" lon="5.66243">
        <ele>12.15</ele>
        <time>2019-04-23T09:54:36Z</time>
      </trkpt>
      <trkpt lat="43.18424" lon="5.66254">
        <ele>12.63</ele>
        <time>2019-04-23T09:54:51Z</time>
      </trkpt>
      <trkpt lat="43.1841" lon="5.66266">
        <ele>13.6</ele>
        <time>2019-04-23T09:55:08Z</time>
      </trkpt>
      <trkpt lat="43.184" lon="5.66278">
        <ele>15.52</ele>
        <time>2019-04-23T09:55:23Z</time>
      </trkpt>
      <trkpt lat="43.18392" lon="5.66289">
        <ele>16</ele>
        <time>2019-04-23T09:55:37Z</time>
      </trkpt>
      <trkpt lat="43.18385" lon="5.66305">
        <ele>16.96</ele>
        <time>2019-04-23T09:55:55Z</time>
      </trkpt>
      <trkpt lat="43.18377" lon="5.66322">
        <ele>17.92</ele>
        <time>2019-04-23T09:56:11Z</time>
      </trkpt>
      <trkpt lat="43.18369" lon="5.66346">
        <ele>16.48</ele>
        <time>2019-04-23T09:56:29Z</time>
      </trkpt>
      <trkpt lat="43.18363" lon="5.66369">
        <ele>16</ele>
        <time>2019-04-23T09:56:45Z</time>
      </trkpt>
      <trkpt lat="43.18356" lon="5.66393">
        <ele>16.96</ele>
        <time>2019-04-23T09:57:02Z</time>
      </trkpt>
      <trkpt lat="43.18352" lon="5.66409">
        <ele>16.96</ele>
        <time>2019-04-23T09:57:15Z</time>
      </trkpt>
      <trkpt lat="43.1834" lon="5.66431">
        <ele>16.96</ele>
        <time>2019-04-23T09:57:32Z</time>
      </trkpt>
      <trkpt lat="43.18333" lon="5.66452">
        <ele>16.48</ele>
        <time>2019-04-23T09:57:47Z</time>
      </trkpt>
      <trkpt lat="43.18316" lon="5.66474">
        <ele>16.96</ele>
        <time>2019-04-23T09:58:05Z</time>
      </trkpt>
      <trkpt lat="43.18301" lon="5.66486">
        <ele>18.88</ele>
        <time>2019-04-23T09:58:21Z</time>
      </trkpt>
      <trkpt lat="43.18292" lon="5.66498">
        <ele>19.84</ele>
        <time>2019-04-23T09:58:37Z</time>
      </trkpt>
      <trkpt lat="43.18287" lon="5.66516">
        <ele>20.81</ele>
        <time>2019-04-23T09:58:53Z</time>
      </trkpt>
      <trkpt lat="43.18284" lon="5.66544">
        <ele>22.25</ele>
        <time>2019-04-23T09:59:13Z</time>
      </trkpt>
      <trkpt lat="43.18282" lon="5.66558">
        <ele>22.25</ele>
        <time>2019-04-23T09:59:21Z</time>
      </trkpt>
      <trkpt lat="43.18278" lon="5.66585">
        <ele>23.69</ele>
        <time>2019-04-23T09:59:40Z</time>
      </trkpt>
      <trkpt lat="43.18278" lon="5.66611">
        <ele>24.17</ele>
        <time>2019-04-23T09:59:58Z</time>
      </trkpt>
      <trkpt lat="43.18274" lon="5.66634">
        <ele>23.21</ele>
        <time>2019-04-23T10:00:14Z</time>
      </trkpt>
      <trkpt lat="43.18269" lon="5.66662">
        <ele>24.65</ele>
        <time>2019-04-23T10:00:32Z</time>
      </trkpt>
      <trkpt lat="43.18267" lon="5.66668">
        <ele>23.21</ele>
        <time>2019-04-23T10:00:37Z</time>
      </trkpt>
      <trkpt lat="43.18263" lon="5.66686">
        <ele>24.17</ele>
        <time>2019-04-23T10:00:49Z</time>
      </trkpt>
      <trkpt lat="43.18257" lon="5.6671">
        <ele>24.65</ele>
        <time>2019-04-23T10:01:07Z</time>
      </trkpt>
      <trkpt lat="43.18249" lon="5.66728">
        <ele>24.65</ele>
        <time>2019-04-23T10:01:22Z</time>
      </trkpt>
      <trkpt lat="43.18239" lon="5.66749">
        <ele>24.65</ele>
        <time>2019-04-23T10:01:37Z</time>
      </trkpt>
      <trkpt lat="43.18229" lon="5.66768">
        <ele>25.13</ele>
        <time>2019-04-23T10:01:52Z</time>
      </trkpt>
      <trkpt lat="43.18229" lon="5.66769">
        <ele>24.65</ele>
        <time>2019-04-23T10:01:53Z</time>
      </trkpt>
      <trkpt lat="43.18219" lon="5.66785">
        <ele>23.21</ele>
        <time>2019-04-23T10:02:10Z</time>
      </trkpt>
      <trkpt lat="43.18204" lon="5.66804">
        <ele>22.73</ele>
        <time>2019-04-23T10:02:27Z</time>
      </trkpt>
      <trkpt lat="43.18196" lon="5.66812">
        <ele>21.77</ele>
        <time>2019-04-23T10:02:42Z</time>
      </trkpt>
      <trkpt lat="43.1819" lon="5.66819">
        <ele>19.84</ele>
        <time>2019-04-23T10:03:01Z</time>
      </trkpt>
      <trkpt lat="43.18198" lon="5.66811">
        <ele>20.32</ele>
        <time>2019-04-23T10:03:23Z</time>
      </trkpt>
      <trkpt lat="43.1819" lon="5.66822">
        <ele>19.84</ele>
        <time>2019-04-23T10:03:46Z</time>
      </trkpt>
      <trkpt lat="43.18184" lon="5.66825">
        <ele>19.36</ele>
        <time>2019-04-23T10:04:08Z</time>
      </trkpt>
      <trkpt lat="43.18178" lon="5.66833">
        <ele>17.44</ele>
        <time>2019-04-23T10:04:25Z</time>
      </trkpt>
      <trkpt lat="43.18169" lon="5.66842">
        <ele>14.56</ele>
        <time>2019-04-23T10:04:39Z</time>
      </trkpt>
      <trkpt lat="43.18167" lon="5.66843">
        <ele>13.6</ele>
        <time>2019-04-23T10:04:41Z</time>
      </trkpt>
      <trkpt lat="43.18158" lon="5.66846">
        <ele>10.23</ele>
        <time>2019-04-23T10:04:53Z</time>
      </trkpt>
      <trkpt lat="43.18148" lon="5.66848">
        <ele>7.35</ele>
        <time>2019-04-23T10:05:06Z</time>
      </trkpt>
      <trkpt lat="43.18144" lon="5.66843">
        <ele>7.35</ele>
        <time>2019-04-23T10:05:21Z</time>
      </trkpt>
      <trkpt lat="43.18142" lon="5.66839">
        <ele>6.39</ele>
        <time>2019-04-23T10:05:38Z</time>
      </trkpt>
      <trkpt lat="43.18142" lon="5.66839">
        <ele>6.87</ele>
        <time>2019-04-23T10:05:59Z</time>
      </trkpt>
      <trkpt lat="43.18138" lon="5.66836">
        <ele>6.87</ele>
        <time>2019-04-23T10:06:24Z</time>
      </trkpt>
      <trkpt lat="43.18143" lon="5.66844">
        <ele>6.39</ele>
        <time>2019-04-23T10:06:39Z</time>
      </trkpt>
      <trkpt lat="43.18145" lon="5.66843">
        <ele>5.91</ele>
        <time>2019-04-23T10:06:53Z</time>
      </trkpt>
      <trkpt lat="43.18147" lon="5.66841">
        <ele>5.42</ele>
        <time>2019-04-23T10:07:17Z</time>
      </trkpt>
      <trkpt lat="43.18151" lon="5.66839">
        <ele>5.42</ele>
        <time>2019-04-23T10:07:46Z</time>
      </trkpt>
      <trkpt lat="43.18144" lon="5.66844">
        <ele>6.87</ele>
        <time>2019-04-23T10:07:58Z</time>
      </trkpt>
      <trkpt lat="43.18142" lon="5.66839">
        <ele>6.87</ele>
        <time>2019-04-23T10:08:18Z</time>
      </trkpt>
      <trkpt lat="43.18141" lon="5.6684">
        <ele>6.39</ele>
        <time>2019-04-23T10:08:35Z</time>
      </trkpt>
      <trkpt lat="43.1814" lon="5.66846">
        <ele>6.39</ele>
        <time>2019-04-23T10:08:57Z</time>
      </trkpt>
      <trkpt lat="43.1814" lon="5.66846">
        <ele>6.39</ele>
        <time>2019-04-23T10:09:26Z</time>
      </trkpt>
      <trkpt lat="43.18138" lon="5.66841">
        <ele>6.39</ele>
        <time>2019-04-23T10:09:54Z</time>
      </trkpt>
      <trkpt lat="43.18143" lon="5.66841">
        <ele>6.39</ele>
        <time>2019-04-23T10:10:17Z</time>
      </trkpt>
      <trkpt lat="43.18145" lon="5.6684">
        <ele>6.39</ele>
        <time>2019-04-23T10:10:38Z</time>
      </trkpt>
      <trkpt lat="43.18145" lon="5.66836">
        <ele>5.91</ele>
        <time>2019-04-23T10:10:56Z</time>
      </trkpt>
      <trkpt lat="43.18145" lon="5.66835">
        <ele>6.87</ele>
        <time>2019-04-23T10:11:15Z</time>
      </trkpt>
      <trkpt lat="43.18146" lon="5.66836">
        <ele>6.87</ele>
        <time>2019-04-23T10:11:35Z</time>
      </trkpt>
      <trkpt lat="43.18145" lon="5.66843">
        <ele>6.87</ele>
        <time>2019-04-23T10:11:55Z</time>
      </trkpt>
      <trkpt lat="43.18142" lon="5.66841">
        <ele>6.39</ele>
        <time>2019-04-23T10:12:18Z</time>
      </trkpt>
      <trkpt lat="43.18141" lon="5.66843">
        <ele>5.91</ele>
        <time>2019-04-23T10:12:45Z</time>
      </trkpt>
      <trkpt lat="43.18139" lon="5.66837">
        <ele>5.91</ele>
        <time>2019-04-23T10:13:15Z</time>
      </trkpt>
      <trkpt lat="43.1814" lon="5.66838">
        <ele>5.91</ele>
        <time>2019-04-23T10:13:44Z</time>
      </trkpt>
      <trkpt lat="43.18139" lon="5.66841">
        <ele>6.87</ele>
        <time>2019-04-23T10:14:08Z</time>
      </trkpt>
      <trkpt lat="43.18136" lon="5.66839">
        <ele>6.39</ele>
        <time>2019-04-23T10:14:34Z</time>
      </trkpt>
      <trkpt lat="43.18139" lon="5.66841">
        <ele>6.39</ele>
        <time>2019-04-23T10:15:01Z</time>
      </trkpt>
      <trkpt lat="43.18141" lon="5.6684">
        <ele>6.39</ele>
        <time>2019-04-23T10:15:27Z</time>
      </trkpt>
      <trkpt lat="43.18141" lon="5.6684">
        <ele>6.39</ele>
        <time>2019-04-23T10:15:48Z</time>
      </trkpt>
      <trkpt lat="43.18138" lon="5.66838">
        <ele>6.39</ele>
        <time>2019-04-23T10:16:14Z</time>
      </trkpt>
      <trkpt lat="43.18139" lon="5.6684">
        <ele>6.39</ele>
        <time>2019-04-23T10:16:35Z</time>
      </trkpt>
      <trkpt lat="43.18139" lon="5.66839">
        <ele>6.39</ele>
        <time>2019-04-23T10:17:00Z</time>
      </trkpt>
      <trkpt lat="43.1814" lon="5.66839">
        <ele>6.87</ele>
        <time>2019-04-23T10:17:28Z</time>
      </trkpt>
      <trkpt lat="43.18144" lon="5.66844">
        <ele>6.39</ele>
        <time>2019-04-23T10:17:47Z</time>
      </trkpt>
      <trkpt lat="43.18145" lon="5.66846">
        <ele>6.39</ele>
        <time>2019-04-23T10:18:08Z</time>
      </trkpt>
      <trkpt lat="43.18154" lon="5.66842">
        <ele>7.83</ele>
        <time>2019-04-23T10:18:24Z</time>
      </trkpt>
      <trkpt lat="43.18159" lon="5.66841">
        <ele>10.23</ele>
        <time>2019-04-23T10:18:39Z</time>
      </trkpt>
      <trkpt lat="43.18163" lon="5.66841">
        <ele>12.15</ele>
        <time>2019-04-23T10:18:51Z</time>
      </trkpt>
      <trkpt lat="43.18169" lon="5.6684">
        <ele>15.04</ele>
        <time>2019-04-23T10:19:08Z</time>
      </trkpt>
      <trkpt lat="43.18177" lon="5.66833">
        <ele>17.44</ele>
        <time>2019-04-23T10:19:25Z</time>
      </trkpt>
      <trkpt lat="43.18189" lon="5.66822">
        <ele>19.84</ele>
        <time>2019-04-23T10:19:43Z</time>
      </trkpt>
      <trkpt lat="43.18197" lon="5.66813">
        <ele>20.81</ele>
        <time>2019-04-23T10:20:01Z</time>
      </trkpt>
      <trkpt lat="43.18187" lon="5.66828">
        <ele>19.36</ele>
        <time>2019-04-23T10:20:20Z</time>
      </trkpt>
      <trkpt lat="43.18175" lon="5.66846">
        <ele>17.44</ele>
        <time>2019-04-23T10:20:37Z</time>
      </trkpt>
      <trkpt lat="43.18164" lon="5.66865">
        <ele>16</ele>
        <time>2019-04-23T10:20:53Z</time>
      </trkpt>
      <trkpt lat="43.18158" lon="5.66871">
        <ele>16.96</ele>
        <time>2019-04-23T10:21:07Z</time>
      </trkpt>
      <trkpt lat="43.18148" lon="5.66884">
        <ele>16</ele>
        <time>2019-04-23T10:21:24Z</time>
      </trkpt>
      <trkpt lat="43.18138" lon="5.66897">
        <ele>14.56</ele>
        <time>2019-04-23T10:21:39Z</time>
      </trkpt>
      <trkpt lat="43.18128" lon="5.66906">
        <ele>13.6</ele>
        <time>2019-04-23T10:21:56Z</time>
      </trkpt>
      <trkpt lat="43.18119" lon="5.66923">
        <ele>12.63</ele>
        <time>2019-04-23T10:22:13Z</time>
      </trkpt>
      <trkpt lat="43.18112" lon="5.6695">
        <ele>11.67</ele>
        <time>2019-04-23T10:22:32Z</time>
      </trkpt>
      <trkpt lat="43.18104" lon="5.66972">
        <ele>10.71</ele>
        <time>2019-04-23T10:22:48Z</time>
      </trkpt>
      <trkpt lat="43.18099" lon="5.66993">
        <ele>10.71</ele>
        <time>2019-04-23T10:23:04Z</time>
      </trkpt>
      <trkpt lat="43.18094" lon="5.67017">
        <ele>10.71</ele>
        <time>2019-04-23T10:23:22Z</time>
      </trkpt>
      <trkpt lat="43.18087" lon="5.67036">
        <ele>11.67</ele>
        <time>2019-04-23T10:23:39Z</time>
      </trkpt>
      <trkpt lat="43.18082" lon="5.67055">
        <ele>14.08</ele>
        <time>2019-04-23T10:23:58Z</time>
      </trkpt>
      <trkpt lat="43.18073" lon="5.67094">
        <ele>14.08</ele>
        <time>2019-04-23T10:24:20Z</time>
      </trkpt>
      <trkpt lat="43.1807" lon="5.67124">
        <ele>16.48</ele>
        <time>2019-04-23T10:24:41Z</time>
      </trkpt>
      <trkpt lat="43.18068" lon="5.67142">
        <ele>18.4</ele>
        <time>2019-04-23T10:24:57Z</time>
      </trkpt>
      <trkpt lat="43.18068" lon="5.67172">
        <ele>19.36</ele>
        <time>2019-04-23T10:25:19Z</time>
      </trkpt>
      <trkpt lat="43.18068" lon="5.67177">
        <ele>19.84</ele>
        <time>2019-04-23T10:25:22Z</time>
      </trkpt>
      <trkpt lat="43.18064" lon="5.67204">
        <ele>21.77</ele>
        <time>2019-04-23T10:25:40Z</time>
      </trkpt>
      <trkpt lat="43.18059" lon="5.6723">
        <ele>21.29</ele>
        <time>2019-04-23T10:25:56Z</time>
      </trkpt>
      <trkpt lat="43.18056" lon="5.67248">
        <ele>21.77</ele>
        <time>2019-04-23T10:26:09Z</time>
      </trkpt>
      <trkpt lat="43.18048" lon="5.67277">
        <ele>21.29</ele>
        <time>2019-04-23T10:26:27Z</time>
      </trkpt>
      <trkpt lat="43.18047" lon="5.67297">
        <ele>21.77</ele>
        <time>2019-04-23T10:26:43Z</time>
      </trkpt>
      <trkpt lat="43.18042" lon="5.67331">
        <ele>21.29</ele>
        <time>2019-04-23T10:27:01Z</time>
      </trkpt>
      <trkpt lat="43.18035" lon="5.67354">
        <ele>21.77</ele>
        <time>2019-04-23T10:27:18Z</time>
      </trkpt>
      <trkpt lat="43.18029" lon="5.67385">
        <ele>21.29</ele>
        <time>2019-04-23T10:27:36Z</time>
      </trkpt>
      <trkpt lat="43.18025" lon="5.67413">
        <ele>19.36</ele>
        <time>2019-04-23T10:27:55Z</time>
      </trkpt>
      <trkpt lat="43.1802" lon="5.67435">
        <ele>18.88</ele>
        <time>2019-04-23T10:28:10Z</time>
      </trkpt>
      <trkpt lat="43.18018" lon="5.67447">
        <ele>18.88</ele>
        <time>2019-04-23T10:28:18Z</time>
      </trkpt>
      <trkpt lat="43.18014" lon="5.67474">
        <ele>17.44</ele>
        <time>2019-04-23T10:28:33Z</time>
      </trkpt>
      <trkpt lat="43.18009" lon="5.67502">
        <ele>17.44</ele>
        <time>2019-04-23T10:28:50Z</time>
      </trkpt>
      <trkpt lat="43.18005" lon="5.67518">
        <ele>16.48</ele>
        <time>2019-04-23T10:29:03Z</time>
      </trkpt>
      <trkpt lat="43.18001" lon="5.67546">
        <ele>16</ele>
        <time>2019-04-23T10:29:20Z</time>
      </trkpt>
      <trkpt lat="43.17995" lon="5.67579">
        <ele>15.52</ele>
        <time>2019-04-23T10:29:39Z</time>
      </trkpt>
      <trkpt lat="43.17989" lon="5.67601">
        <ele>16</ele>
        <time>2019-04-23T10:29:57Z</time>
      </trkpt>
      <trkpt lat="43.17985" lon="5.67627">
        <ele>15.52</ele>
        <time>2019-04-23T10:30:13Z</time>
      </trkpt>
      <trkpt lat="43.17983" lon="5.67638">
        <ele>13.12</ele>
        <time>2019-04-23T10:30:20Z</time>
      </trkpt>
      <trkpt lat="43.17982" lon="5.67642">
        <ele>14.56</ele>
        <time>2019-04-23T10:30:22Z</time>
      </trkpt>
      <trkpt lat="43.17978" lon="5.67673">
        <ele>14.08</ele>
        <time>2019-04-23T10:30:40Z</time>
      </trkpt>
      <trkpt lat="43.17978" lon="5.67677">
        <ele>14.56</ele>
        <time>2019-04-23T10:30:42Z</time>
      </trkpt>
      <trkpt lat="43.17977" lon="5.67688">
        <ele>14.56</ele>
        <time>2019-04-23T10:31:00Z</time>
      </trkpt>
      <trkpt lat="43.17976" lon="5.67704">
        <ele>15.04</ele>
        <time>2019-04-23T10:31:16Z</time>
      </trkpt>
      <trkpt lat="43.17974" lon="5.67734">
        <ele>14.08</ele>
        <time>2019-04-23T10:31:34Z</time>
      </trkpt>
      <trkpt lat="43.17972" lon="5.67762">
        <ele>13.12</ele>
        <time>2019-04-23T10:31:52Z</time>
      </trkpt>
      <trkpt lat="43.17972" lon="5.67767">
        <ele>11.67</ele>
        <time>2019-04-23T10:31:55Z</time>
      </trkpt>
      <trkpt lat="43.1797" lon="5.67793">
        <ele>11.19</ele>
        <time>2019-04-23T10:32:10Z</time>
      </trkpt>
      <trkpt lat="43.1797" lon="5.67796">
        <ele>10.71</ele>
        <time>2019-04-23T10:32:12Z</time>
      </trkpt>
      <trkpt lat="43.17974" lon="5.67818">
        <ele>10.71</ele>
        <time>2019-04-23T10:32:26Z</time>
      </trkpt>
      <trkpt lat="43.17973" lon="5.67837">
        <ele>8.79</ele>
        <time>2019-04-23T10:32:39Z</time>
      </trkpt>
      <trkpt lat="43.17976" lon="5.6786">
        <ele>7.35</ele>
        <time>2019-04-23T10:32:53Z</time>
      </trkpt>
      <trkpt lat="43.17979" lon="5.67883">
        <ele>6.87</ele>
        <time>2019-04-23T10:33:07Z</time>
      </trkpt>
      <trkpt lat="43.17981" lon="5.67906">
        <ele>7.83</ele>
        <time>2019-04-23T10:33:23Z</time>
      </trkpt>
      <trkpt lat="43.17986" lon="5.6793">
        <ele>6.39</ele>
        <time>2019-04-23T10:33:39Z</time>
      </trkpt>
      <trkpt lat="43.17987" lon="5.67935">
        <ele>6.87</ele>
        <time>2019-04-23T10:33:44Z</time>
      </trkpt>
      <trkpt lat="43.17988" lon="5.67938">
        <ele>7.35</ele>
        <time>2019-04-23T10:33:46Z</time>
      </trkpt>
      <trkpt lat="43.1799" lon="5.67943">
        <ele>8.31</ele>
        <time>2019-04-23T10:33:49Z</time>
      </trkpt>
      <trkpt lat="43.17992" lon="5.67944">
        <ele>6.39</ele>
        <time>2019-04-23T10:33:50Z</time>
      </trkpt>
      <trkpt lat="43.17995" lon="5.6795">
        <ele>6.87</ele>
        <time>2019-04-23T10:33:56Z</time>
      </trkpt>
      <trkpt lat="43.17995" lon="5.67952">
        <ele>6.87</ele>
        <time>2019-04-23T10:33:57Z</time>
      </trkpt>
      <trkpt lat="43.17996" lon="5.67954">
        <ele>7.35</ele>
        <time>2019-04-23T10:33:58Z</time>
      </trkpt>
      <trkpt lat="43.17996" lon="5.67956">
        <ele>7.35</ele>
        <time>2019-04-23T10:33:59Z</time>
      </trkpt>
      <trkpt lat="43.17998" lon="5.67959">
        <ele>7.35</ele>
        <time>2019-04-23T10:34:00Z</time>
      </trkpt>
      <trkpt lat="43.17999" lon="5.67961">
        <ele>7.35</ele>
        <time>2019-04-23T10:34:01Z</time>
      </trkpt>
      <trkpt lat="43.17988" lon="5.67971">
        <ele>5.42</ele>
        <time>2019-04-23T10:34:11Z</time>
      </trkpt>
      <trkpt lat="43.17983" lon="5.67972">
        <ele>4.94</ele>
        <time>2019-04-23T10:34:13Z</time>
      </trkpt>
      <trkpt lat="43.17981" lon="5.67972">
        <ele>4.94</ele>
        <time>2019-04-23T10:34:14Z</time>
      </trkpt>
      <trkpt lat="43.17977" lon="5.67975">
        <ele>3.02</ele>
        <time>2019-04-23T10:34:19Z</time>
      </trkpt>
      <trkpt lat="43.17962" lon="5.67985">
        <ele>2.54</ele>
        <time>2019-04-23T10:34:33Z</time>
      </trkpt>
      <trkpt lat="43.17952" lon="5.6799">
        <ele>2.06</ele>
        <time>2019-04-23T10:34:46Z</time>
      </trkpt>
      <trkpt lat="43.17943" lon="5.68001">
        <ele>2.54</ele>
        <time>2019-04-23T10:34:58Z</time>
      </trkpt>
      <trkpt lat="43.17943" lon="5.68001">
        <ele>3.02</ele>
        <time>2019-04-23T10:34:59Z</time>
      </trkpt>
      <trkpt lat="43.17942" lon="5.68001">
        <ele>2.54</ele>
        <time>2019-04-23T10:35:00Z</time>
      </trkpt>
      <trkpt lat="43.1794" lon="5.68002">
        <ele>2.06</ele>
        <time>2019-04-23T10:35:03Z</time>
      </trkpt>
      <trkpt lat="43.17936" lon="5.68018">
        <ele>1.58</ele>
        <time>2019-04-23T10:35:19Z</time>
      </trkpt>
      <trkpt lat="43.17938" lon="5.68026">
        <ele>1.58</ele>
        <time>2019-04-23T10:35:24Z</time>
      </trkpt>
      <trkpt lat="43.17941" lon="5.68032">
        <ele>0.62</ele>
        <time>2019-04-23T10:35:32Z</time>
      </trkpt>
      <trkpt lat="43.17945" lon="5.68054">
        <ele>2.06</ele>
        <time>2019-04-23T10:35:52Z</time>
      </trkpt>
      <trkpt lat="43.17946" lon="5.68056">
        <ele>2.06</ele>
        <time>2019-04-23T10:36:08Z</time>
      </trkpt>
      <trkpt lat="43.17951" lon="5.68071">
        <ele>2.06</ele>
        <time>2019-04-23T10:36:29Z</time>
      </trkpt>
      <trkpt lat="43.17951" lon="5.68067">
        <ele>2.06</ele>
        <time>2019-04-23T10:36:47Z</time>
      </trkpt>
      <trkpt lat="43.17954" lon="5.68073">
        <ele>2.54</ele>
        <time>2019-04-23T10:37:01Z</time>
      </trkpt>
      <trkpt lat="43.17958" lon="5.68084">
        <ele>2.06</ele>
        <time>2019-04-23T10:37:14Z</time>
      </trkpt>
      <trkpt lat="43.1796" lon="5.68089">
        <ele>2.06</ele>
        <time>2019-04-23T10:37:21Z</time>
      </trkpt>
      <trkpt lat="43.17966" lon="5.68097">
        <ele>3.5</ele>
        <time>2019-04-23T10:37:37Z</time>
      </trkpt>
      <trkpt lat="43.17965" lon="5.68094">
        <ele>2.54</ele>
        <time>2019-04-23T10:37:54Z</time>
      </trkpt>
      <trkpt lat="43.17967" lon="5.68097">
        <ele>2.54</ele>
        <time>2019-04-23T10:38:11Z</time>
      </trkpt>
      <trkpt lat="43.17973" lon="5.68099">
        <ele>2.06</ele>
        <time>2019-04-23T10:38:20Z</time>
      </trkpt>
      <trkpt lat="43.17973" lon="5.68099">
        <ele>3.02</ele>
        <time>2019-04-23T10:38:27Z</time>
      </trkpt>
      <trkpt lat="43.1798" lon="5.6811">
        <ele>3.98</ele>
        <time>2019-04-23T10:38:39Z</time>
      </trkpt>
      <trkpt lat="43.17982" lon="5.68114">
        <ele>2.54</ele>
        <time>2019-04-23T10:38:45Z</time>
      </trkpt>
      <trkpt lat="43.17982" lon="5.68114">
        <ele>3.5</ele>
        <time>2019-04-23T10:39:03Z</time>
      </trkpt>
      <trkpt lat="43.17987" lon="5.68129">
        <ele>2.54</ele>
        <time>2019-04-23T10:39:19Z</time>
      </trkpt>
      <trkpt lat="43.17975" lon="5.68146">
        <ele>3.02</ele>
        <time>2019-04-23T10:39:41Z</time>
      </trkpt>
      <trkpt lat="43.17973" lon="5.68147">
        <ele>3.02</ele>
        <time>2019-04-23T10:39:53Z</time>
      </trkpt>
      <trkpt lat="43.17975" lon="5.6816">
        <ele>3.02</ele>
        <time>2019-04-23T10:40:06Z</time>
      </trkpt>
      <trkpt lat="43.17976" lon="5.6817">
        <ele>3.02</ele>
        <time>2019-04-23T10:40:18Z</time>
      </trkpt>
      <trkpt lat="43.17977" lon="5.68177">
        <ele>3.02</ele>
        <time>2019-04-23T10:40:24Z</time>
      </trkpt>
      <trkpt lat="43.1798" lon="5.68192">
        <ele>3.02</ele>
        <time>2019-04-23T10:40:36Z</time>
      </trkpt>
      <trkpt lat="43.17981" lon="5.68212">
        <ele>1.58</ele>
        <time>2019-04-23T10:40:49Z</time>
      </trkpt>
      <trkpt lat="43.17983" lon="5.68225">
        <ele>2.54</ele>
        <time>2019-04-23T10:41:00Z</time>
      </trkpt>
      <trkpt lat="43.17983" lon="5.68239">
        <ele>2.54</ele>
        <time>2019-04-23T10:41:13Z</time>
      </trkpt>
      <trkpt lat="43.17983" lon="5.68248">
        <ele>3.02</ele>
        <time>2019-04-23T10:41:19Z</time>
      </trkpt>
      <trkpt lat="43.17984" lon="5.68257">
        <ele>2.54</ele>
        <time>2019-04-23T10:41:26Z</time>
      </trkpt>
      <trkpt lat="43.17987" lon="5.68273">
        <ele>3.02</ele>
        <time>2019-04-23T10:41:38Z</time>
      </trkpt>
      <trkpt lat="43.1799" lon="5.68279">
        <ele>2.54</ele>
        <time>2019-04-23T10:41:46Z</time>
      </trkpt>
      <trkpt lat="43.17993" lon="5.68286">
        <ele>3.5</ele>
        <time>2019-04-23T10:41:55Z</time>
      </trkpt>
      <trkpt lat="43.17993" lon="5.68291">
        <ele>3.5</ele>
        <time>2019-04-23T10:42:00Z</time>
      </trkpt>
      <trkpt lat="43.17994" lon="5.68294">
        <ele>3.98</ele>
        <time>2019-04-23T10:42:02Z</time>
      </trkpt>
      <trkpt lat="43.18006" lon="5.683">
        <ele>3.5</ele>
        <time>2019-04-23T10:42:15Z</time>
      </trkpt>
      <trkpt lat="43.18008" lon="5.68302">
        <ele>2.06</ele>
        <time>2019-04-23T10:42:26Z</time>
      </trkpt>
      <trkpt lat="43.18006" lon="5.68311">
        <ele>1.58</ele>
        <time>2019-04-23T10:42:33Z</time>
      </trkpt>
      <trkpt lat="43.18008" lon="5.68321">
        <ele>2.54</ele>
        <time>2019-04-23T10:42:41Z</time>
      </trkpt>
      <trkpt lat="43.18008" lon="5.68324">
        <ele>1.58</ele>
        <time>2019-04-23T10:42:46Z</time>
      </trkpt>
      <trkpt lat="43.18009" lon="5.68322">
        <ele>2.06</ele>
        <time>2019-04-23T10:42:48Z</time>
      </trkpt>
      <trkpt lat="43.18011" lon="5.68318">
        <ele>2.06</ele>
        <time>2019-04-23T10:42:52Z</time>
      </trkpt>
      <trkpt lat="43.18016" lon="5.68313">
        <ele>2.54</ele>
        <time>2019-04-23T10:43:03Z</time>
      </trkpt>
      <trkpt lat="43.18021" lon="5.68309">
        <ele>2.06</ele>
        <time>2019-04-23T10:43:17Z</time>
      </trkpt>
      <trkpt lat="43.18014" lon="5.68321">
        <ele>1.1</ele>
        <time>2019-04-23T10:44:01Z</time>
      </trkpt>
      <trkpt lat="43.18012" lon="5.68319">
        <ele>2.06</ele>
        <time>2019-04-23T10:44:05Z</time>
      </trkpt>
      <trkpt lat="43.18008" lon="5.68338">
        <ele>2.54</ele>
        <time>2019-04-23T10:44:17Z</time>
      </trkpt>
      <trkpt lat="43.18008" lon="5.6834">
        <ele>2.54</ele>
        <time>2019-04-23T10:44:19Z</time>
      </trkpt>
      <trkpt lat="43.18014" lon="5.68352">
        <ele>2.54</ele>
        <time>2019-04-23T10:44:33Z</time>
      </trkpt>
      <trkpt lat="43.18019" lon="5.68349">
        <ele>3.02</ele>
        <time>2019-04-23T10:44:51Z</time>
      </trkpt>
      <trkpt lat="43.18018" lon="5.6836">
        <ele>2.54</ele>
        <time>2019-04-23T10:45:05Z</time>
      </trkpt>
      <trkpt lat="43.18015" lon="5.68356">
        <ele>2.54</ele>
        <time>2019-04-23T10:45:20Z</time>
      </trkpt>
      <trkpt lat="43.18016" lon="5.68359">
        <ele>2.54</ele>
        <time>2019-04-23T10:45:33Z</time>
      </trkpt>
      <trkpt lat="43.18018" lon="5.68361">
        <ele>2.54</ele>
        <time>2019-04-23T10:45:48Z</time>
      </trkpt>
      <trkpt lat="43.18017" lon="5.68366">
        <ele>2.06</ele>
        <time>2019-04-23T10:45:59Z</time>
      </trkpt>
      <trkpt lat="43.18016" lon="5.68382">
        <ele>2.06</ele>
        <time>2019-04-23T10:46:12Z</time>
      </trkpt>
      <trkpt lat="43.18019" lon="5.68391">
        <ele>2.06</ele>
        <time>2019-04-23T10:46:21Z</time>
      </trkpt>
      <trkpt lat="43.18018" lon="5.68412">
        <ele>2.54</ele>
        <time>2019-04-23T10:46:36Z</time>
      </trkpt>
      <trkpt lat="43.18018" lon="5.68432">
        <ele>3.5</ele>
        <time>2019-04-23T10:46:50Z</time>
      </trkpt>
      <trkpt lat="43.1802" lon="5.68443">
        <ele>3.02</ele>
        <time>2019-04-23T10:47:04Z</time>
      </trkpt>
      <trkpt lat="43.18021" lon="5.68445">
        <ele>3.02</ele>
        <time>2019-04-23T10:47:10Z</time>
      </trkpt>
      <trkpt lat="43.1802" lon="5.68448">
        <ele>3.5</ele>
        <time>2019-04-23T10:47:14Z</time>
      </trkpt>
      <trkpt lat="43.1802" lon="5.68455">
        <ele>3.02</ele>
        <time>2019-04-23T10:47:28Z</time>
      </trkpt>
      <trkpt lat="43.18023" lon="5.68463">
        <ele>3.98</ele>
        <time>2019-04-23T10:47:37Z</time>
      </trkpt>
      <trkpt lat="43.18031" lon="5.68468">
        <ele>3.02</ele>
        <time>2019-04-23T10:47:51Z</time>
      </trkpt>
      <trkpt lat="43.18031" lon="5.68467">
        <ele>3.5</ele>
        <time>2019-04-23T10:47:52Z</time>
      </trkpt>
      <trkpt lat="43.18032" lon="5.6847">
        <ele>4.46</ele>
        <time>2019-04-23T10:48:01Z</time>
      </trkpt>
      <trkpt lat="43.1803" lon="5.68475">
        <ele>3.5</ele>
        <time>2019-04-23T10:48:11Z</time>
      </trkpt>
      <trkpt lat="43.18032" lon="5.68475">
        <ele>2.54</ele>
        <time>2019-04-23T10:48:31Z</time>
      </trkpt>
      <trkpt lat="43.18038" lon="5.68481">
        <ele>3.5</ele>
        <time>2019-04-23T10:48:39Z</time>
      </trkpt>
      <trkpt lat="43.18039" lon="5.68498">
        <ele>3.98</ele>
        <time>2019-04-23T10:48:53Z</time>
      </trkpt>
      <trkpt lat="43.18041" lon="5.68499">
        <ele>3.98</ele>
        <time>2019-04-23T10:49:06Z</time>
      </trkpt>
      <trkpt lat="43.18042" lon="5.68495">
        <ele>4.46</ele>
        <time>2019-04-23T10:49:10Z</time>
      </trkpt>
      <trkpt lat="43.18042" lon="5.68482">
        <ele>4.46</ele>
        <time>2019-04-23T10:49:16Z</time>
      </trkpt>
      <trkpt lat="43.18043" lon="5.68478">
        <ele>2.54</ele>
        <time>2019-04-23T10:49:22Z</time>
      </trkpt>
      <trkpt lat="43.18041" lon="5.68499">
        <ele>5.91</ele>
        <time>2019-04-23T11:51:50Z</time>
      </trkpt>
      <trkpt lat="43.18051" lon="5.68461">
        <ele>5.91</ele>
        <time>2019-04-23T11:51:51Z</time>
      </trkpt>
      <trkpt lat="43.18051" lon="5.68458">
        <ele>5.91</ele>
        <time>2019-04-23T11:52:07Z</time>
      </trkpt>
      <trkpt lat="43.18049" lon="5.68459">
        <ele>9.27</ele>
        <time>2019-04-23T11:52:22Z</time>
      </trkpt>
      <trkpt lat="43.1805" lon="5.68455">
        <ele>10.71</ele>
        <time>2019-04-23T11:52:40Z</time>
      </trkpt>
      <trkpt lat="43.18053" lon="5.68452">
        <ele>10.71</ele>
        <time>2019-04-23T11:52:52Z</time>
      </trkpt>
      <trkpt lat="43.1806" lon="5.68456">
        <ele>11.19</ele>
        <time>2019-04-23T11:53:02Z</time>
      </trkpt>
      <trkpt lat="43.18069" lon="5.68452">
        <ele>11.19</ele>
        <time>2019-04-23T11:53:15Z</time>
      </trkpt>
      <trkpt lat="43.18075" lon="5.68451">
        <ele>12.15</ele>
        <time>2019-04-23T11:53:22Z</time>
      </trkpt>
      <trkpt lat="43.18077" lon="5.68451">
        <ele>12.63</ele>
        <time>2019-04-23T11:53:23Z</time>
      </trkpt>
      <trkpt lat="43.1809" lon="5.68443">
        <ele>12.15</ele>
        <time>2019-04-23T11:53:35Z</time>
      </trkpt>
      <trkpt lat="43.181" lon="5.6844">
        <ele>13.12</ele>
        <time>2019-04-23T11:53:47Z</time>
      </trkpt>
      <trkpt lat="43.1811" lon="5.68434">
        <ele>14.08</ele>
        <time>2019-04-23T11:53:59Z</time>
      </trkpt>
      <trkpt lat="43.1812" lon="5.68434">
        <ele>15.04</ele>
        <time>2019-04-23T11:54:10Z</time>
      </trkpt>
      <trkpt lat="43.18126" lon="5.68434">
        <ele>15.04</ele>
        <time>2019-04-23T11:54:19Z</time>
      </trkpt>
      <trkpt lat="43.18132" lon="5.68436">
        <ele>15.04</ele>
        <time>2019-04-23T11:54:24Z</time>
      </trkpt>
      <trkpt lat="43.18148" lon="5.68428">
        <ele>16.48</ele>
        <time>2019-04-23T11:54:39Z</time>
      </trkpt>
      <trkpt lat="43.18152" lon="5.68425">
        <ele>16.48</ele>
        <time>2019-04-23T11:54:43Z</time>
      </trkpt>
      <trkpt lat="43.18162" lon="5.68424">
        <ele>17.44</ele>
        <time>2019-04-23T11:54:55Z</time>
      </trkpt>
      <trkpt lat="43.18165" lon="5.68424">
        <ele>17.92</ele>
        <time>2019-04-23T11:54:59Z</time>
      </trkpt>
      <trkpt lat="43.18172" lon="5.6842">
        <ele>17.92</ele>
        <time>2019-04-23T11:55:07Z</time>
      </trkpt>
      <trkpt lat="43.18179" lon="5.68416">
        <ele>18.88</ele>
        <time>2019-04-23T11:55:17Z</time>
      </trkpt>
      <trkpt lat="43.18187" lon="5.68412">
        <ele>19.36</ele>
        <time>2019-04-23T11:55:30Z</time>
      </trkpt>
      <trkpt lat="43.18189" lon="5.68411">
        <ele>19.36</ele>
        <time>2019-04-23T11:55:33Z</time>
      </trkpt>
      <trkpt lat="43.18201" lon="5.68405">
        <ele>19.84</ele>
        <time>2019-04-23T11:55:48Z</time>
      </trkpt>
      <trkpt lat="43.18203" lon="5.68404">
        <ele>19.84</ele>
        <time>2019-04-23T11:55:52Z</time>
      </trkpt>
      <trkpt lat="43.1821" lon="5.68402">
        <ele>20.81</ele>
        <time>2019-04-23T11:55:58Z</time>
      </trkpt>
      <trkpt lat="43.18221" lon="5.68398">
        <ele>22.25</ele>
        <time>2019-04-23T11:56:11Z</time>
      </trkpt>
      <trkpt lat="43.18228" lon="5.68398">
        <ele>22.73</ele>
        <time>2019-04-23T11:56:23Z</time>
      </trkpt>
      <trkpt lat="43.18228" lon="5.68399">
        <ele>22.25</ele>
        <time>2019-04-23T11:56:24Z</time>
      </trkpt>
      <trkpt lat="43.18241" lon="5.68414">
        <ele>21.29</ele>
        <time>2019-04-23T11:57:55Z</time>
      </trkpt>
    </trkseg>
  </trk>
</gpx>